<?xml version="1.0" encoding="UTF-8" standalone="no" ?>
<gpx xmlns="http://www.topografix.com/GPX/1/1" xmlns:xsi="http://www.w3.org/2001/XMLSchema-instance" xsi:schemaLocation="http://www.topografix.com/GPX/1/1 http://www.topografix.com/GPX/1/1/gpx.xsd" version="1.1" creator="VisuGPX - https://www.visugpx.com">
  <metadata>
    <name>Boue\'Roger 2014 Remake avec VTTHN 27- 07-2014</name>
    <desc><![CDATA[Boue\'Roger 2014 améliorée de qq beaux singles ]]></desc>
  </metadata>
  <trk>
    <name><![CDATA[BR14 Remake VTTHN 07-2014]]></name>
    <trkseg>
      <trkpt lat="49.3135" lon="0.92585">
        <ele>106.105103</ele>
        <time>2014-07-27T08:31:06Z</time>
      </trkpt>
      <trkpt lat="49.31345" lon="0.92605">
        <ele>106.599144</ele>
        <time>2014-07-27T08:42:24Z</time>
      </trkpt>
      <trkpt lat="49.31343" lon="0.92608">
        <ele>106.807365</ele>
        <time>2014-07-27T08:42:26Z</time>
      </trkpt>
      <trkpt lat="49.31328" lon="0.92613">
        <ele>108.111252</ele>
        <time>2014-07-27T08:42:33Z</time>
      </trkpt>
      <trkpt lat="49.31313" lon="0.9262">
        <ele>109.554375</ele>
        <time>2014-07-27T08:42:40Z</time>
      </trkpt>
      <trkpt lat="49.31288" lon="0.92633">
        <ele>111.840813</ele>
        <time>2014-07-27T08:42:50Z</time>
      </trkpt>
      <trkpt lat="49.31273" lon="0.92635">
        <ele>112.757545</ele>
        <time>2014-07-27T08:42:55Z</time>
      </trkpt>
      <trkpt lat="49.31258" lon="0.9264">
        <ele>113.7575</ele>
        <time>2014-07-27T08:43:00Z</time>
      </trkpt>
      <trkpt lat="49.31243" lon="0.92648">
        <ele>114.725906</ele>
        <time>2014-07-27T08:43:05Z</time>
      </trkpt>
      <trkpt lat="49.31228" lon="0.92655">
        <ele>115.28772</ele>
        <time>2014-07-27T08:43:11Z</time>
      </trkpt>
      <trkpt lat="49.31213" lon="0.92663">
        <ele>115.793236</ele>
        <time>2014-07-27T08:43:16Z</time>
      </trkpt>
      <trkpt lat="49.31198" lon="0.9267">
        <ele>116.337502</ele>
        <time>2014-07-27T08:43:21Z</time>
      </trkpt>
      <trkpt lat="49.3118" lon="0.92675">
        <ele>116.858749</ele>
        <time>2014-07-27T08:43:26Z</time>
      </trkpt>
      <trkpt lat="49.31163" lon="0.92683">
        <ele>117.452499</ele>
        <time>2014-07-27T08:43:32Z</time>
      </trkpt>
      <trkpt lat="49.31135" lon="0.92693">
        <ele>118.337502</ele>
        <time>2014-07-27T08:43:41Z</time>
      </trkpt>
      <trkpt lat="49.3111" lon="0.92703">
        <ele>119.194275</ele>
        <time>2014-07-27T08:43:49Z</time>
      </trkpt>
      <trkpt lat="49.31093" lon="0.9271">
        <ele>119.917191</ele>
        <time>2014-07-27T08:43:55Z</time>
      </trkpt>
      <trkpt lat="49.31075" lon="0.92715">
        <ele>120.51738</ele>
        <time>2014-07-27T08:44:00Z</time>
      </trkpt>
      <trkpt lat="49.31048" lon="0.92723">
        <ele>121.275002</ele>
        <time>2014-07-27T08:44:08Z</time>
      </trkpt>
      <trkpt lat="49.31028" lon="0.9273">
        <ele>121.826248</ele>
        <time>2014-07-27T08:44:15Z</time>
      </trkpt>
      <trkpt lat="49.31028" lon="0.92755">
        <ele>121.910004</ele>
        <time>2014-07-27T08:44:22Z</time>
      </trkpt>
      <trkpt lat="49.3103" lon="0.92778">
        <ele>121.860001</ele>
        <time>2014-07-27T08:44:26Z</time>
      </trkpt>
      <trkpt lat="49.31035" lon="0.92803">
        <ele>121.754997</ele>
        <time>2014-07-27T08:44:31Z</time>
      </trkpt>
      <trkpt lat="49.3104" lon="0.92825">
        <ele>121.958748</ele>
        <time>2014-07-27T08:44:37Z</time>
      </trkpt>
      <trkpt lat="49.31045" lon="0.9285">
        <ele>122.219376</ele>
        <time>2014-07-27T08:44:46Z</time>
      </trkpt>
      <trkpt lat="49.31053" lon="0.92888">
        <ele>122.613121</ele>
        <time>2014-07-27T08:44:55Z</time>
      </trkpt>
      <trkpt lat="49.31058" lon="0.92908">
        <ele>122.796249</ele>
        <time>2014-07-27T08:44:59Z</time>
      </trkpt>
      <trkpt lat="49.31063" lon="0.9293">
        <ele>123.020622</ele>
        <time>2014-07-27T08:45:06Z</time>
      </trkpt>
      <trkpt lat="49.3107" lon="0.92958">
        <ele>123.260635</ele>
        <time>2014-07-27T08:45:13Z</time>
      </trkpt>
      <trkpt lat="49.31075" lon="0.9298">
        <ele>123.488747</ele>
        <time>2014-07-27T08:45:19Z</time>
      </trkpt>
      <trkpt lat="49.3108" lon="0.93003">
        <ele>123.713127</ele>
        <time>2014-07-27T08:45:25Z</time>
      </trkpt>
      <trkpt lat="49.31085" lon="0.93023">
        <ele>123.901253</ele>
        <time>2014-07-27T08:45:30Z</time>
      </trkpt>
      <trkpt lat="49.31095" lon="0.93063">
        <ele>124.276871</ele>
        <time>2014-07-27T08:45:40Z</time>
      </trkpt>
      <trkpt lat="49.31103" lon="0.93085">
        <ele>124.442497</ele>
        <time>2014-07-27T08:45:45Z</time>
      </trkpt>
      <trkpt lat="49.31108" lon="0.93108">
        <ele>124.666878</ele>
        <time>2014-07-27T08:45:49Z</time>
      </trkpt>
      <trkpt lat="49.3111" lon="0.93133">
        <ele>124.981873</ele>
        <time>2014-07-27T08:45:53Z</time>
      </trkpt>
      <trkpt lat="49.3111" lon="0.93155">
        <ele>125.294289</ele>
        <time>2014-07-27T08:45:56Z</time>
      </trkpt>
      <trkpt lat="49.31113" lon="0.93183">
        <ele>125.600342</ele>
        <time>2014-07-27T08:46:00Z</time>
      </trkpt>
      <trkpt lat="49.31115" lon="0.93208">
        <ele>125.913177</ele>
        <time>2014-07-27T08:46:04Z</time>
      </trkpt>
      <trkpt lat="49.3112" lon="0.93228">
        <ele>125.756828</ele>
        <time>2014-07-27T08:46:07Z</time>
      </trkpt>
      <trkpt lat="49.31123" lon="0.93253">
        <ele>125.329109</ele>
        <time>2014-07-27T08:46:11Z</time>
      </trkpt>
      <trkpt lat="49.31128" lon="0.93278">
        <ele>124.878426</ele>
        <time>2014-07-27T08:46:15Z</time>
      </trkpt>
      <trkpt lat="49.3113" lon="0.933">
        <ele>124.512497</ele>
        <time>2014-07-27T08:46:19Z</time>
      </trkpt>
      <trkpt lat="49.31135" lon="0.9332">
        <ele>124.114372</ele>
        <time>2014-07-27T08:46:23Z</time>
      </trkpt>
      <trkpt lat="49.3114" lon="0.93343">
        <ele>123.68</ele>
        <time>2014-07-27T08:46:29Z</time>
      </trkpt>
      <trkpt lat="49.31145" lon="0.93368">
        <ele>123.209373</ele>
        <time>2014-07-27T08:46:33Z</time>
      </trkpt>
      <trkpt lat="49.3115" lon="0.93393">
        <ele>122.738747</ele>
        <time>2014-07-27T08:46:37Z</time>
      </trkpt>
      <trkpt lat="49.31158" lon="0.93413">
        <ele>122.284378</ele>
        <time>2014-07-27T08:46:41Z</time>
      </trkpt>
      <trkpt lat="49.31168" lon="0.9345">
        <ele>121.519371</ele>
        <time>2014-07-27T08:46:48Z</time>
      </trkpt>
      <trkpt lat="49.3117" lon="0.93473">
        <ele>121.141251</ele>
        <time>2014-07-27T08:46:53Z</time>
      </trkpt>
      <trkpt lat="49.31178" lon="0.93493">
        <ele>120.6875</ele>
        <time>2014-07-27T08:46:58Z</time>
      </trkpt>
      <trkpt lat="49.31183" lon="0.93513">
        <ele>120.28437</ele>
        <time>2014-07-27T08:47:02Z</time>
      </trkpt>
      <trkpt lat="49.31183" lon="0.9354">
        <ele>119.893753</ele>
        <time>2014-07-27T08:47:07Z</time>
      </trkpt>
      <trkpt lat="49.31185" lon="0.93563">
        <ele>119.553886</ele>
        <time>2014-07-27T08:47:11Z</time>
      </trkpt>
      <trkpt lat="49.31185" lon="0.93588">
        <ele>119.332863</ele>
        <time>2014-07-27T08:47:15Z</time>
      </trkpt>
      <trkpt lat="49.31188" lon="0.93613">
        <ele>119.097969</ele>
        <time>2014-07-27T08:47:19Z</time>
      </trkpt>
      <trkpt lat="49.31193" lon="0.93633">
        <ele>118.935135</ele>
        <time>2014-07-27T08:47:23Z</time>
      </trkpt>
      <trkpt lat="49.31195" lon="0.93655">
        <ele>118.737114</ele>
        <time>2014-07-27T08:47:27Z</time>
      </trkpt>
      <trkpt lat="49.31198" lon="0.93685">
        <ele>118.441269</ele>
        <time>2014-07-27T08:47:32Z</time>
      </trkpt>
      <trkpt lat="49.312" lon="0.9371">
        <ele>118.239403</ele>
        <time>2014-07-27T08:47:37Z</time>
      </trkpt>
      <trkpt lat="49.31203" lon="0.93738">
        <ele>118.093658</ele>
        <time>2014-07-27T08:47:42Z</time>
      </trkpt>
      <trkpt lat="49.31213" lon="0.938">
        <ele>118</ele>
        <time>2014-07-27T08:47:51Z</time>
      </trkpt>
      <trkpt lat="49.31215" lon="0.93835">
        <ele>117.923126</ele>
        <time>2014-07-27T08:47:56Z</time>
      </trkpt>
      <trkpt lat="49.31218" lon="0.93863">
        <ele>117.521873</ele>
        <time>2014-07-27T08:48:00Z</time>
      </trkpt>
      <trkpt lat="49.3122" lon="0.93893">
        <ele>117.084373</ele>
        <time>2014-07-27T08:48:05Z</time>
      </trkpt>
      <trkpt lat="49.31228" lon="0.93928">
        <ele>116.344971</ele>
        <time>2014-07-27T08:48:11Z</time>
      </trkpt>
      <trkpt lat="49.31235" lon="0.93953">
        <ele>116.038048</ele>
        <time>2014-07-27T08:48:15Z</time>
      </trkpt>
      <trkpt lat="49.3124" lon="0.93973">
        <ele>115.833748</ele>
        <time>2014-07-27T08:48:18Z</time>
      </trkpt>
      <trkpt lat="49.31248" lon="0.9399">
        <ele>115.638748</ele>
        <time>2014-07-27T08:48:22Z</time>
      </trkpt>
      <trkpt lat="49.31238" lon="0.94005">
        <ele>114.760002</ele>
        <time>2014-07-27T08:48:59Z</time>
      </trkpt>
      <trkpt lat="49.3124" lon="0.9403">
        <ele>114.129997</ele>
        <time>2014-07-27T08:49:04Z</time>
      </trkpt>
      <trkpt lat="49.3124" lon="0.94068">
        <ele>112.096329</ele>
        <time>2014-07-27T08:49:11Z</time>
      </trkpt>
      <trkpt lat="49.3125" lon="0.94085">
        <ele>111.188042</ele>
        <time>2014-07-27T08:49:15Z</time>
      </trkpt>
      <trkpt lat="49.3126" lon="0.94108">
        <ele>109.889053</ele>
        <time>2014-07-27T08:49:19Z</time>
      </trkpt>
      <trkpt lat="49.31273" lon="0.94125">
        <ele>109.493202</ele>
        <time>2014-07-27T08:49:24Z</time>
      </trkpt>
      <trkpt lat="49.31288" lon="0.94128">
        <ele>109.560997</ele>
        <time>2014-07-27T08:49:29Z</time>
      </trkpt>
      <trkpt lat="49.31305" lon="0.9413">
        <ele>109.532272</ele>
        <time>2014-07-27T08:49:34Z</time>
      </trkpt>
      <trkpt lat="49.31318" lon="0.9414">
        <ele>108.641685</ele>
        <time>2014-07-27T08:49:37Z</time>
      </trkpt>
      <trkpt lat="49.31328" lon="0.9416">
        <ele>106.607986</ele>
        <time>2014-07-27T08:49:41Z</time>
      </trkpt>
      <trkpt lat="49.31333" lon="0.9418">
        <ele>106.211876</ele>
        <time>2014-07-27T08:49:46Z</time>
      </trkpt>
      <trkpt lat="49.31335" lon="0.94203">
        <ele>107.802498</ele>
        <time>2014-07-27T08:49:53Z</time>
      </trkpt>
      <trkpt lat="49.31348" lon="0.94218">
        <ele>108.643127</ele>
        <time>2014-07-27T08:49:58Z</time>
      </trkpt>
      <trkpt lat="49.3136" lon="0.94228">
        <ele>108.951988</ele>
        <time>2014-07-27T08:50:02Z</time>
      </trkpt>
      <trkpt lat="49.31383" lon="0.94245">
        <ele>109.088097</ele>
        <time>2014-07-27T08:50:08Z</time>
      </trkpt>
      <trkpt lat="49.31428" lon="0.94278">
        <ele>111.205627</ele>
        <time>2014-07-27T08:50:20Z</time>
      </trkpt>
      <trkpt lat="49.31443" lon="0.94288">
        <ele>111.906876</ele>
        <time>2014-07-27T08:50:24Z</time>
      </trkpt>
      <trkpt lat="49.3145" lon="0.94305">
        <ele>114.040001</ele>
        <time>2014-07-27T08:50:28Z</time>
      </trkpt>
      <trkpt lat="49.31448" lon="0.9433">
        <ele>115.489998</ele>
        <time>2014-07-27T08:50:33Z</time>
      </trkpt>
      <trkpt lat="49.31445" lon="0.94353">
        <ele>116.813072</ele>
        <time>2014-07-27T08:50:38Z</time>
      </trkpt>
      <trkpt lat="49.31443" lon="0.94375">
        <ele>118.023193</ele>
        <time>2014-07-27T08:52:01Z</time>
      </trkpt>
      <trkpt lat="49.31443" lon="0.94398">
        <ele>118.317253</ele>
        <time>2014-07-27T08:52:07Z</time>
      </trkpt>
      <trkpt lat="49.31448" lon="0.9442">
        <ele>118.682503</ele>
        <time>2014-07-27T08:52:12Z</time>
      </trkpt>
      <trkpt lat="49.3145" lon="0.94443">
        <ele>119</ele>
        <time>2014-07-27T08:52:16Z</time>
      </trkpt>
      <trkpt lat="49.31448" lon="0.94465">
        <ele>118.996681</ele>
        <time>2014-07-27T08:52:20Z</time>
      </trkpt>
      <trkpt lat="49.31453" lon="0.94488">
        <ele>119</ele>
        <time>2014-07-27T08:52:25Z</time>
      </trkpt>
      <trkpt lat="49.31455" lon="0.9451">
        <ele>119</ele>
        <time>2014-07-27T08:52:29Z</time>
      </trkpt>
      <trkpt lat="49.31448" lon="0.94533">
        <ele>119.312988</ele>
        <time>2014-07-27T08:52:34Z</time>
      </trkpt>
      <trkpt lat="49.3145" lon="0.94555">
        <ele>119.647499</ele>
        <time>2014-07-27T08:52:38Z</time>
      </trkpt>
      <trkpt lat="49.31453" lon="0.94578">
        <ele>119.97625</ele>
        <time>2014-07-27T08:52:42Z</time>
      </trkpt>
      <trkpt lat="49.31458" lon="0.946">
        <ele>119.388748</ele>
        <time>2014-07-27T08:52:46Z</time>
      </trkpt>
      <trkpt lat="49.31458" lon="0.94628">
        <ele>118.588753</ele>
        <time>2014-07-27T08:52:51Z</time>
      </trkpt>
      <trkpt lat="49.31458" lon="0.9465">
        <ele>118</ele>
        <time>2014-07-27T08:52:55Z</time>
      </trkpt>
      <trkpt lat="49.31463" lon="0.9467">
        <ele>118</ele>
        <time>2014-07-27T08:52:59Z</time>
      </trkpt>
      <trkpt lat="49.31465" lon="0.94695">
        <ele>118</ele>
        <time>2014-07-27T08:53:03Z</time>
      </trkpt>
      <trkpt lat="49.3147" lon="0.9472">
        <ele>118</ele>
        <time>2014-07-27T08:53:07Z</time>
      </trkpt>
      <trkpt lat="49.31475" lon="0.94743">
        <ele>118</ele>
        <time>2014-07-27T08:53:11Z</time>
      </trkpt>
      <trkpt lat="49.3148" lon="0.94765">
        <ele>118</ele>
        <time>2014-07-27T08:53:15Z</time>
      </trkpt>
      <trkpt lat="49.31475" lon="0.94785">
        <ele>118.004372</ele>
        <time>2014-07-27T08:53:19Z</time>
      </trkpt>
      <trkpt lat="49.31463" lon="0.94798">
        <ele>118.181877</ele>
        <time>2014-07-27T08:53:23Z</time>
      </trkpt>
      <trkpt lat="49.31455" lon="0.94815">
        <ele>118.433128</ele>
        <time>2014-07-27T08:53:28Z</time>
      </trkpt>
      <trkpt lat="49.3145" lon="0.94845">
        <ele>118.868126</ele>
        <time>2014-07-27T08:53:33Z</time>
      </trkpt>
      <trkpt lat="49.3144" lon="0.94868">
        <ele>119.191254</ele>
        <time>2014-07-27T08:53:37Z</time>
      </trkpt>
      <trkpt lat="49.31435" lon="0.9489">
        <ele>119.516876</ele>
        <time>2014-07-27T08:53:40Z</time>
      </trkpt>
      <trkpt lat="49.31425" lon="0.94905">
        <ele>119.731247</ele>
        <time>2014-07-27T08:53:43Z</time>
      </trkpt>
      <trkpt lat="49.31418" lon="0.94925">
        <ele>119.995934</ele>
        <time>2014-07-27T08:53:47Z</time>
      </trkpt>
      <trkpt lat="49.3141" lon="0.94943">
        <ele>119.990509</ele>
        <time>2014-07-27T08:53:51Z</time>
      </trkpt>
      <trkpt lat="49.314" lon="0.94968">
        <ele>120</ele>
        <time>2014-07-27T08:53:57Z</time>
      </trkpt>
      <trkpt lat="49.31385" lon="0.94975">
        <ele>120</ele>
        <time>2014-07-27T08:54:02Z</time>
      </trkpt>
      <trkpt lat="49.31375" lon="0.94993">
        <ele>120</ele>
        <time>2014-07-27T08:54:07Z</time>
      </trkpt>
      <trkpt lat="49.31378" lon="0.95018">
        <ele>119.896935</ele>
        <time>2014-07-27T08:54:12Z</time>
      </trkpt>
      <trkpt lat="49.31395" lon="0.95023">
        <ele>119.705879</ele>
        <time>2014-07-27T08:54:16Z</time>
      </trkpt>
      <trkpt lat="49.31413" lon="0.9503">
        <ele>119.422569</ele>
        <time>2014-07-27T08:54:21Z</time>
      </trkpt>
      <trkpt lat="49.31428" lon="0.95023">
        <ele>119.332085</ele>
        <time>2014-07-27T08:54:25Z</time>
      </trkpt>
      <trkpt lat="49.31448" lon="0.95015">
        <ele>119.095612</ele>
        <time>2014-07-27T08:54:29Z</time>
      </trkpt>
      <trkpt lat="49.31463" lon="0.9501">
        <ele>119</ele>
        <time>2014-07-27T08:54:32Z</time>
      </trkpt>
      <trkpt lat="49.31488" lon="0.95003">
        <ele>119</ele>
        <time>2014-07-27T08:54:36Z</time>
      </trkpt>
      <trkpt lat="49.31503" lon="0.94993">
        <ele>119</ele>
        <time>2014-07-27T08:54:39Z</time>
      </trkpt>
      <trkpt lat="49.3152" lon="0.94978">
        <ele>118.916283</ele>
        <time>2014-07-27T08:54:43Z</time>
      </trkpt>
      <trkpt lat="49.31535" lon="0.9497">
        <ele>118.772308</ele>
        <time>2014-07-27T08:54:46Z</time>
      </trkpt>
      <trkpt lat="49.3155" lon="0.94965">
        <ele>118.503746</ele>
        <time>2014-07-27T08:54:49Z</time>
      </trkpt>
      <trkpt lat="49.31568" lon="0.94965">
        <ele>118.125626</ele>
        <time>2014-07-27T08:54:53Z</time>
      </trkpt>
      <trkpt lat="49.31583" lon="0.94965">
        <ele>117.796249</ele>
        <time>2014-07-27T08:54:58Z</time>
      </trkpt>
      <trkpt lat="49.31588" lon="0.94985">
        <ele>117.984375</ele>
        <time>2014-07-27T08:55:11Z</time>
      </trkpt>
      <trkpt lat="49.31583" lon="0.9501">
        <ele>118.139999</ele>
        <time>2014-07-27T08:55:17Z</time>
      </trkpt>
      <trkpt lat="49.31575" lon="0.9503">
        <ele>118.309998</ele>
        <time>2014-07-27T08:55:22Z</time>
      </trkpt>
      <trkpt lat="49.31568" lon="0.95048">
        <ele>118.485001</ele>
        <time>2014-07-27T08:55:26Z</time>
      </trkpt>
      <trkpt lat="49.31558" lon="0.95063">
        <ele>118.666496</ele>
        <time>2014-07-27T08:55:30Z</time>
      </trkpt>
      <trkpt lat="49.3155" lon="0.95083">
        <ele>118.792847</ele>
        <time>2014-07-27T08:55:37Z</time>
      </trkpt>
      <trkpt lat="49.31543" lon="0.9511">
        <ele>119</ele>
        <time>2014-07-27T08:55:43Z</time>
      </trkpt>
      <trkpt lat="49.31535" lon="0.9514">
        <ele>118.850334</ele>
        <time>2014-07-27T08:55:48Z</time>
      </trkpt>
      <trkpt lat="49.31525" lon="0.9516">
        <ele>118.740128</ele>
        <time>2014-07-27T08:55:51Z</time>
      </trkpt>
      <trkpt lat="49.31515" lon="0.95175">
        <ele>118.780876</ele>
        <time>2014-07-27T08:55:54Z</time>
      </trkpt>
      <trkpt lat="49.31495" lon="0.95205">
        <ele>119.15741</ele>
        <time>2014-07-27T08:56:00Z</time>
      </trkpt>
      <trkpt lat="49.3148" lon="0.95223">
        <ele>119.652237</ele>
        <time>2014-07-27T08:56:04Z</time>
      </trkpt>
      <trkpt lat="49.31455" lon="0.95253">
        <ele>120.800003</ele>
        <time>2014-07-27T08:56:11Z</time>
      </trkpt>
      <trkpt lat="49.31445" lon="0.9527">
        <ele>121.013672</ele>
        <time>2014-07-27T08:56:14Z</time>
      </trkpt>
      <trkpt lat="49.31438" lon="0.95288">
        <ele>121.133102</ele>
        <time>2014-07-27T08:56:17Z</time>
      </trkpt>
      <trkpt lat="49.31433" lon="0.95313">
        <ele>121.368729</ele>
        <time>2014-07-27T08:56:21Z</time>
      </trkpt>
      <trkpt lat="49.31425" lon="0.95338">
        <ele>121.730003</ele>
        <time>2014-07-27T08:56:25Z</time>
      </trkpt>
      <trkpt lat="49.31415" lon="0.95355">
        <ele>121.955002</ele>
        <time>2014-07-27T08:56:28Z</time>
      </trkpt>
      <trkpt lat="49.3141" lon="0.95375">
        <ele>122.042374</ele>
        <time>2014-07-27T08:56:31Z</time>
      </trkpt>
      <trkpt lat="49.31398" lon="0.95415">
        <ele>122.360001</ele>
        <time>2014-07-27T08:56:37Z</time>
      </trkpt>
      <trkpt lat="49.3139" lon="0.95435">
        <ele>122.535004</ele>
        <time>2014-07-27T08:56:40Z</time>
      </trkpt>
      <trkpt lat="49.31383" lon="0.95453">
        <ele>122.705002</ele>
        <time>2014-07-27T08:56:43Z</time>
      </trkpt>
      <trkpt lat="49.31375" lon="0.9547">
        <ele>122.875</ele>
        <time>2014-07-27T08:56:46Z</time>
      </trkpt>
      <trkpt lat="49.31368" lon="0.9549">
        <ele>123</ele>
        <time>2014-07-27T08:56:50Z</time>
      </trkpt>
      <trkpt lat="49.31363" lon="0.95515">
        <ele>123</ele>
        <time>2014-07-27T08:56:54Z</time>
      </trkpt>
      <trkpt lat="49.31358" lon="0.95535">
        <ele>123</ele>
        <time>2014-07-27T08:57:00Z</time>
      </trkpt>
      <trkpt lat="49.31345" lon="0.95548">
        <ele>122.949997</ele>
        <time>2014-07-27T08:57:32Z</time>
      </trkpt>
      <trkpt lat="49.31345" lon="0.95573">
        <ele>122.58625</ele>
        <time>2014-07-27T08:57:38Z</time>
      </trkpt>
      <trkpt lat="49.3134" lon="0.95593">
        <ele>122.297501</ele>
        <time>2014-07-27T08:57:42Z</time>
      </trkpt>
      <trkpt lat="49.31338" lon="0.95618">
        <ele>122</ele>
        <time>2014-07-27T08:57:45Z</time>
      </trkpt>
      <trkpt lat="49.3133" lon="0.95638">
        <ele>122</ele>
        <time>2014-07-27T08:57:48Z</time>
      </trkpt>
      <trkpt lat="49.31318" lon="0.95655">
        <ele>122.08136</ele>
        <time>2014-07-27T08:57:52Z</time>
      </trkpt>
      <trkpt lat="49.31315" lon="0.95678">
        <ele>122.018547</ele>
        <time>2014-07-27T08:57:58Z</time>
      </trkpt>
      <trkpt lat="49.3131" lon="0.95698">
        <ele>122</ele>
        <time>2014-07-27T08:58:04Z</time>
      </trkpt>
      <trkpt lat="49.31313" lon="0.9572">
        <ele>122</ele>
        <time>2014-07-27T08:58:11Z</time>
      </trkpt>
      <trkpt lat="49.31323" lon="0.95738">
        <ele>122</ele>
        <time>2014-07-27T08:58:16Z</time>
      </trkpt>
      <trkpt lat="49.31328" lon="0.95758">
        <ele>121.999016</ele>
        <time>2014-07-27T08:58:20Z</time>
      </trkpt>
      <trkpt lat="49.31335" lon="0.95778">
        <ele>122</ele>
        <time>2014-07-27T08:58:24Z</time>
      </trkpt>
      <trkpt lat="49.31343" lon="0.958">
        <ele>122</ele>
        <time>2014-07-27T08:58:31Z</time>
      </trkpt>
      <trkpt lat="49.3135" lon="0.95825">
        <ele>121.910004</ele>
        <time>2014-07-27T08:58:36Z</time>
      </trkpt>
      <trkpt lat="49.3135" lon="0.95853">
        <ele>121.510002</ele>
        <time>2014-07-27T08:58:40Z</time>
      </trkpt>
      <trkpt lat="49.3135" lon="0.95885">
        <ele>121.036873</ele>
        <time>2014-07-27T08:58:44Z</time>
      </trkpt>
      <trkpt lat="49.31338" lon="0.959">
        <ele>120.823128</ele>
        <time>2014-07-27T08:58:48Z</time>
      </trkpt>
      <trkpt lat="49.31328" lon="0.95915">
        <ele>120.608749</ele>
        <time>2014-07-27T08:58:53Z</time>
      </trkpt>
      <trkpt lat="49.31325" lon="0.95938">
        <ele>120.282501</ele>
        <time>2014-07-27T08:59:00Z</time>
      </trkpt>
      <trkpt lat="49.31328" lon="0.9596">
        <ele>119.997261</ele>
        <time>2014-07-27T08:59:05Z</time>
      </trkpt>
      <trkpt lat="49.31328" lon="0.95983">
        <ele>119.975746</ele>
        <time>2014-07-27T08:59:09Z</time>
      </trkpt>
      <trkpt lat="49.31325" lon="0.96005">
        <ele>119.912498</ele>
        <time>2014-07-27T08:59:12Z</time>
      </trkpt>
      <trkpt lat="49.3132" lon="0.9603">
        <ele>119.693123</ele>
        <time>2014-07-27T08:59:15Z</time>
      </trkpt>
      <trkpt lat="49.31315" lon="0.96055">
        <ele>119.216248</ele>
        <time>2014-07-27T08:59:18Z</time>
      </trkpt>
      <trkpt lat="49.31313" lon="0.96083">
        <ele>118.752502</ele>
        <time>2014-07-27T08:59:21Z</time>
      </trkpt>
      <trkpt lat="49.3131" lon="0.96108">
        <ele>118.424973</ele>
        <time>2014-07-27T08:59:24Z</time>
      </trkpt>
      <trkpt lat="49.31303" lon="0.96128">
        <ele>118.027328</ele>
        <time>2014-07-27T08:59:27Z</time>
      </trkpt>
      <trkpt lat="49.31295" lon="0.96155">
        <ele>117.437508</ele>
        <time>2014-07-27T08:59:31Z</time>
      </trkpt>
      <trkpt lat="49.31288" lon="0.96178">
        <ele>117.188667</ele>
        <time>2014-07-27T08:59:35Z</time>
      </trkpt>
      <trkpt lat="49.3128" lon="0.962">
        <ele>117.152802</ele>
        <time>2014-07-27T08:59:39Z</time>
      </trkpt>
      <trkpt lat="49.3127" lon="0.9622">
        <ele>116.748306</ele>
        <time>2014-07-27T08:59:43Z</time>
      </trkpt>
      <trkpt lat="49.31265" lon="0.96243">
        <ele>116.292503</ele>
        <time>2014-07-27T08:59:51Z</time>
      </trkpt>
      <trkpt lat="49.31253" lon="0.96255">
        <ele>115.275627</ele>
        <time>2014-07-27T08:59:55Z</time>
      </trkpt>
      <trkpt lat="49.3123" lon="0.96278">
        <ele>113.247154</ele>
        <time>2014-07-27T09:00:01Z</time>
      </trkpt>
      <trkpt lat="49.31218" lon="0.96295">
        <ele>111.814392</ele>
        <time>2014-07-27T09:00:05Z</time>
      </trkpt>
      <trkpt lat="49.3121" lon="0.96313">
        <ele>110.68</ele>
        <time>2014-07-27T09:00:08Z</time>
      </trkpt>
      <trkpt lat="49.31198" lon="0.9633">
        <ele>109.227997</ele>
        <time>2014-07-27T09:00:11Z</time>
      </trkpt>
      <trkpt lat="49.31183" lon="0.96335">
        <ele>109.065346</ele>
        <time>2014-07-27T09:00:15Z</time>
      </trkpt>
      <trkpt lat="49.31168" lon="0.9634">
        <ele>108.992302</ele>
        <time>2014-07-27T09:00:22Z</time>
      </trkpt>
      <trkpt lat="49.31173" lon="0.96363">
        <ele>108.732361</ele>
        <time>2014-07-27T09:00:49Z</time>
      </trkpt>
      <trkpt lat="49.3118" lon="0.96383">
        <ele>108.484215</ele>
        <time>2014-07-27T09:00:54Z</time>
      </trkpt>
      <trkpt lat="49.3118" lon="0.96408">
        <ele>108.592674</ele>
        <time>2014-07-27T09:01:00Z</time>
      </trkpt>
      <trkpt lat="49.31183" lon="0.9643">
        <ele>108.425735</ele>
        <time>2014-07-27T09:01:06Z</time>
      </trkpt>
      <trkpt lat="49.31185" lon="0.96455">
        <ele>108.741249</ele>
        <time>2014-07-27T09:01:13Z</time>
      </trkpt>
      <trkpt lat="49.31198" lon="0.9647">
        <ele>107.760628</ele>
        <time>2014-07-27T09:01:17Z</time>
      </trkpt>
      <trkpt lat="49.31208" lon="0.9649">
        <ele>107.540695</ele>
        <time>2014-07-27T09:01:21Z</time>
      </trkpt>
      <trkpt lat="49.31218" lon="0.96508">
        <ele>106.520729</ele>
        <time>2014-07-27T09:01:25Z</time>
      </trkpt>
      <trkpt lat="49.31228" lon="0.96528">
        <ele>106.489532</ele>
        <time>2014-07-27T09:01:28Z</time>
      </trkpt>
      <trkpt lat="49.3124" lon="0.96553">
        <ele>106.824753</ele>
        <time>2014-07-27T09:01:32Z</time>
      </trkpt>
      <trkpt lat="49.31248" lon="0.9657">
        <ele>107.315575</ele>
        <time>2014-07-27T09:01:36Z</time>
      </trkpt>
      <trkpt lat="49.31263" lon="0.9658">
        <ele>105.564514</ele>
        <time>2014-07-27T09:01:40Z</time>
      </trkpt>
      <trkpt lat="49.31283" lon="0.96588">
        <ele>102.809601</ele>
        <time>2014-07-27T09:01:43Z</time>
      </trkpt>
      <trkpt lat="49.31295" lon="0.96598">
        <ele>101.882294</ele>
        <time>2014-07-27T09:01:47Z</time>
      </trkpt>
      <trkpt lat="49.31305" lon="0.96613">
        <ele>102.206062</ele>
        <time>2014-07-27T09:01:51Z</time>
      </trkpt>
      <trkpt lat="49.31318" lon="0.9663">
        <ele>102.390587</ele>
        <time>2014-07-27T09:01:56Z</time>
      </trkpt>
      <trkpt lat="49.31338" lon="0.96648">
        <ele>101.602119</ele>
        <time>2014-07-27T09:02:03Z</time>
      </trkpt>
      <trkpt lat="49.31353" lon="0.96648">
        <ele>100.34565</ele>
        <time>2014-07-27T09:02:06Z</time>
      </trkpt>
      <trkpt lat="49.31368" lon="0.9665">
        <ele>99.472137</ele>
        <time>2014-07-27T09:02:09Z</time>
      </trkpt>
      <trkpt lat="49.31385" lon="0.96653">
        <ele>98.421875</ele>
        <time>2014-07-27T09:02:12Z</time>
      </trkpt>
      <trkpt lat="49.314" lon="0.9665">
        <ele>96.751877</ele>
        <time>2014-07-27T09:02:15Z</time>
      </trkpt>
      <trkpt lat="49.31418" lon="0.96655">
        <ele>96.084999</ele>
        <time>2014-07-27T09:02:18Z</time>
      </trkpt>
      <trkpt lat="49.31433" lon="0.96658">
        <ele>95.105621</ele>
        <time>2014-07-27T09:02:21Z</time>
      </trkpt>
      <trkpt lat="49.31448" lon="0.96655">
        <ele>93.09375</ele>
        <time>2014-07-27T09:02:24Z</time>
      </trkpt>
      <trkpt lat="49.31463" lon="0.96653">
        <ele>91.088753</ele>
        <time>2014-07-27T09:02:27Z</time>
      </trkpt>
      <trkpt lat="49.3147" lon="0.9667">
        <ele>93.121246</ele>
        <time>2014-07-27T09:02:31Z</time>
      </trkpt>
      <trkpt lat="49.31485" lon="0.96675">
        <ele>92.564331</ele>
        <time>2014-07-27T09:02:35Z</time>
      </trkpt>
      <trkpt lat="49.315" lon="0.96675">
        <ele>91.277626</ele>
        <time>2014-07-27T09:02:39Z</time>
      </trkpt>
      <trkpt lat="49.31515" lon="0.96683">
        <ele>90.996765</ele>
        <time>2014-07-27T09:02:43Z</time>
      </trkpt>
      <trkpt lat="49.31528" lon="0.96698">
        <ele>91.155937</ele>
        <time>2014-07-27T09:02:48Z</time>
      </trkpt>
      <trkpt lat="49.3154" lon="0.96708">
        <ele>89.7425</ele>
        <time>2014-07-27T09:03:00Z</time>
      </trkpt>
      <trkpt lat="49.31545" lon="0.96728">
        <ele>91.728752</ele>
        <time>2014-07-27T09:03:29Z</time>
      </trkpt>
      <trkpt lat="49.31553" lon="0.96753">
        <ele>93.957497</ele>
        <time>2014-07-27T09:03:36Z</time>
      </trkpt>
      <trkpt lat="49.31563" lon="0.96768">
        <ele>94.196251</ele>
        <time>2014-07-27T09:03:42Z</time>
      </trkpt>
      <trkpt lat="49.31568" lon="0.96788">
        <ele>95.247498</ele>
        <time>2014-07-27T09:03:48Z</time>
      </trkpt>
      <trkpt lat="49.31573" lon="0.96808">
        <ele>95.686249</ele>
        <time>2014-07-27T09:03:54Z</time>
      </trkpt>
      <trkpt lat="49.3157" lon="0.96833">
        <ele>98.641251</ele>
        <time>2014-07-27T09:04:01Z</time>
      </trkpt>
      <trkpt lat="49.3157" lon="0.96855">
        <ele>100.081078</ele>
        <time>2014-07-27T09:04:08Z</time>
      </trkpt>
      <trkpt lat="49.31568" lon="0.96878">
        <ele>101.47937</ele>
        <time>2014-07-27T09:04:15Z</time>
      </trkpt>
      <trkpt lat="49.31565" lon="0.96903">
        <ele>102.79969</ele>
        <time>2014-07-27T09:04:22Z</time>
      </trkpt>
      <trkpt lat="49.31563" lon="0.96928">
        <ele>104.068092</ele>
        <time>2014-07-27T09:04:31Z</time>
      </trkpt>
      <trkpt lat="49.31563" lon="0.9695">
        <ele>105.024246</ele>
        <time>2014-07-27T09:04:39Z</time>
      </trkpt>
      <trkpt lat="49.31558" lon="0.9697">
        <ele>106.34446</ele>
        <time>2014-07-27T09:05:06Z</time>
      </trkpt>
      <trkpt lat="49.3156" lon="0.96993">
        <ele>106.87912</ele>
        <time>2014-07-27T09:05:25Z</time>
      </trkpt>
      <trkpt lat="49.31568" lon="0.97013">
        <ele>106.828079</ele>
        <time>2014-07-27T09:05:33Z</time>
      </trkpt>
      <trkpt lat="49.31573" lon="0.97035">
        <ele>106.944199</ele>
        <time>2014-07-27T09:05:40Z</time>
      </trkpt>
      <trkpt lat="49.31578" lon="0.97055">
        <ele>106.96994</ele>
        <time>2014-07-27T09:05:46Z</time>
      </trkpt>
      <trkpt lat="49.31583" lon="0.97075">
        <ele>106.819786</ele>
        <time>2014-07-27T09:05:53Z</time>
      </trkpt>
      <trkpt lat="49.31595" lon="0.97088">
        <ele>105.847572</ele>
        <time>2014-07-27T09:05:59Z</time>
      </trkpt>
      <trkpt lat="49.31605" lon="0.97103">
        <ele>105.297356</ele>
        <time>2014-07-27T09:06:06Z</time>
      </trkpt>
      <trkpt lat="49.3162" lon="0.97105">
        <ele>103.655251</ele>
        <time>2014-07-27T09:06:24Z</time>
      </trkpt>
      <trkpt lat="49.31635" lon="0.97095">
        <ele>101.236275</ele>
        <time>2014-07-27T09:07:03Z</time>
      </trkpt>
      <trkpt lat="49.3165" lon="0.97095">
        <ele>99.13739</ele>
        <time>2014-07-27T09:07:07Z</time>
      </trkpt>
      <trkpt lat="49.31663" lon="0.97108">
        <ele>97.559937</ele>
        <time>2014-07-27T09:07:11Z</time>
      </trkpt>
      <trkpt lat="49.31678" lon="0.97095">
        <ele>93.512192</ele>
        <time>2014-07-27T09:07:17Z</time>
      </trkpt>
      <trkpt lat="49.31685" lon="0.97073">
        <ele>90.586105</ele>
        <time>2014-07-27T09:07:21Z</time>
      </trkpt>
      <trkpt lat="49.317" lon="0.97083">
        <ele>87.678589</ele>
        <time>2014-07-27T09:07:29Z</time>
      </trkpt>
      <trkpt lat="49.31698" lon="0.97105">
        <ele>89.574532</ele>
        <time>2014-07-27T09:07:34Z</time>
      </trkpt>
      <trkpt lat="49.31688" lon="0.9712">
        <ele>92.729927</ele>
        <time>2014-07-27T09:07:38Z</time>
      </trkpt>
      <trkpt lat="49.3168" lon="0.9714">
        <ele>95.728745</ele>
        <time>2014-07-27T09:07:44Z</time>
      </trkpt>
      <trkpt lat="49.31685" lon="0.9716">
        <ele>96.148285</ele>
        <time>2014-07-27T09:07:49Z</time>
      </trkpt>
      <trkpt lat="49.31693" lon="0.9718">
        <ele>96.405685</ele>
        <time>2014-07-27T09:07:54Z</time>
      </trkpt>
      <trkpt lat="49.31708" lon="0.97185">
        <ele>94.293602</ele>
        <time>2014-07-27T09:08:05Z</time>
      </trkpt>
      <trkpt lat="49.31718" lon="0.97168">
        <ele>90.558968</ele>
        <time>2014-07-27T09:08:12Z</time>
      </trkpt>
      <trkpt lat="49.31713" lon="0.97145">
        <ele>89.393059</ele>
        <time>2014-07-27T09:08:17Z</time>
      </trkpt>
      <trkpt lat="49.31708" lon="0.97125">
        <ele>88.667519</ele>
        <time>2014-07-27T09:08:23Z</time>
      </trkpt>
      <trkpt lat="49.31715" lon="0.97108">
        <ele>85.251129</ele>
        <time>2014-07-27T09:08:28Z</time>
      </trkpt>
      <trkpt lat="49.31723" lon="0.97125">
        <ele>84.894012</ele>
        <time>2014-07-27T09:09:26Z</time>
      </trkpt>
      <trkpt lat="49.31733" lon="0.97148">
        <ele>84.993065</ele>
        <time>2014-07-27T09:09:31Z</time>
      </trkpt>
      <trkpt lat="49.31743" lon="0.97163">
        <ele>84.635429</ele>
        <time>2014-07-27T09:09:36Z</time>
      </trkpt>
      <trkpt lat="49.31748" lon="0.97183">
        <ele>86.168823</ele>
        <time>2014-07-27T09:09:45Z</time>
      </trkpt>
      <trkpt lat="49.31745" lon="0.97205">
        <ele>88.989021</ele>
        <time>2014-07-27T09:09:52Z</time>
      </trkpt>
      <trkpt lat="49.31758" lon="0.9722">
        <ele>87.769775</ele>
        <time>2014-07-27T09:09:59Z</time>
      </trkpt>
      <trkpt lat="49.31773" lon="0.9723">
        <ele>85.334999</ele>
        <time>2014-07-27T09:10:04Z</time>
      </trkpt>
      <trkpt lat="49.31778" lon="0.97253">
        <ele>86.883888</ele>
        <time>2014-07-27T09:10:10Z</time>
      </trkpt>
      <trkpt lat="49.31783" lon="0.97273">
        <ele>87.732529</ele>
        <time>2014-07-27T09:10:15Z</time>
      </trkpt>
      <trkpt lat="49.31795" lon="0.97283">
        <ele>86.186951</ele>
        <time>2014-07-27T09:10:19Z</time>
      </trkpt>
      <trkpt lat="49.31808" lon="0.973">
        <ele>84.835297</ele>
        <time>2014-07-27T09:10:23Z</time>
      </trkpt>
      <trkpt lat="49.31823" lon="0.97318">
        <ele>83.173279</ele>
        <time>2014-07-27T09:10:28Z</time>
      </trkpt>
      <trkpt lat="49.31838" lon="0.97338">
        <ele>82.98201</ele>
        <time>2014-07-27T09:10:34Z</time>
      </trkpt>
      <trkpt lat="49.3185" lon="0.9735">
        <ele>83.146049</ele>
        <time>2014-07-27T09:10:39Z</time>
      </trkpt>
      <trkpt lat="49.31863" lon="0.97368">
        <ele>84.859322</ele>
        <time>2014-07-27T09:10:45Z</time>
      </trkpt>
      <trkpt lat="49.31875" lon="0.9738">
        <ele>85.998436</ele>
        <time>2014-07-27T09:10:51Z</time>
      </trkpt>
      <trkpt lat="49.31888" lon="0.97393">
        <ele>86.567398</ele>
        <time>2014-07-27T09:10:55Z</time>
      </trkpt>
      <trkpt lat="49.31898" lon="0.97408">
        <ele>86.908852</ele>
        <time>2014-07-27T09:11:00Z</time>
      </trkpt>
      <trkpt lat="49.31913" lon="0.97425">
        <ele>87.40535</ele>
        <time>2014-07-27T09:11:08Z</time>
      </trkpt>
      <trkpt lat="49.31923" lon="0.9744">
        <ele>88.66655</ele>
        <time>2014-07-27T09:11:44Z</time>
      </trkpt>
      <trkpt lat="49.3194" lon="0.97443">
        <ele>87.22525</ele>
        <time>2014-07-27T09:12:17Z</time>
      </trkpt>
      <trkpt lat="49.31955" lon="0.97443">
        <ele>85.554253</ele>
        <time>2014-07-27T09:12:24Z</time>
      </trkpt>
      <trkpt lat="49.31963" lon="0.97463">
        <ele>87.475784</ele>
        <time>2014-07-27T09:12:32Z</time>
      </trkpt>
      <trkpt lat="49.31975" lon="0.97475">
        <ele>87.520996</ele>
        <time>2014-07-27T09:12:38Z</time>
      </trkpt>
      <trkpt lat="49.31988" lon="0.97485">
        <ele>87.468506</ele>
        <time>2014-07-27T09:12:44Z</time>
      </trkpt>
      <trkpt lat="49.32" lon="0.975">
        <ele>88.158653</ele>
        <time>2014-07-27T09:12:50Z</time>
      </trkpt>
      <trkpt lat="49.3201" lon="0.97515">
        <ele>89.260597</ele>
        <time>2014-07-27T09:12:55Z</time>
      </trkpt>
      <trkpt lat="49.32025" lon="0.97523">
        <ele>88.835022</ele>
        <time>2014-07-27T09:13:01Z</time>
      </trkpt>
      <trkpt lat="49.3204" lon="0.97523">
        <ele>87.546844</ele>
        <time>2014-07-27T09:13:04Z</time>
      </trkpt>
      <trkpt lat="49.32058" lon="0.9753">
        <ele>86.466499</ele>
        <time>2014-07-27T09:13:08Z</time>
      </trkpt>
      <trkpt lat="49.32075" lon="0.9753">
        <ele>84.745712</ele>
        <time>2014-07-27T09:13:11Z</time>
      </trkpt>
      <trkpt lat="49.3209" lon="0.97535">
        <ele>83.355164</ele>
        <time>2014-07-27T09:13:14Z</time>
      </trkpt>
      <trkpt lat="49.32118" lon="0.9754">
        <ele>80.617188</ele>
        <time>2014-07-27T09:13:20Z</time>
      </trkpt>
      <trkpt lat="49.32133" lon="0.97538">
        <ele>78.259949</ele>
        <time>2014-07-27T09:13:23Z</time>
      </trkpt>
      <trkpt lat="49.3215" lon="0.9753">
        <ele>74.882439</ele>
        <time>2014-07-27T09:13:27Z</time>
      </trkpt>
      <trkpt lat="49.32165" lon="0.9753">
        <ele>72.367119</ele>
        <time>2014-07-27T09:13:30Z</time>
      </trkpt>
      <trkpt lat="49.3218" lon="0.97533">
        <ele>69.960266</ele>
        <time>2014-07-27T09:13:35Z</time>
      </trkpt>
      <trkpt lat="49.32193" lon="0.97548">
        <ele>69.988235</ele>
        <time>2014-07-27T09:13:39Z</time>
      </trkpt>
      <trkpt lat="49.32203" lon="0.97563">
        <ele>70.661247</ele>
        <time>2014-07-27T09:13:43Z</time>
      </trkpt>
      <trkpt lat="49.3221" lon="0.9758">
        <ele>72.173752</ele>
        <time>2014-07-27T09:13:47Z</time>
      </trkpt>
      <trkpt lat="49.32223" lon="0.97593">
        <ele>71.111</ele>
        <time>2014-07-27T09:13:53Z</time>
      </trkpt>
      <trkpt lat="49.32233" lon="0.97608">
        <ele>70.7742</ele>
        <time>2014-07-27T09:13:57Z</time>
      </trkpt>
      <trkpt lat="49.32243" lon="0.9763">
        <ele>71.506172</ele>
        <time>2014-07-27T09:14:02Z</time>
      </trkpt>
      <trkpt lat="49.3226" lon="0.9764">
        <ele>70.277275</ele>
        <time>2014-07-27T09:14:08Z</time>
      </trkpt>
      <trkpt lat="49.32275" lon="0.97653">
        <ele>69.292747</ele>
        <time>2014-07-27T09:14:13Z</time>
      </trkpt>
      <trkpt lat="49.3229" lon="0.97653">
        <ele>67.33094</ele>
        <time>2014-07-27T09:14:16Z</time>
      </trkpt>
      <trkpt lat="49.32305" lon="0.9766">
        <ele>65.392952</ele>
        <time>2014-07-27T09:14:22Z</time>
      </trkpt>
      <trkpt lat="49.32318" lon="0.9765">
        <ele>63.725502</ele>
        <time>2014-07-27T09:15:10Z</time>
      </trkpt>
      <trkpt lat="49.32323" lon="0.9763">
        <ele>60.424614</ele>
        <time>2014-07-27T09:15:18Z</time>
      </trkpt>
      <trkpt lat="49.32328" lon="0.97608">
        <ele>56.519238</ele>
        <time>2014-07-27T09:15:24Z</time>
      </trkpt>
      <trkpt lat="49.3233" lon="0.97585">
        <ele>52.878754</ele>
        <time>2014-07-27T09:15:52Z</time>
      </trkpt>
      <trkpt lat="49.32343" lon="0.97598">
        <ele>52.4128</ele>
        <time>2014-07-27T09:16:00Z</time>
      </trkpt>
      <trkpt lat="49.32355" lon="0.97608">
        <ele>51.159824</ele>
        <time>2014-07-27T09:16:10Z</time>
      </trkpt>
      <trkpt lat="49.32373" lon="0.97623">
        <ele>49.847301</ele>
        <time>2014-07-27T09:17:17Z</time>
      </trkpt>
      <trkpt lat="49.32385" lon="0.97633">
        <ele>48.884235</ele>
        <time>2014-07-27T09:17:24Z</time>
      </trkpt>
      <trkpt lat="49.32393" lon="0.97653">
        <ele>49.929089</ele>
        <time>2014-07-27T09:17:29Z</time>
      </trkpt>
      <trkpt lat="49.32393" lon="0.97675">
        <ele>51.896301</ele>
        <time>2014-07-27T09:17:34Z</time>
      </trkpt>
      <trkpt lat="49.32378" lon="0.97685">
        <ele>55.755314</ele>
        <time>2014-07-27T09:20:35Z</time>
      </trkpt>
      <trkpt lat="49.32365" lon="0.97673">
        <ele>57.140873</ele>
        <time>2014-07-27T09:20:42Z</time>
      </trkpt>
      <trkpt lat="49.3235" lon="0.97675">
        <ele>60.018177</ele>
        <time>2014-07-27T09:20:47Z</time>
      </trkpt>
      <trkpt lat="49.32343" lon="0.97693">
        <ele>62.216507</ele>
        <time>2014-07-27T09:20:52Z</time>
      </trkpt>
      <trkpt lat="49.32333" lon="0.9771">
        <ele>64.024002</ele>
        <time>2014-07-27T09:20:57Z</time>
      </trkpt>
      <trkpt lat="49.3232" lon="0.97728">
        <ele>63.505501</ele>
        <time>2014-07-27T09:21:02Z</time>
      </trkpt>
      <trkpt lat="49.32308" lon="0.97738">
        <ele>62.66103</ele>
        <time>2014-07-27T09:21:06Z</time>
      </trkpt>
      <trkpt lat="49.32288" lon="0.97758">
        <ele>60.386112</ele>
        <time>2014-07-27T09:21:12Z</time>
      </trkpt>
      <trkpt lat="49.3227" lon="0.97768">
        <ele>59.185501</ele>
        <time>2014-07-27T09:21:15Z</time>
      </trkpt>
      <trkpt lat="49.32253" lon="0.9778">
        <ele>57.326836</ele>
        <time>2014-07-27T09:21:19Z</time>
      </trkpt>
      <trkpt lat="49.3224" lon="0.9779">
        <ele>55.307289</ele>
        <time>2014-07-27T09:21:23Z</time>
      </trkpt>
      <trkpt lat="49.32225" lon="0.97805">
        <ele>51.481438</ele>
        <time>2014-07-27T09:21:27Z</time>
      </trkpt>
      <trkpt lat="49.32213" lon="0.97815">
        <ele>48.995083</ele>
        <time>2014-07-27T09:21:30Z</time>
      </trkpt>
      <trkpt lat="49.322" lon="0.97825">
        <ele>46.75</ele>
        <time>2014-07-27T09:21:33Z</time>
      </trkpt>
      <trkpt lat="49.32183" lon="0.9784">
        <ele>43.764999</ele>
        <time>2014-07-27T09:21:37Z</time>
      </trkpt>
      <trkpt lat="49.32168" lon="0.9785">
        <ele>41.860001</ele>
        <time>2014-07-27T09:21:41Z</time>
      </trkpt>
      <trkpt lat="49.3215" lon="0.97858">
        <ele>41.535461</ele>
        <time>2014-07-27T09:21:45Z</time>
      </trkpt>
      <trkpt lat="49.32133" lon="0.9786">
        <ele>42.998749</ele>
        <time>2014-07-27T09:21:50Z</time>
      </trkpt>
      <trkpt lat="49.32118" lon="0.9787">
        <ele>42.178749</ele>
        <time>2014-07-27T09:21:55Z</time>
      </trkpt>
      <trkpt lat="49.32105" lon="0.9788">
        <ele>42.933601</ele>
        <time>2014-07-27T09:21:58Z</time>
      </trkpt>
      <trkpt lat="49.32088" lon="0.97888">
        <ele>46.297237</ele>
        <time>2014-07-27T09:22:03Z</time>
      </trkpt>
      <trkpt lat="49.32073" lon="0.97898">
        <ele>48.602673</ele>
        <time>2014-07-27T09:22:08Z</time>
      </trkpt>
      <trkpt lat="49.32063" lon="0.97913">
        <ele>47.221649</ele>
        <time>2014-07-27T09:22:12Z</time>
      </trkpt>
      <trkpt lat="49.3205" lon="0.9793">
        <ele>45.898251</ele>
        <time>2014-07-27T09:22:17Z</time>
      </trkpt>
      <trkpt lat="49.32038" lon="0.97943">
        <ele>45.241276</ele>
        <time>2014-07-27T09:22:22Z</time>
      </trkpt>
      <trkpt lat="49.32023" lon="0.9795">
        <ele>45.175663</ele>
        <time>2014-07-27T09:22:28Z</time>
      </trkpt>
      <trkpt lat="49.32013" lon="0.97935">
        <ele>48.272148</ele>
        <time>2014-07-27T09:24:48Z</time>
      </trkpt>
      <trkpt lat="49.32" lon="0.97925">
        <ele>49.323124</ele>
        <time>2014-07-27T09:26:20Z</time>
      </trkpt>
      <trkpt lat="49.31985" lon="0.97908">
        <ele>51.200001</ele>
        <time>2014-07-27T09:26:25Z</time>
      </trkpt>
      <trkpt lat="49.3197" lon="0.97908">
        <ele>51.247658</ele>
        <time>2014-07-27T09:26:29Z</time>
      </trkpt>
      <trkpt lat="49.31955" lon="0.97918">
        <ele>50.268288</ele>
        <time>2014-07-27T09:26:33Z</time>
      </trkpt>
      <trkpt lat="49.31938" lon="0.97918">
        <ele>50.827438</ele>
        <time>2014-07-27T09:26:38Z</time>
      </trkpt>
      <trkpt lat="49.31923" lon="0.97925">
        <ele>51.335754</ele>
        <time>2014-07-27T09:26:43Z</time>
      </trkpt>
      <trkpt lat="49.31905" lon="0.97935">
        <ele>51.767593</ele>
        <time>2014-07-27T09:26:49Z</time>
      </trkpt>
      <trkpt lat="49.3189" lon="0.97943">
        <ele>52.585323</ele>
        <time>2014-07-27T09:26:54Z</time>
      </trkpt>
      <trkpt lat="49.31875" lon="0.9795">
        <ele>53.256561</ele>
        <time>2014-07-27T09:26:59Z</time>
      </trkpt>
      <trkpt lat="49.3186" lon="0.97965">
        <ele>53.103138</ele>
        <time>2014-07-27T09:27:03Z</time>
      </trkpt>
      <trkpt lat="49.31845" lon="0.97973">
        <ele>53.373688</ele>
        <time>2014-07-27T09:27:07Z</time>
      </trkpt>
      <trkpt lat="49.31833" lon="0.97985">
        <ele>52.556187</ele>
        <time>2014-07-27T09:27:12Z</time>
      </trkpt>
      <trkpt lat="49.3182" lon="0.98">
        <ele>51.252823</ele>
        <time>2014-07-27T09:27:16Z</time>
      </trkpt>
      <trkpt lat="49.31818" lon="0.98023">
        <ele>48.93375</ele>
        <time>2014-07-27T09:27:23Z</time>
      </trkpt>
      <trkpt lat="49.31818" lon="0.98045">
        <ele>46.646252</ele>
        <time>2014-07-27T09:27:30Z</time>
      </trkpt>
      <trkpt lat="49.3181" lon="0.98063">
        <ele>45.053123</ele>
        <time>2014-07-27T09:27:37Z</time>
      </trkpt>
      <trkpt lat="49.31795" lon="0.98068">
        <ele>45.290001</ele>
        <time>2014-07-27T09:27:42Z</time>
      </trkpt>
      <trkpt lat="49.31785" lon="0.9805">
        <ele>47.756874</ele>
        <time>2014-07-27T09:27:54Z</time>
      </trkpt>
      <trkpt lat="49.31775" lon="0.9807">
        <ele>46.438751</ele>
        <time>2014-07-27T09:28:01Z</time>
      </trkpt>
      <trkpt lat="49.31763" lon="0.98085">
        <ele>45.656689</ele>
        <time>2014-07-27T09:28:06Z</time>
      </trkpt>
      <trkpt lat="49.3175" lon="0.98098">
        <ele>45.582607</ele>
        <time>2014-07-27T09:28:10Z</time>
      </trkpt>
      <trkpt lat="49.31743" lon="0.9812">
        <ele>44.212673</ele>
        <time>2014-07-27T09:28:15Z</time>
      </trkpt>
      <trkpt lat="49.31735" lon="0.98145">
        <ele>42.779999</ele>
        <time>2014-07-27T09:28:22Z</time>
      </trkpt>
      <trkpt lat="49.31725" lon="0.98163">
        <ele>43.021587</ele>
        <time>2014-07-27T09:28:26Z</time>
      </trkpt>
      <trkpt lat="49.31713" lon="0.98175">
        <ele>44.355251</ele>
        <time>2014-07-27T09:28:32Z</time>
      </trkpt>
      <trkpt lat="49.31705" lon="0.98193">
        <ele>44.88205</ele>
        <time>2014-07-27T09:28:37Z</time>
      </trkpt>
      <trkpt lat="49.31695" lon="0.98208">
        <ele>46.385624</ele>
        <time>2014-07-27T09:29:54Z</time>
      </trkpt>
      <trkpt lat="49.3168" lon="0.98218">
        <ele>49.634998</ele>
        <time>2014-07-27T09:30:03Z</time>
      </trkpt>
      <trkpt lat="49.31673" lon="0.98235">
        <ele>51.505001</ele>
        <time>2014-07-27T09:30:11Z</time>
      </trkpt>
      <trkpt lat="49.31668" lon="0.98258">
        <ele>53.079155</ele>
        <time>2014-07-27T09:30:17Z</time>
      </trkpt>
      <trkpt lat="49.3166" lon="0.98278">
        <ele>55.454655</ele>
        <time>2014-07-27T09:30:23Z</time>
      </trkpt>
      <trkpt lat="49.3165" lon="0.98293">
        <ele>58.4799</ele>
        <time>2014-07-27T09:30:28Z</time>
      </trkpt>
      <trkpt lat="49.31643" lon="0.98313">
        <ele>60.395039</ele>
        <time>2014-07-27T09:30:34Z</time>
      </trkpt>
      <trkpt lat="49.31633" lon="0.98338">
        <ele>62.29055</ele>
        <time>2014-07-27T09:30:40Z</time>
      </trkpt>
      <trkpt lat="49.3163" lon="0.9836">
        <ele>62.008957</ele>
        <time>2014-07-27T09:30:49Z</time>
      </trkpt>
      <trkpt lat="49.31618" lon="0.98373">
        <ele>62.569061</ele>
        <time>2014-07-27T09:31:01Z</time>
      </trkpt>
      <trkpt lat="49.3161" lon="0.9839">
        <ele>61.676514</ele>
        <time>2014-07-27T09:31:18Z</time>
      </trkpt>
      <trkpt lat="49.31618" lon="0.9841">
        <ele>59.924873</ele>
        <time>2014-07-27T09:31:30Z</time>
      </trkpt>
      <trkpt lat="49.31623" lon="0.9843">
        <ele>58.053799</ele>
        <time>2014-07-27T09:32:14Z</time>
      </trkpt>
      <trkpt lat="49.31628" lon="0.98455">
        <ele>54.762951</ele>
        <time>2014-07-27T09:32:27Z</time>
      </trkpt>
      <trkpt lat="49.31635" lon="0.98475">
        <ele>51.613625</ele>
        <time>2014-07-27T09:32:31Z</time>
      </trkpt>
      <trkpt lat="49.31643" lon="0.98493">
        <ele>49.251011</ele>
        <time>2014-07-27T09:32:37Z</time>
      </trkpt>
      <trkpt lat="49.31628" lon="0.98493">
        <ele>49.874062</ele>
        <time>2014-07-27T09:32:43Z</time>
      </trkpt>
      <trkpt lat="49.3161" lon="0.98505">
        <ele>49.120827</ele>
        <time>2014-07-27T09:32:49Z</time>
      </trkpt>
      <trkpt lat="49.31598" lon="0.9849">
        <ele>49.624924</ele>
        <time>2014-07-27T09:32:57Z</time>
      </trkpt>
      <trkpt lat="49.31583" lon="0.98493">
        <ele>49.043655</ele>
        <time>2014-07-27T09:33:03Z</time>
      </trkpt>
      <trkpt lat="49.31568" lon="0.985">
        <ele>49.94725</ele>
        <time>2014-07-27T09:33:08Z</time>
      </trkpt>
      <trkpt lat="49.31553" lon="0.98498">
        <ele>50.138828</ele>
        <time>2014-07-27T09:33:12Z</time>
      </trkpt>
      <trkpt lat="49.31538" lon="0.98488">
        <ele>50.753109</ele>
        <time>2014-07-27T09:33:18Z</time>
      </trkpt>
      <trkpt lat="49.31523" lon="0.98488">
        <ele>51.034698</ele>
        <time>2014-07-27T09:33:24Z</time>
      </trkpt>
      <trkpt lat="49.31508" lon="0.9849">
        <ele>51.086567</ele>
        <time>2014-07-27T09:33:32Z</time>
      </trkpt>
      <trkpt lat="49.31495" lon="0.98503">
        <ele>52.501251</ele>
        <time>2014-07-27T09:33:37Z</time>
      </trkpt>
      <trkpt lat="49.31483" lon="0.98513">
        <ele>56.102661</ele>
        <time>2014-07-27T09:33:42Z</time>
      </trkpt>
      <trkpt lat="49.31498" lon="0.9851">
        <ele>53.912003</ele>
        <time>2014-07-27T09:35:21Z</time>
      </trkpt>
      <trkpt lat="49.31513" lon="0.98513">
        <ele>53.715313</ele>
        <time>2014-07-27T09:35:51Z</time>
      </trkpt>
      <trkpt lat="49.31528" lon="0.9851">
        <ele>52.62672</ele>
        <time>2014-07-27T09:35:55Z</time>
      </trkpt>
      <trkpt lat="49.31548" lon="0.98518">
        <ele>52.617435</ele>
        <time>2014-07-27T09:36:12Z</time>
      </trkpt>
      <trkpt lat="49.31563" lon="0.98518">
        <ele>51.734142</ele>
        <time>2014-07-27T09:36:17Z</time>
      </trkpt>
      <trkpt lat="49.31578" lon="0.9852">
        <ele>51.002377</ele>
        <time>2014-07-27T09:36:21Z</time>
      </trkpt>
      <trkpt lat="49.31595" lon="0.98525">
        <ele>49.865692</ele>
        <time>2014-07-27T09:36:26Z</time>
      </trkpt>
      <trkpt lat="49.3161" lon="0.98533">
        <ele>48.174313</ele>
        <time>2014-07-27T09:36:34Z</time>
      </trkpt>
      <trkpt lat="49.31625" lon="0.9853">
        <ele>46.5186</ele>
        <time>2014-07-27T09:36:45Z</time>
      </trkpt>
      <trkpt lat="49.31638" lon="0.9854">
        <ele>45.050682</ele>
        <time>2014-07-27T09:36:51Z</time>
      </trkpt>
      <trkpt lat="49.31658" lon="0.98563">
        <ele>43.62133</ele>
        <time>2014-07-27T09:36:57Z</time>
      </trkpt>
      <trkpt lat="49.31665" lon="0.98583">
        <ele>43.019619</ele>
        <time>2014-07-27T09:37:02Z</time>
      </trkpt>
      <trkpt lat="49.31678" lon="0.98598">
        <ele>41.081875</ele>
        <time>2014-07-27T09:37:08Z</time>
      </trkpt>
      <trkpt lat="49.31698" lon="0.98633">
        <ele>39.380936</ele>
        <time>2014-07-27T09:37:15Z</time>
      </trkpt>
      <trkpt lat="49.31703" lon="0.98658">
        <ele>38.516975</ele>
        <time>2014-07-27T09:37:20Z</time>
      </trkpt>
      <trkpt lat="49.3171" lon="0.9868">
        <ele>36.751698</ele>
        <time>2014-07-27T09:37:25Z</time>
      </trkpt>
      <trkpt lat="49.31718" lon="0.98698">
        <ele>34.680244</ele>
        <time>2014-07-27T09:37:31Z</time>
      </trkpt>
      <trkpt lat="49.3173" lon="0.98713">
        <ele>34.143501</ele>
        <time>2014-07-27T09:37:48Z</time>
      </trkpt>
      <trkpt lat="49.3174" lon="0.98728">
        <ele>33.383751</ele>
        <time>2014-07-27T09:38:14Z</time>
      </trkpt>
      <trkpt lat="49.31753" lon="0.98743">
        <ele>31.476749</ele>
        <time>2014-07-27T09:38:33Z</time>
      </trkpt>
      <trkpt lat="49.31758" lon="0.98765">
        <ele>30.097082</ele>
        <time>2014-07-27T09:38:39Z</time>
      </trkpt>
      <trkpt lat="49.31763" lon="0.98785">
        <ele>32.215736</ele>
        <time>2014-07-27T09:39:19Z</time>
      </trkpt>
      <trkpt lat="49.31773" lon="0.98808">
        <ele>33.148594</ele>
        <time>2014-07-27T09:39:36Z</time>
      </trkpt>
      <trkpt lat="49.3178" lon="0.98833">
        <ele>33.704033</ele>
        <time>2014-07-27T09:39:45Z</time>
      </trkpt>
      <trkpt lat="49.31785" lon="0.98855">
        <ele>36.229359</ele>
        <time>2014-07-27T09:39:52Z</time>
      </trkpt>
      <trkpt lat="49.31793" lon="0.98873">
        <ele>37.496922</ele>
        <time>2014-07-27T09:39:58Z</time>
      </trkpt>
      <trkpt lat="49.318" lon="0.9889">
        <ele>39.118126</ele>
        <time>2014-07-27T09:40:03Z</time>
      </trkpt>
      <trkpt lat="49.31808" lon="0.98915">
        <ele>40.7243</ele>
        <time>2014-07-27T09:40:11Z</time>
      </trkpt>
      <trkpt lat="49.31815" lon="0.98933">
        <ele>41.230801</ele>
        <time>2014-07-27T09:40:17Z</time>
      </trkpt>
      <trkpt lat="49.31828" lon="0.98945">
        <ele>41.04771</ele>
        <time>2014-07-27T09:40:24Z</time>
      </trkpt>
      <trkpt lat="49.31843" lon="0.98948">
        <ele>39.496876</ele>
        <time>2014-07-27T09:40:29Z</time>
      </trkpt>
      <trkpt lat="49.3186" lon="0.9895">
        <ele>37.6189</ele>
        <time>2014-07-27T09:40:33Z</time>
      </trkpt>
      <trkpt lat="49.31878" lon="0.98955">
        <ele>36.14872</ele>
        <time>2014-07-27T09:40:37Z</time>
      </trkpt>
      <trkpt lat="49.31888" lon="0.9897">
        <ele>35.467583</ele>
        <time>2014-07-27T09:40:42Z</time>
      </trkpt>
      <trkpt lat="49.31903" lon="0.98958">
        <ele>33.620804</ele>
        <time>2014-07-27T09:41:09Z</time>
      </trkpt>
      <trkpt lat="49.31903" lon="0.98985">
        <ele>32.159904</ele>
        <time>2014-07-27T09:42:31Z</time>
      </trkpt>
      <trkpt lat="49.31895" lon="0.99018">
        <ele>30.610125</ele>
        <time>2014-07-27T09:42:34Z</time>
      </trkpt>
      <trkpt lat="49.31893" lon="0.9904">
        <ele>29.084475</ele>
        <time>2014-07-27T09:42:36Z</time>
      </trkpt>
      <trkpt lat="49.31885" lon="0.99078">
        <ele>25.876331</ele>
        <time>2014-07-27T09:42:39Z</time>
      </trkpt>
      <trkpt lat="49.31878" lon="0.99105">
        <ele>23.918076</ele>
        <time>2014-07-27T09:42:41Z</time>
      </trkpt>
      <trkpt lat="49.31868" lon="0.99153">
        <ele>19.998962</ele>
        <time>2014-07-27T09:42:45Z</time>
      </trkpt>
      <trkpt lat="49.3186" lon="0.99173">
        <ele>18.051306</ele>
        <time>2014-07-27T09:42:47Z</time>
      </trkpt>
      <trkpt lat="49.31848" lon="0.99203">
        <ele>17.304375</ele>
        <time>2014-07-27T09:42:50Z</time>
      </trkpt>
      <trkpt lat="49.31843" lon="0.99238">
        <ele>15.901512</ele>
        <time>2014-07-27T09:42:53Z</time>
      </trkpt>
      <trkpt lat="49.31835" lon="0.99285">
        <ele>13.767125</ele>
        <time>2014-07-27T09:42:58Z</time>
      </trkpt>
      <trkpt lat="49.31833" lon="0.99308">
        <ele>12.5225</ele>
        <time>2014-07-27T09:43:00Z</time>
      </trkpt>
      <trkpt lat="49.31835" lon="0.99338">
        <ele>11.659687</ele>
        <time>2014-07-27T09:43:03Z</time>
      </trkpt>
      <trkpt lat="49.31843" lon="0.99358">
        <ele>11.3525</ele>
        <time>2014-07-27T09:43:05Z</time>
      </trkpt>
      <trkpt lat="49.3185" lon="0.99378">
        <ele>11.4234</ele>
        <time>2014-07-27T09:43:07Z</time>
      </trkpt>
      <trkpt lat="49.31858" lon="0.99395">
        <ele>13.948937</ele>
        <time>2014-07-27T09:43:09Z</time>
      </trkpt>
      <trkpt lat="49.31858" lon="0.99418">
        <ele>16.98114</ele>
        <time>2014-07-27T09:43:12Z</time>
      </trkpt>
      <trkpt lat="49.31845" lon="0.9943">
        <ele>17.039454</ele>
        <time>2014-07-27T09:43:15Z</time>
      </trkpt>
      <trkpt lat="49.3183" lon="0.99438">
        <ele>15.773438</ele>
        <time>2014-07-27T09:43:51Z</time>
      </trkpt>
      <trkpt lat="49.31818" lon="0.9945">
        <ele>15.173675</ele>
        <time>2014-07-27T09:43:55Z</time>
      </trkpt>
      <trkpt lat="49.31805" lon="0.99468">
        <ele>17.024837</ele>
        <time>2014-07-27T09:44:00Z</time>
      </trkpt>
      <trkpt lat="49.31795" lon="0.99485">
        <ele>18.455376</ele>
        <time>2014-07-27T09:44:04Z</time>
      </trkpt>
      <trkpt lat="49.31785" lon="0.99503">
        <ele>19.16605</ele>
        <time>2014-07-27T09:44:08Z</time>
      </trkpt>
      <trkpt lat="49.3176" lon="0.99543">
        <ele>21.012699</ele>
        <time>2014-07-27T09:44:16Z</time>
      </trkpt>
      <trkpt lat="49.31745" lon="0.9956">
        <ele>21.072062</ele>
        <time>2014-07-27T09:44:20Z</time>
      </trkpt>
      <trkpt lat="49.31735" lon="0.9958">
        <ele>21.883749</ele>
        <time>2014-07-27T09:44:24Z</time>
      </trkpt>
      <trkpt lat="49.31728" lon="0.99598">
        <ele>22.815399</ele>
        <time>2014-07-27T09:44:27Z</time>
      </trkpt>
      <trkpt lat="49.31723" lon="0.9962">
        <ele>25.3374</ele>
        <time>2014-07-27T09:44:31Z</time>
      </trkpt>
      <trkpt lat="49.31718" lon="0.99645">
        <ele>28.556787</ele>
        <time>2014-07-27T09:44:36Z</time>
      </trkpt>
      <trkpt lat="49.31733" lon="0.9965">
        <ele>30.406157</ele>
        <time>2014-07-27T09:45:19Z</time>
      </trkpt>
      <trkpt lat="49.31738" lon="0.9967">
        <ele>33.916801</ele>
        <time>2014-07-27T09:45:47Z</time>
      </trkpt>
      <trkpt lat="49.31733" lon="0.9969">
        <ele>34.513218</ele>
        <time>2014-07-27T09:45:52Z</time>
      </trkpt>
      <trkpt lat="49.31738" lon="0.9971">
        <ele>37.36422</ele>
        <time>2014-07-27T09:45:58Z</time>
      </trkpt>
      <trkpt lat="49.3174" lon="0.99735">
        <ele>40.679451</ele>
        <time>2014-07-27T09:46:06Z</time>
      </trkpt>
      <trkpt lat="49.3175" lon="0.99753">
        <ele>44.044701</ele>
        <time>2014-07-27T09:46:14Z</time>
      </trkpt>
      <trkpt lat="49.3176" lon="0.99768">
        <ele>45.797424</ele>
        <time>2014-07-27T09:46:20Z</time>
      </trkpt>
      <trkpt lat="49.31773" lon="0.9978">
        <ele>46.035126</ele>
        <time>2014-07-27T09:46:27Z</time>
      </trkpt>
      <trkpt lat="49.31785" lon="0.9979">
        <ele>46.963501</ele>
        <time>2014-07-27T09:46:35Z</time>
      </trkpt>
      <trkpt lat="49.31778" lon="0.99808">
        <ele>47.941448</ele>
        <time>2014-07-27T09:46:46Z</time>
      </trkpt>
      <trkpt lat="49.31763" lon="0.998">
        <ele>49.036636</ele>
        <time>2014-07-27T09:46:53Z</time>
      </trkpt>
      <trkpt lat="49.31748" lon="0.99793">
        <ele>49.829063</ele>
        <time>2014-07-27T09:46:59Z</time>
      </trkpt>
      <trkpt lat="49.31733" lon="0.99788">
        <ele>50.671001</ele>
        <time>2014-07-27T09:47:05Z</time>
      </trkpt>
      <trkpt lat="49.31718" lon="0.9979">
        <ele>53.432339</ele>
        <time>2014-07-27T09:47:12Z</time>
      </trkpt>
      <trkpt lat="49.31703" lon="0.99783">
        <ele>54.268204</ele>
        <time>2014-07-27T09:47:21Z</time>
      </trkpt>
      <trkpt lat="49.31685" lon="0.99783">
        <ele>56.704483</ele>
        <time>2014-07-27T09:50:07Z</time>
      </trkpt>
      <trkpt lat="49.3167" lon="0.99778">
        <ele>56.576721</ele>
        <time>2014-07-27T09:50:13Z</time>
      </trkpt>
      <trkpt lat="49.31655" lon="0.99775">
        <ele>56.916538</ele>
        <time>2014-07-27T09:50:19Z</time>
      </trkpt>
      <trkpt lat="49.3164" lon="0.99773">
        <ele>57.154507</ele>
        <time>2014-07-27T09:50:25Z</time>
      </trkpt>
      <trkpt lat="49.3163" lon="0.99788">
        <ele>60.597263</ele>
        <time>2014-07-27T09:50:32Z</time>
      </trkpt>
      <trkpt lat="49.31615" lon="0.99778">
        <ele>59.000202</ele>
        <time>2014-07-27T09:50:39Z</time>
      </trkpt>
      <trkpt lat="49.31605" lon="0.9976">
        <ele>55.536549</ele>
        <time>2014-07-27T09:50:46Z</time>
      </trkpt>
      <trkpt lat="49.3159" lon="0.99755">
        <ele>54.873444</ele>
        <time>2014-07-27T09:50:52Z</time>
      </trkpt>
      <trkpt lat="49.31578" lon="0.99743">
        <ele>52.600868</ele>
        <time>2014-07-27T09:50:57Z</time>
      </trkpt>
      <trkpt lat="49.3156" lon="0.99738">
        <ele>52.183884</ele>
        <time>2014-07-27T09:51:01Z</time>
      </trkpt>
      <trkpt lat="49.3154" lon="0.99735">
        <ele>51.883751</ele>
        <time>2014-07-27T09:51:06Z</time>
      </trkpt>
      <trkpt lat="49.31523" lon="0.99733">
        <ele>51.279999</ele>
        <time>2014-07-27T09:51:10Z</time>
      </trkpt>
      <trkpt lat="49.31508" lon="0.99733">
        <ele>51.201248</ele>
        <time>2014-07-27T09:51:13Z</time>
      </trkpt>
      <trkpt lat="49.31493" lon="0.9973">
        <ele>49.964375</ele>
        <time>2014-07-27T09:51:17Z</time>
      </trkpt>
      <trkpt lat="49.31475" lon="0.99725">
        <ele>48.1525</ele>
        <time>2014-07-27T09:51:21Z</time>
      </trkpt>
      <trkpt lat="49.31455" lon="0.99723">
        <ele>46.498039</ele>
        <time>2014-07-27T09:51:25Z</time>
      </trkpt>
      <trkpt lat="49.3144" lon="0.99728">
        <ele>46.345516</ele>
        <time>2014-07-27T09:51:28Z</time>
      </trkpt>
      <trkpt lat="49.31425" lon="0.9973">
        <ele>45.736099</ele>
        <time>2014-07-27T09:51:32Z</time>
      </trkpt>
      <trkpt lat="49.3141" lon="0.9973">
        <ele>43.169125</ele>
        <time>2014-07-27T09:51:36Z</time>
      </trkpt>
      <trkpt lat="49.31398" lon="0.9974">
        <ele>40.189575</ele>
        <time>2014-07-27T09:51:40Z</time>
      </trkpt>
      <trkpt lat="49.31403" lon="0.9976">
        <ele>40.916576</ele>
        <time>2014-07-27T09:51:45Z</time>
      </trkpt>
      <trkpt lat="49.31415" lon="0.9977">
        <ele>46.146999</ele>
        <time>2014-07-27T09:52:05Z</time>
      </trkpt>
      <trkpt lat="49.31425" lon="0.99785">
        <ele>49.698906</ele>
        <time>2014-07-27T09:52:38Z</time>
      </trkpt>
      <trkpt lat="49.3144" lon="0.99788">
        <ele>53.21365</ele>
        <time>2014-07-27T09:52:45Z</time>
      </trkpt>
      <trkpt lat="49.31455" lon="0.99788">
        <ele>56.654865</ele>
        <time>2014-07-27T09:52:52Z</time>
      </trkpt>
      <trkpt lat="49.3147" lon="0.99785">
        <ele>58.694126</ele>
        <time>2014-07-27T09:52:58Z</time>
      </trkpt>
      <trkpt lat="49.31495" lon="0.99778">
        <ele>59.335911</ele>
        <time>2014-07-27T09:53:08Z</time>
      </trkpt>
      <trkpt lat="49.3151" lon="0.99788">
        <ele>62.418751</ele>
        <time>2014-07-27T09:53:15Z</time>
      </trkpt>
      <trkpt lat="49.3152" lon="0.99803">
        <ele>65.376503</ele>
        <time>2014-07-27T09:53:21Z</time>
      </trkpt>
      <trkpt lat="49.3153" lon="0.99818">
        <ele>67.832375</ele>
        <time>2014-07-27T09:53:27Z</time>
      </trkpt>
      <trkpt lat="49.31533" lon="0.9984">
        <ele>71.539948</ele>
        <time>2014-07-27T09:53:34Z</time>
      </trkpt>
      <trkpt lat="49.3152" lon="0.9985">
        <ele>72.272926</ele>
        <time>2014-07-27T09:56:32Z</time>
      </trkpt>
      <trkpt lat="49.31513" lon="0.99868">
        <ele>74.119812</ele>
        <time>2014-07-27T09:56:37Z</time>
      </trkpt>
      <trkpt lat="49.31518" lon="0.99888">
        <ele>73.17057</ele>
        <time>2014-07-27T09:56:45Z</time>
      </trkpt>
      <trkpt lat="49.3153" lon="0.99898">
        <ele>74.984024</ele>
        <time>2014-07-27T09:56:51Z</time>
      </trkpt>
      <trkpt lat="49.31538" lon="0.99915">
        <ele>76.520874</ele>
        <time>2014-07-27T09:56:57Z</time>
      </trkpt>
      <trkpt lat="49.3155" lon="0.99925">
        <ele>80.603867</ele>
        <time>2014-07-27T09:57:02Z</time>
      </trkpt>
      <trkpt lat="49.31565" lon="0.99938">
        <ele>83.80677</ele>
        <time>2014-07-27T09:57:09Z</time>
      </trkpt>
      <trkpt lat="49.31575" lon="0.99955">
        <ele>81.094414</ele>
        <time>2014-07-27T09:59:03Z</time>
      </trkpt>
      <trkpt lat="49.3159" lon="0.99968">
        <ele>81.027626</ele>
        <time>2014-07-27T09:59:11Z</time>
      </trkpt>
      <trkpt lat="49.31603" lon="0.99958">
        <ele>84.409599</ele>
        <time>2014-07-27T09:59:16Z</time>
      </trkpt>
      <trkpt lat="49.31615" lon="0.99968">
        <ele>83.044228</ele>
        <time>2014-07-27T09:59:22Z</time>
      </trkpt>
      <trkpt lat="49.3163" lon="0.99975">
        <ele>82.657349</ele>
        <time>2014-07-27T09:59:29Z</time>
      </trkpt>
      <trkpt lat="49.31648" lon="0.99978">
        <ele>82.772499</ele>
        <time>2014-07-27T09:59:34Z</time>
      </trkpt>
      <trkpt lat="49.31658" lon="0.99993">
        <ele>80.816872</ele>
        <time>2014-07-27T09:59:51Z</time>
      </trkpt>
      <trkpt lat="49.31655" lon="1.00018">
        <ele>77.93425</ele>
        <time>2014-07-27T10:00:15Z</time>
      </trkpt>
      <trkpt lat="49.3166" lon="1.0004">
        <ele>73.629532</ele>
        <time>2014-07-27T10:00:18Z</time>
      </trkpt>
      <trkpt lat="49.31668" lon="1.0006">
        <ele>70.545624</ele>
        <time>2014-07-27T10:00:21Z</time>
      </trkpt>
      <trkpt lat="49.3168" lon="1.00073">
        <ele>69.65741</ele>
        <time>2014-07-27T10:00:28Z</time>
      </trkpt>
      <trkpt lat="49.31678" lon="1.00098">
        <ele>64.2883</ele>
        <time>2014-07-27T10:00:35Z</time>
      </trkpt>
      <trkpt lat="49.3169" lon="1.00113">
        <ele>64.449776</ele>
        <time>2014-07-27T10:00:41Z</time>
      </trkpt>
      <trkpt lat="49.317" lon="1.0013">
        <ele>64.197853</ele>
        <time>2014-07-27T10:00:52Z</time>
      </trkpt>
      <trkpt lat="49.31715" lon="1.0013">
        <ele>67.636902</ele>
        <time>2014-07-27T10:00:59Z</time>
      </trkpt>
      <trkpt lat="49.3173" lon="1.00128">
        <ele>71.08857</ele>
        <time>2014-07-27T10:01:06Z</time>
      </trkpt>
      <trkpt lat="49.3173" lon="1.0015">
        <ele>69.62751</ele>
        <time>2014-07-27T10:01:53Z</time>
      </trkpt>
      <trkpt lat="49.3173" lon="1.00175">
        <ele>66.371498</ele>
        <time>2014-07-27T10:01:56Z</time>
      </trkpt>
      <trkpt lat="49.31735" lon="1.00203">
        <ele>65.191299</ele>
        <time>2014-07-27T10:01:59Z</time>
      </trkpt>
      <trkpt lat="49.3175" lon="1.0021">
        <ele>69.490578</ele>
        <time>2014-07-27T10:02:04Z</time>
      </trkpt>
      <trkpt lat="49.31765" lon="1.00218">
        <ele>72.98394</ele>
        <time>2014-07-27T10:02:10Z</time>
      </trkpt>
      <trkpt lat="49.3178" lon="1.00225">
        <ele>76.472939</ele>
        <time>2014-07-27T10:02:16Z</time>
      </trkpt>
      <trkpt lat="49.31793" lon="1.00238">
        <ele>78.314735</ele>
        <time>2014-07-27T10:02:35Z</time>
      </trkpt>
      <trkpt lat="49.318" lon="1.00218">
        <ele>85.604698</ele>
        <time>2014-07-27T10:03:27Z</time>
      </trkpt>
      <trkpt lat="49.31803" lon="1.00243">
        <ele>81.243599</ele>
        <time>2014-07-27T10:04:12Z</time>
      </trkpt>
      <trkpt lat="49.31813" lon="1.0026">
        <ele>81.700737</ele>
        <time>2014-07-27T10:04:19Z</time>
      </trkpt>
      <trkpt lat="49.31818" lon="1.00283">
        <ele>79.336998</ele>
        <time>2014-07-27T10:04:25Z</time>
      </trkpt>
      <trkpt lat="49.3183" lon="1.00295">
        <ele>81.9282</ele>
        <time>2014-07-27T10:04:31Z</time>
      </trkpt>
      <trkpt lat="49.31845" lon="1.003">
        <ele>88.139999</ele>
        <time>2014-07-27T10:04:57Z</time>
      </trkpt>
      <trkpt lat="49.3186" lon="1.00303">
        <ele>95.029488</ele>
        <time>2014-07-27T10:05:05Z</time>
      </trkpt>
      <trkpt lat="49.31833" lon="1.00323">
        <ele>77.169563</ele>
        <time>2014-07-27T10:05:45Z</time>
      </trkpt>
      <trkpt lat="49.31845" lon="1.00335">
        <ele>81.196251</ele>
        <time>2014-07-27T10:05:47Z</time>
      </trkpt>
      <trkpt lat="49.3185" lon="1.00363">
        <ele>79.498489</ele>
        <time>2014-07-27T10:05:54Z</time>
      </trkpt>
      <trkpt lat="49.31855" lon="1.00383">
        <ele>78.35408</ele>
        <time>2014-07-27T10:06:00Z</time>
      </trkpt>
      <trkpt lat="49.31868" lon="1.00398">
        <ele>79.724915</ele>
        <time>2014-07-27T10:06:06Z</time>
      </trkpt>
      <trkpt lat="49.31878" lon="1.00413">
        <ele>79.398834</ele>
        <time>2014-07-27T10:06:10Z</time>
      </trkpt>
      <trkpt lat="49.31893" lon="1.0042">
        <ele>83.775551</ele>
        <time>2014-07-27T10:06:54Z</time>
      </trkpt>
      <trkpt lat="49.31908" lon="1.0042">
        <ele>90.104103</ele>
        <time>2014-07-27T10:07:00Z</time>
      </trkpt>
      <trkpt lat="49.31915" lon="1.0044">
        <ele>88.536308</ele>
        <time>2014-07-27T10:07:07Z</time>
      </trkpt>
      <trkpt lat="49.31913" lon="1.00463">
        <ele>81.995697</ele>
        <time>2014-07-27T10:07:13Z</time>
      </trkpt>
      <trkpt lat="49.31915" lon="1.00488">
        <ele>76.2892</ele>
        <time>2014-07-27T10:07:19Z</time>
      </trkpt>
      <trkpt lat="49.3193" lon="1.0049">
        <ele>81.259933</ele>
        <time>2014-07-27T10:07:27Z</time>
      </trkpt>
      <trkpt lat="49.31945" lon="1.00498">
        <ele>84.305511</ele>
        <time>2014-07-27T10:07:34Z</time>
      </trkpt>
      <trkpt lat="49.3196" lon="1.00503">
        <ele>88.382797</ele>
        <time>2014-07-27T10:07:41Z</time>
      </trkpt>
      <trkpt lat="49.31968" lon="1.0052">
        <ele>86.799698</ele>
        <time>2014-07-27T10:07:48Z</time>
      </trkpt>
      <trkpt lat="49.31973" lon="1.00543">
        <ele>83.815376</ele>
        <time>2014-07-27T10:07:55Z</time>
      </trkpt>
      <trkpt lat="49.31968" lon="1.00563">
        <ele>77.995552</ele>
        <time>2014-07-27T10:08:07Z</time>
      </trkpt>
      <trkpt lat="49.3196" lon="1.00583">
        <ele>71.563416</ele>
        <time>2014-07-27T10:08:24Z</time>
      </trkpt>
      <trkpt lat="49.31965" lon="1.00603">
        <ele>70.777328</ele>
        <time>2014-07-27T10:09:34Z</time>
      </trkpt>
      <trkpt lat="49.3198" lon="1.00603">
        <ele>77.351997</ele>
        <time>2014-07-27T10:09:38Z</time>
      </trkpt>
      <trkpt lat="49.31995" lon="1.00603">
        <ele>83.836273</ele>
        <time>2014-07-27T10:09:41Z</time>
      </trkpt>
      <trkpt lat="49.32015" lon="1.00605">
        <ele>91.198196</ele>
        <time>2014-07-27T10:09:46Z</time>
      </trkpt>
      <trkpt lat="49.3202" lon="1.00625">
        <ele>88.023224</ele>
        <time>2014-07-27T10:10:13Z</time>
      </trkpt>
      <trkpt lat="49.32018" lon="1.00648">
        <ele>82.220703</ele>
        <time>2014-07-27T10:10:17Z</time>
      </trkpt>
      <trkpt lat="49.32015" lon="1.0067">
        <ele>76.310387</ele>
        <time>2014-07-27T10:10:21Z</time>
      </trkpt>
      <trkpt lat="49.32028" lon="1.00683">
        <ele>77.084503</ele>
        <time>2014-07-27T10:10:25Z</time>
      </trkpt>
      <trkpt lat="49.32038" lon="1.00698">
        <ele>76.088455</ele>
        <time>2014-07-27T10:10:28Z</time>
      </trkpt>
      <trkpt lat="49.32048" lon="1.0072">
        <ele>73.778358</ele>
        <time>2014-07-27T10:10:32Z</time>
      </trkpt>
      <trkpt lat="49.32053" lon="1.00745">
        <ele>69.487747</ele>
        <time>2014-07-27T10:11:01Z</time>
      </trkpt>
      <trkpt lat="49.32068" lon="1.00755">
        <ele>67.058304</ele>
        <time>2014-07-27T10:11:10Z</time>
      </trkpt>
      <trkpt lat="49.32083" lon="1.00748">
        <ele>68.251465</ele>
        <time>2014-07-27T10:11:17Z</time>
      </trkpt>
      <trkpt lat="49.32095" lon="1.00738">
        <ele>69.219986</ele>
        <time>2014-07-27T10:11:26Z</time>
      </trkpt>
      <trkpt lat="49.32103" lon="1.0072">
        <ele>72.651253</ele>
        <time>2014-07-27T10:12:31Z</time>
      </trkpt>
      <trkpt lat="49.32118" lon="1.00713">
        <ele>74.272629</ele>
        <time>2014-07-27T10:12:39Z</time>
      </trkpt>
      <trkpt lat="49.32133" lon="1.00705">
        <ele>74.84697</ele>
        <time>2014-07-27T10:12:46Z</time>
      </trkpt>
      <trkpt lat="49.32143" lon="1.0069">
        <ele>75.169685</ele>
        <time>2014-07-27T10:12:52Z</time>
      </trkpt>
      <trkpt lat="49.32155" lon="1.00675">
        <ele>77.103447</ele>
        <time>2014-07-27T10:12:57Z</time>
      </trkpt>
      <trkpt lat="49.32165" lon="1.00695">
        <ele>78.518654</ele>
        <time>2014-07-27T10:13:14Z</time>
      </trkpt>
      <trkpt lat="49.32178" lon="1.00705">
        <ele>81.143059</ele>
        <time>2014-07-27T10:14:39Z</time>
      </trkpt>
      <trkpt lat="49.32188" lon="1.0072">
        <ele>83.188904</ele>
        <time>2014-07-27T10:14:45Z</time>
      </trkpt>
      <trkpt lat="49.32203" lon="1.00728">
        <ele>84.953186</ele>
        <time>2014-07-27T10:14:51Z</time>
      </trkpt>
      <trkpt lat="49.32215" lon="1.00738">
        <ele>85.330315</ele>
        <time>2014-07-27T10:14:58Z</time>
      </trkpt>
      <trkpt lat="49.3221" lon="1.0076">
        <ele>86.43425</ele>
        <time>2014-07-27T10:15:29Z</time>
      </trkpt>
      <trkpt lat="49.32203" lon="1.0078">
        <ele>88.356865</ele>
        <time>2014-07-27T10:16:31Z</time>
      </trkpt>
      <trkpt lat="49.32205" lon="1.00803">
        <ele>90.859299</ele>
        <time>2014-07-27T10:16:39Z</time>
      </trkpt>
      <trkpt lat="49.322" lon="1.00825">
        <ele>93.606598</ele>
        <time>2014-07-27T10:16:45Z</time>
      </trkpt>
      <trkpt lat="49.32203" lon="1.00848">
        <ele>96.706741</ele>
        <time>2014-07-27T10:16:51Z</time>
      </trkpt>
      <trkpt lat="49.32203" lon="1.0087">
        <ele>99.765388</ele>
        <time>2014-07-27T10:16:57Z</time>
      </trkpt>
      <trkpt lat="49.32205" lon="1.00893">
        <ele>100.533661</ele>
        <time>2014-07-27T10:17:03Z</time>
      </trkpt>
      <trkpt lat="49.32213" lon="1.0091">
        <ele>100.225372</ele>
        <time>2014-07-27T10:17:10Z</time>
      </trkpt>
      <trkpt lat="49.3222" lon="1.00928">
        <ele>100.964378</ele>
        <time>2014-07-27T10:17:17Z</time>
      </trkpt>
      <trkpt lat="49.32223" lon="1.00953">
        <ele>100.813698</ele>
        <time>2014-07-27T10:18:55Z</time>
      </trkpt>
      <trkpt lat="49.32235" lon="1.0097">
        <ele>103.224953</ele>
        <time>2014-07-27T10:18:59Z</time>
      </trkpt>
      <trkpt lat="49.3224" lon="1.00993">
        <ele>103.046204</ele>
        <time>2014-07-27T10:19:05Z</time>
      </trkpt>
      <trkpt lat="49.32248" lon="1.0101">
        <ele>103.088211</ele>
        <time>2014-07-27T10:19:11Z</time>
      </trkpt>
      <trkpt lat="49.32255" lon="1.01033">
        <ele>103.723755</ele>
        <time>2014-07-27T10:19:18Z</time>
      </trkpt>
      <trkpt lat="49.32268" lon="1.01043">
        <ele>106.173752</ele>
        <time>2014-07-27T10:19:35Z</time>
      </trkpt>
      <trkpt lat="49.32285" lon="1.01065">
        <ele>109.355003</ele>
        <time>2014-07-27T10:20:52Z</time>
      </trkpt>
      <trkpt lat="49.32298" lon="1.0108">
        <ele>110.540001</ele>
        <time>2014-07-27T10:20:56Z</time>
      </trkpt>
      <trkpt lat="49.32313" lon="1.01095">
        <ele>111.815872</ele>
        <time>2014-07-27T10:21:02Z</time>
      </trkpt>
      <trkpt lat="49.32328" lon="1.011">
        <ele>114.28196</ele>
        <time>2014-07-27T10:21:06Z</time>
      </trkpt>
      <trkpt lat="49.32338" lon="1.01115">
        <ele>114.898842</ele>
        <time>2014-07-27T10:21:11Z</time>
      </trkpt>
      <trkpt lat="49.32345" lon="1.01135">
        <ele>115.203735</ele>
        <time>2014-07-27T10:21:16Z</time>
      </trkpt>
      <trkpt lat="49.32355" lon="1.0115">
        <ele>115.927002</ele>
        <time>2014-07-27T10:21:20Z</time>
      </trkpt>
      <trkpt lat="49.32363" lon="1.01168">
        <ele>116.795876</ele>
        <time>2014-07-27T10:21:25Z</time>
      </trkpt>
      <trkpt lat="49.3237" lon="1.01188">
        <ele>118.208862</ele>
        <time>2014-07-27T10:21:32Z</time>
      </trkpt>
      <trkpt lat="49.32373" lon="1.0121">
        <ele>119.585602</ele>
        <time>2014-07-27T10:22:01Z</time>
      </trkpt>
      <trkpt lat="49.32373" lon="1.01235">
        <ele>120.219299</ele>
        <time>2014-07-27T10:22:11Z</time>
      </trkpt>
      <trkpt lat="49.32373" lon="1.0126">
        <ele>120.496559</ele>
        <time>2014-07-27T10:22:18Z</time>
      </trkpt>
      <trkpt lat="49.32388" lon="1.01268">
        <ele>120.24688</ele>
        <time>2014-07-27T10:22:23Z</time>
      </trkpt>
      <trkpt lat="49.32403" lon="1.01278">
        <ele>118.053123</ele>
        <time>2014-07-27T10:22:33Z</time>
      </trkpt>
      <trkpt lat="49.3241" lon="1.01298">
        <ele>117.290314</ele>
        <time>2014-07-27T10:22:40Z</time>
      </trkpt>
      <trkpt lat="49.32405" lon="1.01318">
        <ele>118.290031</ele>
        <time>2014-07-27T10:22:48Z</time>
      </trkpt>
      <trkpt lat="49.32393" lon="1.0133">
        <ele>119.583267</ele>
        <time>2014-07-27T10:22:53Z</time>
      </trkpt>
      <trkpt lat="49.3239" lon="1.01355">
        <ele>119.555</ele>
        <time>2014-07-27T10:23:01Z</time>
      </trkpt>
      <trkpt lat="49.32395" lon="1.01375">
        <ele>118.180626</ele>
        <time>2014-07-27T10:23:07Z</time>
      </trkpt>
      <trkpt lat="49.32403" lon="1.01398">
        <ele>117.299812</ele>
        <time>2014-07-27T10:23:12Z</time>
      </trkpt>
      <trkpt lat="49.32413" lon="1.01415">
        <ele>117.953751</ele>
        <time>2014-07-27T10:23:17Z</time>
      </trkpt>
      <trkpt lat="49.32425" lon="1.01428">
        <ele>119.941727</ele>
        <time>2014-07-27T10:23:21Z</time>
      </trkpt>
      <trkpt lat="49.32438" lon="1.01443">
        <ele>118.099686</ele>
        <time>2014-07-27T10:23:26Z</time>
      </trkpt>
      <trkpt lat="49.32448" lon="1.0146">
        <ele>117.03051</ele>
        <time>2014-07-27T10:23:31Z</time>
      </trkpt>
      <trkpt lat="49.32475" lon="1.01508">
        <ele>115.136459</ele>
        <time>2014-07-27T10:23:42Z</time>
      </trkpt>
      <trkpt lat="49.32485" lon="1.01523">
        <ele>114.375168</ele>
        <time>2014-07-27T10:23:45Z</time>
      </trkpt>
      <trkpt lat="49.32498" lon="1.01535">
        <ele>114.038551</ele>
        <time>2014-07-27T10:23:48Z</time>
      </trkpt>
      <trkpt lat="49.32505" lon="1.01553">
        <ele>113.731216</ele>
        <time>2014-07-27T10:23:51Z</time>
      </trkpt>
      <trkpt lat="49.32515" lon="1.01573">
        <ele>113.717224</ele>
        <time>2014-07-27T10:23:54Z</time>
      </trkpt>
      <trkpt lat="49.3253" lon="1.01588">
        <ele>115.226128</ele>
        <time>2014-07-27T10:23:57Z</time>
      </trkpt>
      <trkpt lat="49.32545" lon="1.01593">
        <ele>117.003677</ele>
        <time>2014-07-27T10:24:01Z</time>
      </trkpt>
      <trkpt lat="49.3256" lon="1.0159">
        <ele>118.836838</ele>
        <time>2014-07-27T10:24:07Z</time>
      </trkpt>
      <trkpt lat="49.32578" lon="1.0159">
        <ele>120.240425</ele>
        <time>2014-07-27T10:24:13Z</time>
      </trkpt>
      <trkpt lat="49.32593" lon="1.01585">
        <ele>121.347794</ele>
        <time>2014-07-27T10:24:18Z</time>
      </trkpt>
      <trkpt lat="49.32613" lon="1.0158">
        <ele>122.593124</ele>
        <time>2014-07-27T10:24:24Z</time>
      </trkpt>
      <trkpt lat="49.32628" lon="1.0158">
        <ele>123.268753</ele>
        <time>2014-07-27T10:24:28Z</time>
      </trkpt>
      <trkpt lat="49.32643" lon="1.0158">
        <ele>123.934372</ele>
        <time>2014-07-27T10:24:32Z</time>
      </trkpt>
      <trkpt lat="49.32658" lon="1.01585">
        <ele>124.542496</ele>
        <time>2014-07-27T10:24:36Z</time>
      </trkpt>
      <trkpt lat="49.32673" lon="1.01593">
        <ele>124.987503</ele>
        <time>2014-07-27T10:24:42Z</time>
      </trkpt>
      <trkpt lat="49.32688" lon="1.01598">
        <ele>125.400627</ele>
        <time>2014-07-27T10:24:50Z</time>
      </trkpt>
      <trkpt lat="49.32703" lon="1.01598">
        <ele>125.657074</ele>
        <time>2014-07-27T10:24:59Z</time>
      </trkpt>
      <trkpt lat="49.32715" lon="1.0161">
        <ele>125.876053</ele>
        <time>2014-07-27T10:25:07Z</time>
      </trkpt>
      <trkpt lat="49.3273" lon="1.01608">
        <ele>125.939217</ele>
        <time>2014-07-27T10:25:16Z</time>
      </trkpt>
      <trkpt lat="49.32743" lon="1.01598">
        <ele>126.029999</ele>
        <time>2014-07-27T10:25:23Z</time>
      </trkpt>
      <trkpt lat="49.32773" lon="1.0157">
        <ele>126.705002</ele>
        <time>2014-07-27T10:25:36Z</time>
      </trkpt>
      <trkpt lat="49.32785" lon="1.0156">
        <ele>126.985001</ele>
        <time>2014-07-27T10:25:41Z</time>
      </trkpt>
      <trkpt lat="49.328" lon="1.01553">
        <ele>127</ele>
        <time>2014-07-27T10:25:46Z</time>
      </trkpt>
      <trkpt lat="49.32813" lon="1.0154">
        <ele>127</ele>
        <time>2014-07-27T10:25:51Z</time>
      </trkpt>
      <trkpt lat="49.3283" lon="1.01528">
        <ele>127</ele>
        <time>2014-07-27T10:25:58Z</time>
      </trkpt>
      <trkpt lat="49.3283" lon="1.01503">
        <ele>127</ele>
        <time>2014-07-27T10:26:05Z</time>
      </trkpt>
      <trkpt lat="49.32818" lon="1.01485">
        <ele>127</ele>
        <time>2014-07-27T10:26:40Z</time>
      </trkpt>
      <trkpt lat="49.3281" lon="1.01463">
        <ele>126.859711</ele>
        <time>2014-07-27T10:26:44Z</time>
      </trkpt>
      <trkpt lat="49.32785" lon="1.01383">
        <ele>126.012611</ele>
        <time>2014-07-27T10:26:55Z</time>
      </trkpt>
      <trkpt lat="49.32775" lon="1.01353">
        <ele>125.822113</ele>
        <time>2014-07-27T10:26:59Z</time>
      </trkpt>
      <trkpt lat="49.32768" lon="1.01328">
        <ele>125.241623</ele>
        <time>2014-07-27T10:27:03Z</time>
      </trkpt>
      <trkpt lat="49.3276" lon="1.01295">
        <ele>124.315033</ele>
        <time>2014-07-27T10:27:08Z</time>
      </trkpt>
      <trkpt lat="49.32755" lon="1.01275">
        <ele>123.627502</ele>
        <time>2014-07-27T10:27:11Z</time>
      </trkpt>
      <trkpt lat="49.32748" lon="1.01258">
        <ele>122.793747</ele>
        <time>2014-07-27T10:27:14Z</time>
      </trkpt>
      <trkpt lat="49.3274" lon="1.0124">
        <ele>121.948753</ele>
        <time>2014-07-27T10:27:17Z</time>
      </trkpt>
      <trkpt lat="49.32735" lon="1.01218">
        <ele>121.125</ele>
        <time>2014-07-27T10:27:20Z</time>
      </trkpt>
      <trkpt lat="49.32725" lon="1.01195">
        <ele>120.429726</ele>
        <time>2014-07-27T10:27:23Z</time>
      </trkpt>
      <trkpt lat="49.32718" lon="1.01173">
        <ele>119.753845</ele>
        <time>2014-07-27T10:27:26Z</time>
      </trkpt>
      <trkpt lat="49.3271" lon="1.0115">
        <ele>118.978592</ele>
        <time>2014-07-27T10:27:29Z</time>
      </trkpt>
      <trkpt lat="49.32708" lon="1.01125">
        <ele>118.557755</ele>
        <time>2014-07-27T10:27:32Z</time>
      </trkpt>
      <trkpt lat="49.327" lon="1.01105">
        <ele>117.960823</ele>
        <time>2014-07-27T10:27:35Z</time>
      </trkpt>
      <trkpt lat="49.32693" lon="1.01083">
        <ele>117.220802</ele>
        <time>2014-07-27T10:27:38Z</time>
      </trkpt>
      <trkpt lat="49.32683" lon="1.01053">
        <ele>116.751892</ele>
        <time>2014-07-27T10:27:42Z</time>
      </trkpt>
      <trkpt lat="49.32673" lon="1.01025">
        <ele>116.281021</ele>
        <time>2014-07-27T10:27:45Z</time>
      </trkpt>
      <trkpt lat="49.32658" lon="1.0098">
        <ele>116.126488</ele>
        <time>2014-07-27T10:27:49Z</time>
      </trkpt>
      <trkpt lat="49.32645" lon="1.00938">
        <ele>117.084549</ele>
        <time>2014-07-27T10:27:55Z</time>
      </trkpt>
      <trkpt lat="49.32638" lon="1.0092">
        <ele>117.061203</ele>
        <time>2014-07-27T10:27:58Z</time>
      </trkpt>
      <trkpt lat="49.3263" lon="1.00898">
        <ele>117.372101</ele>
        <time>2014-07-27T10:28:02Z</time>
      </trkpt>
      <trkpt lat="49.3262" lon="1.00863">
        <ele>118.083122</ele>
        <time>2014-07-27T10:28:10Z</time>
      </trkpt>
      <trkpt lat="49.32613" lon="1.00843">
        <ele>118.056877</ele>
        <time>2014-07-27T10:28:17Z</time>
      </trkpt>
      <trkpt lat="49.32605" lon="1.00823">
        <ele>118.030624</ele>
        <time>2014-07-27T10:28:23Z</time>
      </trkpt>
      <trkpt lat="49.32595" lon="1.00793">
        <ele>117.889999</ele>
        <time>2014-07-27T10:28:32Z</time>
      </trkpt>
      <trkpt lat="49.32588" lon="1.00773">
        <ele>117.559998</ele>
        <time>2014-07-27T10:28:38Z</time>
      </trkpt>
      <trkpt lat="49.3258" lon="1.0075">
        <ele>117.239998</ele>
        <time>2014-07-27T10:28:47Z</time>
      </trkpt>
      <trkpt lat="49.32568" lon="1.0071">
        <ele>116.102905</ele>
        <time>2014-07-27T10:28:55Z</time>
      </trkpt>
      <trkpt lat="49.3256" lon="1.00685">
        <ele>115.062096</ele>
        <time>2014-07-27T10:28:59Z</time>
      </trkpt>
      <trkpt lat="49.3255" lon="1.0065">
        <ele>111.888969</ele>
        <time>2014-07-27T10:29:05Z</time>
      </trkpt>
      <trkpt lat="49.32543" lon="1.00633">
        <ele>108.622734</ele>
        <time>2014-07-27T10:29:09Z</time>
      </trkpt>
      <trkpt lat="49.32535" lon="1.00613">
        <ele>104.932625</ele>
        <time>2014-07-27T10:29:14Z</time>
      </trkpt>
      <trkpt lat="49.3253" lon="1.00593">
        <ele>101.558121</ele>
        <time>2014-07-27T10:29:20Z</time>
      </trkpt>
      <trkpt lat="49.3252" lon="1.00573">
        <ele>96.836197</ele>
        <time>2014-07-27T10:29:27Z</time>
      </trkpt>
      <trkpt lat="49.32513" lon="1.00555">
        <ele>92.623062</ele>
        <time>2014-07-27T10:30:39Z</time>
      </trkpt>
      <trkpt lat="49.32508" lon="1.00535">
        <ele>88.410637</ele>
        <time>2014-07-27T10:32:29Z</time>
      </trkpt>
      <trkpt lat="49.32498" lon="1.00518">
        <ele>82.932899</ele>
        <time>2014-07-27T10:32:58Z</time>
      </trkpt>
      <trkpt lat="49.32498" lon="1.00458">
        <ele>74.800888</ele>
        <time>2014-07-27T10:46:29Z</time>
      </trkpt>
      <trkpt lat="49.3251" lon="1.0044">
        <ele>76.552322</ele>
        <time>2014-07-27T10:46:34Z</time>
      </trkpt>
      <trkpt lat="49.32523" lon="1.00428">
        <ele>79.380547</ele>
        <time>2014-07-27T10:46:38Z</time>
      </trkpt>
      <trkpt lat="49.32533" lon="1.00413">
        <ele>81.312035</ele>
        <time>2014-07-27T10:46:42Z</time>
      </trkpt>
      <trkpt lat="49.32543" lon="1.00393">
        <ele>83.058594</ele>
        <time>2014-07-27T10:46:47Z</time>
      </trkpt>
      <trkpt lat="49.32553" lon="1.00375">
        <ele>84.487122</ele>
        <time>2014-07-27T10:46:51Z</time>
      </trkpt>
      <trkpt lat="49.3256" lon="1.00355">
        <ele>84.391441</ele>
        <time>2014-07-27T10:46:55Z</time>
      </trkpt>
      <trkpt lat="49.32573" lon="1.00328">
        <ele>84.671623</ele>
        <time>2014-07-27T10:47:00Z</time>
      </trkpt>
      <trkpt lat="49.32585" lon="1.0031">
        <ele>83.733002</ele>
        <time>2014-07-27T10:47:04Z</time>
      </trkpt>
      <trkpt lat="49.32598" lon="1.003">
        <ele>82.176125</ele>
        <time>2014-07-27T10:47:07Z</time>
      </trkpt>
      <trkpt lat="49.32613" lon="1.00303">
        <ele>82.547134</ele>
        <time>2014-07-27T10:47:10Z</time>
      </trkpt>
      <trkpt lat="49.32625" lon="1.0032">
        <ele>87.952278</ele>
        <time>2014-07-27T10:47:13Z</time>
      </trkpt>
      <trkpt lat="49.32638" lon="1.00335">
        <ele>90.087502</ele>
        <time>2014-07-27T10:47:16Z</time>
      </trkpt>
      <trkpt lat="49.32653" lon="1.00348">
        <ele>90.904022</ele>
        <time>2014-07-27T10:47:19Z</time>
      </trkpt>
      <trkpt lat="49.3267" lon="1.00358">
        <ele>91.397697</ele>
        <time>2014-07-27T10:47:23Z</time>
      </trkpt>
      <trkpt lat="49.32685" lon="1.0036">
        <ele>91.087502</ele>
        <time>2014-07-27T10:47:26Z</time>
      </trkpt>
      <trkpt lat="49.327" lon="1.00358">
        <ele>90.720001</ele>
        <time>2014-07-27T10:47:29Z</time>
      </trkpt>
      <trkpt lat="49.32715" lon="1.00353">
        <ele>89.910004</ele>
        <time>2014-07-27T10:47:32Z</time>
      </trkpt>
      <trkpt lat="49.3274" lon="1.00343">
        <ele>88.202347</ele>
        <time>2014-07-27T10:47:37Z</time>
      </trkpt>
      <trkpt lat="49.32758" lon="1.00343">
        <ele>88.174088</ele>
        <time>2014-07-27T10:47:41Z</time>
      </trkpt>
      <trkpt lat="49.32773" lon="1.00343">
        <ele>88.149872</ele>
        <time>2014-07-27T10:47:44Z</time>
      </trkpt>
      <trkpt lat="49.3279" lon="1.00345">
        <ele>87.837013</ele>
        <time>2014-07-27T10:47:48Z</time>
      </trkpt>
      <trkpt lat="49.32805" lon="1.00348">
        <ele>87.768372</ele>
        <time>2014-07-27T10:47:51Z</time>
      </trkpt>
      <trkpt lat="49.32828" lon="1.00353">
        <ele>87.264252</ele>
        <time>2014-07-27T10:47:56Z</time>
      </trkpt>
      <trkpt lat="49.32845" lon="1.00363">
        <ele>87.454376</ele>
        <time>2014-07-27T10:48:00Z</time>
      </trkpt>
      <trkpt lat="49.3286" lon="1.00375">
        <ele>88.371246</ele>
        <time>2014-07-27T10:48:03Z</time>
      </trkpt>
      <trkpt lat="49.32873" lon="1.00385">
        <ele>88.144501</ele>
        <time>2014-07-27T10:48:06Z</time>
      </trkpt>
      <trkpt lat="49.32885" lon="1.004">
        <ele>88.400925</ele>
        <time>2014-07-27T10:48:09Z</time>
      </trkpt>
      <trkpt lat="49.32895" lon="1.00418">
        <ele>89.575531</ele>
        <time>2014-07-27T10:48:12Z</time>
      </trkpt>
      <trkpt lat="49.32905" lon="1.00435">
        <ele>90.698547</ele>
        <time>2014-07-27T10:48:15Z</time>
      </trkpt>
      <trkpt lat="49.32913" lon="1.00455">
        <ele>92.251923</ele>
        <time>2014-07-27T10:48:18Z</time>
      </trkpt>
      <trkpt lat="49.32918" lon="1.00478">
        <ele>93.997498</ele>
        <time>2014-07-27T10:48:21Z</time>
      </trkpt>
      <trkpt lat="49.3292" lon="1.00503">
        <ele>96.836876</ele>
        <time>2014-07-27T10:48:24Z</time>
      </trkpt>
      <trkpt lat="49.32923" lon="1.0055">
        <ele>101.947807</ele>
        <time>2014-07-27T10:48:31Z</time>
      </trkpt>
      <trkpt lat="49.32928" lon="1.0057">
        <ele>102.752502</ele>
        <time>2014-07-27T10:48:34Z</time>
      </trkpt>
      <trkpt lat="49.32933" lon="1.00595">
        <ele>104.103813</ele>
        <time>2014-07-27T10:48:38Z</time>
      </trkpt>
      <trkpt lat="49.32943" lon="1.00615">
        <ele>103.661003</ele>
        <time>2014-07-27T10:48:42Z</time>
      </trkpt>
      <trkpt lat="49.32958" lon="1.00648">
        <ele>104.442436</ele>
        <time>2014-07-27T10:48:48Z</time>
      </trkpt>
      <trkpt lat="49.3297" lon="1.00663">
        <ele>103.775696</ele>
        <time>2014-07-27T10:48:51Z</time>
      </trkpt>
      <trkpt lat="49.3298" lon="1.0068">
        <ele>103.671097</ele>
        <time>2014-07-27T10:48:54Z</time>
      </trkpt>
      <trkpt lat="49.32993" lon="1.00695">
        <ele>103.090401</ele>
        <time>2014-07-27T10:48:57Z</time>
      </trkpt>
      <trkpt lat="49.33005" lon="1.00708">
        <ele>102.513832</ele>
        <time>2014-07-27T10:49:00Z</time>
      </trkpt>
      <trkpt lat="49.33023" lon="1.00723">
        <ele>100.694733</ele>
        <time>2014-07-27T10:49:04Z</time>
      </trkpt>
      <trkpt lat="49.33033" lon="1.00738">
        <ele>101.031059</ele>
        <time>2014-07-27T10:49:07Z</time>
      </trkpt>
      <trkpt lat="49.33038" lon="1.00758">
        <ele>103.267502</ele>
        <time>2014-07-27T10:49:10Z</time>
      </trkpt>
      <trkpt lat="49.33045" lon="1.00775">
        <ele>104.689522</ele>
        <time>2014-07-27T10:49:13Z</time>
      </trkpt>
      <trkpt lat="49.33053" lon="1.00795">
        <ele>106.916878</ele>
        <time>2014-07-27T10:49:16Z</time>
      </trkpt>
      <trkpt lat="49.33073" lon="1.0085">
        <ele>108.773598</ele>
        <time>2014-07-27T10:49:25Z</time>
      </trkpt>
      <trkpt lat="49.33078" lon="1.00873">
        <ele>109.709656</ele>
        <time>2014-07-27T10:49:28Z</time>
      </trkpt>
      <trkpt lat="49.33085" lon="1.00903">
        <ele>111.487282</ele>
        <time>2014-07-27T10:49:33Z</time>
      </trkpt>
      <trkpt lat="49.33095" lon="1.00918">
        <ele>111.828529</ele>
        <time>2014-07-27T10:49:37Z</time>
      </trkpt>
      <trkpt lat="49.33103" lon="1.00938">
        <ele>113.455627</ele>
        <time>2014-07-27T10:49:42Z</time>
      </trkpt>
      <trkpt lat="49.33113" lon="1.00955">
        <ele>114.43734</ele>
        <time>2014-07-27T10:49:48Z</time>
      </trkpt>
      <trkpt lat="49.33118" lon="1.00975">
        <ele>115.772415</ele>
        <time>2014-07-27T10:49:56Z</time>
      </trkpt>
      <trkpt lat="49.3313" lon="1.00988">
        <ele>116.000565</ele>
        <time>2014-07-27T10:50:04Z</time>
      </trkpt>
      <trkpt lat="49.3315" lon="1.00993">
        <ele>115.902504</ele>
        <time>2014-07-27T10:53:47Z</time>
      </trkpt>
      <trkpt lat="49.33163" lon="1.01003">
        <ele>116.766685</ele>
        <time>2014-07-27T10:53:53Z</time>
      </trkpt>
      <trkpt lat="49.33175" lon="1.01018">
        <ele>118.316246</ele>
        <time>2014-07-27T10:54:00Z</time>
      </trkpt>
      <trkpt lat="49.33185" lon="1.01035">
        <ele>120.230324</ele>
        <time>2014-07-27T10:54:07Z</time>
      </trkpt>
      <trkpt lat="49.33193" lon="1.01055">
        <ele>122.504898</ele>
        <time>2014-07-27T10:54:13Z</time>
      </trkpt>
      <trkpt lat="49.33198" lon="1.01075">
        <ele>123.788971</ele>
        <time>2014-07-27T10:54:19Z</time>
      </trkpt>
      <trkpt lat="49.33208" lon="1.01095">
        <ele>124.699997</ele>
        <time>2014-07-27T10:54:25Z</time>
      </trkpt>
      <trkpt lat="49.3321" lon="1.01118">
        <ele>125.532394</ele>
        <time>2014-07-27T10:54:30Z</time>
      </trkpt>
      <trkpt lat="49.33218" lon="1.01138">
        <ele>126.175789</ele>
        <time>2014-07-27T10:54:36Z</time>
      </trkpt>
      <trkpt lat="49.33225" lon="1.01155">
        <ele>126.673828</ele>
        <time>2014-07-27T10:54:40Z</time>
      </trkpt>
      <trkpt lat="49.3323" lon="1.01175">
        <ele>127.295212</ele>
        <time>2014-07-27T10:54:44Z</time>
      </trkpt>
      <trkpt lat="49.3324" lon="1.0119">
        <ele>127.748749</ele>
        <time>2014-07-27T10:54:50Z</time>
      </trkpt>
      <trkpt lat="49.33255" lon="1.0118">
        <ele>127.46875</ele>
        <time>2014-07-27T10:54:55Z</time>
      </trkpt>
      <trkpt lat="49.33268" lon="1.01168">
        <ele>127.114998</ele>
        <time>2014-07-27T10:54:59Z</time>
      </trkpt>
      <trkpt lat="49.33278" lon="1.0115">
        <ele>126.613747</ele>
        <time>2014-07-27T10:55:04Z</time>
      </trkpt>
      <trkpt lat="49.33283" lon="1.01128">
        <ele>125.968689</ele>
        <time>2014-07-27T10:55:09Z</time>
      </trkpt>
      <trkpt lat="49.33298" lon="1.01128">
        <ele>125.986877</ele>
        <time>2014-07-27T10:55:15Z</time>
      </trkpt>
      <trkpt lat="49.33313" lon="1.01135">
        <ele>126.202499</ele>
        <time>2014-07-27T10:55:20Z</time>
      </trkpt>
      <trkpt lat="49.33328" lon="1.01135">
        <ele>126.379997</ele>
        <time>2014-07-27T10:55:24Z</time>
      </trkpt>
      <trkpt lat="49.33343" lon="1.01138">
        <ele>126.793747</ele>
        <time>2014-07-27T10:55:28Z</time>
      </trkpt>
      <trkpt lat="49.33358" lon="1.01143">
        <ele>127.285004</ele>
        <time>2014-07-27T10:55:31Z</time>
      </trkpt>
      <trkpt lat="49.33373" lon="1.01155">
        <ele>128.017197</ele>
        <time>2014-07-27T10:55:34Z</time>
      </trkpt>
      <trkpt lat="49.33388" lon="1.01168">
        <ele>128.594543</ele>
        <time>2014-07-27T10:55:37Z</time>
      </trkpt>
      <trkpt lat="49.33398" lon="1.01185">
        <ele>128.919159</ele>
        <time>2014-07-27T10:55:40Z</time>
      </trkpt>
      <trkpt lat="49.33405" lon="1.01205">
        <ele>129</ele>
        <time>2014-07-27T10:55:43Z</time>
      </trkpt>
      <trkpt lat="49.3341" lon="1.01225">
        <ele>129</ele>
        <time>2014-07-27T10:55:46Z</time>
      </trkpt>
      <trkpt lat="49.33418" lon="1.01245">
        <ele>129</ele>
        <time>2014-07-27T10:55:49Z</time>
      </trkpt>
      <trkpt lat="49.33425" lon="1.01263">
        <ele>129</ele>
        <time>2014-07-27T10:55:52Z</time>
      </trkpt>
      <trkpt lat="49.33433" lon="1.01283">
        <ele>129.292496</ele>
        <time>2014-07-27T10:55:56Z</time>
      </trkpt>
      <trkpt lat="49.33448" lon="1.01288">
        <ele>129.370621</ele>
        <time>2014-07-27T10:56:01Z</time>
      </trkpt>
      <trkpt lat="49.3346" lon="1.013">
        <ele>129.590103</ele>
        <time>2014-07-27T10:56:07Z</time>
      </trkpt>
      <trkpt lat="49.33473" lon="1.0129">
        <ele>129.623474</ele>
        <time>2014-07-27T10:56:15Z</time>
      </trkpt>
      <trkpt lat="49.3348" lon="1.01273">
        <ele>129.603073</ele>
        <time>2014-07-27T10:56:19Z</time>
      </trkpt>
      <trkpt lat="49.33485" lon="1.0125">
        <ele>129.639999</ele>
        <time>2014-07-27T10:56:25Z</time>
      </trkpt>
      <trkpt lat="49.33488" lon="1.01228">
        <ele>129.705002</ele>
        <time>2014-07-27T10:56:35Z</time>
      </trkpt>
      <trkpt lat="49.335" lon="1.01215">
        <ele>129.985001</ele>
        <time>2014-07-27T10:58:18Z</time>
      </trkpt>
      <trkpt lat="49.33515" lon="1.01218">
        <ele>130</ele>
        <time>2014-07-27T10:58:49Z</time>
      </trkpt>
      <trkpt lat="49.3353" lon="1.0123">
        <ele>130</ele>
        <time>2014-07-27T10:59:35Z</time>
      </trkpt>
      <trkpt lat="49.33543" lon="1.0124">
        <ele>130</ele>
        <time>2014-07-27T10:59:39Z</time>
      </trkpt>
      <trkpt lat="49.3356" lon="1.01253">
        <ele>130</ele>
        <time>2014-07-27T10:59:43Z</time>
      </trkpt>
      <trkpt lat="49.33618" lon="1.0129">
        <ele>130</ele>
        <time>2014-07-27T10:59:56Z</time>
      </trkpt>
      <trkpt lat="49.33648" lon="1.0131">
        <ele>129.810577</ele>
        <time>2014-07-27T11:00:02Z</time>
      </trkpt>
      <trkpt lat="49.33663" lon="1.01318">
        <ele>129.489685</ele>
        <time>2014-07-27T11:00:05Z</time>
      </trkpt>
      <trkpt lat="49.33678" lon="1.01323">
        <ele>129.120712</ele>
        <time>2014-07-27T11:00:08Z</time>
      </trkpt>
      <trkpt lat="49.33693" lon="1.01325">
        <ele>128.998047</ele>
        <time>2014-07-27T11:00:11Z</time>
      </trkpt>
      <trkpt lat="49.3371" lon="1.01335">
        <ele>128.8992</ele>
        <time>2014-07-27T11:00:14Z</time>
      </trkpt>
      <trkpt lat="49.33728" lon="1.01345">
        <ele>128.688126</ele>
        <time>2014-07-27T11:00:17Z</time>
      </trkpt>
      <trkpt lat="49.33753" lon="1.0136">
        <ele>128.460632</ele>
        <time>2014-07-27T11:00:22Z</time>
      </trkpt>
      <trkpt lat="49.33768" lon="1.01365">
        <ele>128.381882</ele>
        <time>2014-07-27T11:00:25Z</time>
      </trkpt>
      <trkpt lat="49.3378" lon="1.01355">
        <ele>128.522507</ele>
        <time>2014-07-27T11:00:28Z</time>
      </trkpt>
      <trkpt lat="49.33775" lon="1.01335">
        <ele>128.815628</ele>
        <time>2014-07-27T11:00:31Z</time>
      </trkpt>
      <trkpt lat="49.33768" lon="1.013">
        <ele>129.327499</ele>
        <time>2014-07-27T11:00:36Z</time>
      </trkpt>
      <trkpt lat="49.33773" lon="1.01278">
        <ele>129.653122</ele>
        <time>2014-07-27T11:01:27Z</time>
      </trkpt>
      <trkpt lat="49.33773" lon="1.01253">
        <ele>130.016251</ele>
        <time>2014-07-27T11:01:31Z</time>
      </trkpt>
      <trkpt lat="49.3377" lon="1.01228">
        <ele>130.381256</ele>
        <time>2014-07-27T11:01:35Z</time>
      </trkpt>
      <trkpt lat="49.33765" lon="1.01203">
        <ele>130.746872</ele>
        <time>2014-07-27T11:01:39Z</time>
      </trkpt>
      <trkpt lat="49.33755" lon="1.01158">
        <ele>131</ele>
        <time>2014-07-27T11:01:45Z</time>
      </trkpt>
      <trkpt lat="49.33743" lon="1.0111">
        <ele>131.04126</ele>
        <time>2014-07-27T11:01:51Z</time>
      </trkpt>
      <trkpt lat="49.33738" lon="1.01088">
        <ele>131.128998</ele>
        <time>2014-07-27T11:01:54Z</time>
      </trkpt>
      <trkpt lat="49.33723" lon="1.01023">
        <ele>131.374908</ele>
        <time>2014-07-27T11:02:02Z</time>
      </trkpt>
      <trkpt lat="49.33708" lon="1.00945">
        <ele>131.669998</ele>
        <time>2014-07-27T11:02:11Z</time>
      </trkpt>
      <trkpt lat="49.33705" lon="1.00923">
        <ele>131.619995</ele>
        <time>2014-07-27T11:02:14Z</time>
      </trkpt>
      <trkpt lat="49.33703" lon="1.009">
        <ele>131.570007</ele>
        <time>2014-07-27T11:02:17Z</time>
      </trkpt>
      <trkpt lat="49.337" lon="1.0086">
        <ele>131.524994</ele>
        <time>2014-07-27T11:02:22Z</time>
      </trkpt>
      <trkpt lat="49.33698" lon="1.00825">
        <ele>131.211868</ele>
        <time>2014-07-27T11:02:26Z</time>
      </trkpt>
      <trkpt lat="49.33698" lon="1.00795">
        <ele>130.785629</ele>
        <time>2014-07-27T11:02:29Z</time>
      </trkpt>
      <trkpt lat="49.33698" lon="1.0076">
        <ele>130.490005</ele>
        <time>2014-07-27T11:02:33Z</time>
      </trkpt>
      <trkpt lat="49.33698" lon="1.00733">
        <ele>130.5</ele>
        <time>2014-07-27T11:02:36Z</time>
      </trkpt>
      <trkpt lat="49.337" lon="1.00705">
        <ele>130.559998</ele>
        <time>2014-07-27T11:02:39Z</time>
      </trkpt>
      <trkpt lat="49.33703" lon="1.0068">
        <ele>130.625</ele>
        <time>2014-07-27T11:02:42Z</time>
      </trkpt>
      <trkpt lat="49.33705" lon="1.00655">
        <ele>130.684998</ele>
        <time>2014-07-27T11:02:46Z</time>
      </trkpt>
      <trkpt lat="49.3371" lon="1.00635">
        <ele>130.804382</ele>
        <time>2014-07-27T11:02:51Z</time>
      </trkpt>
      <trkpt lat="49.33708" lon="1.00608">
        <ele>130.855774</ele>
        <time>2014-07-27T11:03:08Z</time>
      </trkpt>
      <trkpt lat="49.3371" lon="1.00583">
        <ele>130.960342</ele>
        <time>2014-07-27T11:03:12Z</time>
      </trkpt>
      <trkpt lat="49.33715" lon="1.00535">
        <ele>131.444122</ele>
        <time>2014-07-27T11:03:18Z</time>
      </trkpt>
      <trkpt lat="49.33715" lon="1.00508">
        <ele>131.826874</ele>
        <time>2014-07-27T11:03:21Z</time>
      </trkpt>
      <trkpt lat="49.33715" lon="1.00473">
        <ele>131.969193</ele>
        <time>2014-07-27T11:03:25Z</time>
      </trkpt>
      <trkpt lat="49.33713" lon="1.00448">
        <ele>131.976135</ele>
        <time>2014-07-27T11:03:28Z</time>
      </trkpt>
      <trkpt lat="49.3371" lon="1.00425">
        <ele>132.065735</ele>
        <time>2014-07-27T11:03:31Z</time>
      </trkpt>
      <trkpt lat="49.33703" lon="1.00403">
        <ele>132.280746</ele>
        <time>2014-07-27T11:03:34Z</time>
      </trkpt>
      <trkpt lat="49.33695" lon="1.0038">
        <ele>132.390549</ele>
        <time>2014-07-27T11:03:37Z</time>
      </trkpt>
      <trkpt lat="49.33683" lon="1.00358">
        <ele>132.255005</ele>
        <time>2014-07-27T11:03:40Z</time>
      </trkpt>
      <trkpt lat="49.33673" lon="1.00335">
        <ele>132.039993</ele>
        <time>2014-07-27T11:03:43Z</time>
      </trkpt>
      <trkpt lat="49.33655" lon="1.00303">
        <ele>131.660004</ele>
        <time>2014-07-27T11:03:47Z</time>
      </trkpt>
      <trkpt lat="49.33645" lon="1.00278">
        <ele>131.301758</ele>
        <time>2014-07-27T11:03:50Z</time>
      </trkpt>
      <trkpt lat="49.3364" lon="1.0025">
        <ele>130.911835</ele>
        <time>2014-07-27T11:03:53Z</time>
      </trkpt>
      <trkpt lat="49.33643" lon="1.0022">
        <ele>130.850632</ele>
        <time>2014-07-27T11:03:56Z</time>
      </trkpt>
      <trkpt lat="49.33648" lon="1.002">
        <ele>131.210968</ele>
        <time>2014-07-27T11:04:01Z</time>
      </trkpt>
      <trkpt lat="49.33653" lon="1.00178">
        <ele>131.52504</ele>
        <time>2014-07-27T11:04:06Z</time>
      </trkpt>
      <trkpt lat="49.3366" lon="1.0016">
        <ele>131.795364</ele>
        <time>2014-07-27T11:04:10Z</time>
      </trkpt>
      <trkpt lat="49.33665" lon="1.0014">
        <ele>132.159378</ele>
        <time>2014-07-27T11:04:14Z</time>
      </trkpt>
      <trkpt lat="49.33673" lon="1.0012">
        <ele>132.667389</ele>
        <time>2014-07-27T11:04:18Z</time>
      </trkpt>
      <trkpt lat="49.33683" lon="1.00093">
        <ele>133.273529</ele>
        <time>2014-07-27T11:04:23Z</time>
      </trkpt>
      <trkpt lat="49.33688" lon="1.00073">
        <ele>133.653122</ele>
        <time>2014-07-27T11:04:27Z</time>
      </trkpt>
      <trkpt lat="49.33693" lon="1.0005">
        <ele>134.093124</ele>
        <time>2014-07-27T11:04:32Z</time>
      </trkpt>
      <trkpt lat="49.33698" lon="1.00028">
        <ele>134.538757</ele>
        <time>2014-07-27T11:04:37Z</time>
      </trkpt>
      <trkpt lat="49.33705" lon="1">
        <ele>135.105621</ele>
        <time>2014-07-27T11:04:43Z</time>
      </trkpt>
      <trkpt lat="49.33705" lon="0.99975">
        <ele>135.47937</ele>
        <time>2014-07-27T11:04:48Z</time>
      </trkpt>
      <trkpt lat="49.33705" lon="0.9995">
        <ele>135.848129</ele>
        <time>2014-07-27T11:04:53Z</time>
      </trkpt>
      <trkpt lat="49.33698" lon="0.9993">
        <ele>135.695007</ele>
        <time>2014-07-27T11:04:58Z</time>
      </trkpt>
      <trkpt lat="49.3369" lon="0.9991">
        <ele>135.535004</ele>
        <time>2014-07-27T11:05:02Z</time>
      </trkpt>
      <trkpt lat="49.3368" lon="0.99888">
        <ele>135.320007</ele>
        <time>2014-07-27T11:05:06Z</time>
      </trkpt>
      <trkpt lat="49.33685" lon="0.99865">
        <ele>135.434998</ele>
        <time>2014-07-27T11:05:11Z</time>
      </trkpt>
      <trkpt lat="49.33698" lon="0.99855">
        <ele>135.714996</ele>
        <time>2014-07-27T11:05:56Z</time>
      </trkpt>
      <trkpt lat="49.33705" lon="0.99833">
        <ele>135.889999</ele>
        <time>2014-07-27T11:06:04Z</time>
      </trkpt>
      <trkpt lat="49.3371" lon="0.99813">
        <ele>136</ele>
        <time>2014-07-27T11:06:08Z</time>
      </trkpt>
      <trkpt lat="49.33713" lon="0.9979">
        <ele>136.020309</ele>
        <time>2014-07-27T11:06:13Z</time>
      </trkpt>
      <trkpt lat="49.33715" lon="0.99768">
        <ele>136.079849</ele>
        <time>2014-07-27T11:06:19Z</time>
      </trkpt>
      <trkpt lat="49.33715" lon="0.99745">
        <ele>136.12561</ele>
        <time>2014-07-27T11:06:25Z</time>
      </trkpt>
      <trkpt lat="49.33713" lon="0.99723">
        <ele>136.056458</ele>
        <time>2014-07-27T11:06:31Z</time>
      </trkpt>
      <trkpt lat="49.3371" lon="0.997">
        <ele>136.011322</ele>
        <time>2014-07-27T11:07:16Z</time>
      </trkpt>
      <trkpt lat="49.33725" lon="0.99688">
        <ele>136.074463</ele>
        <time>2014-07-27T11:07:24Z</time>
      </trkpt>
      <trkpt lat="49.3374" lon="0.99685">
        <ele>136.120285</ele>
        <time>2014-07-27T11:07:27Z</time>
      </trkpt>
      <trkpt lat="49.3376" lon="0.99678">
        <ele>136.208435</ele>
        <time>2014-07-27T11:07:31Z</time>
      </trkpt>
      <trkpt lat="49.3377" lon="0.9966">
        <ele>136.380005</ele>
        <time>2014-07-27T11:07:34Z</time>
      </trkpt>
      <trkpt lat="49.33778" lon="0.99638">
        <ele>136.550003</ele>
        <time>2014-07-27T11:07:37Z</time>
      </trkpt>
      <trkpt lat="49.33778" lon="0.9961">
        <ele>136.554993</ele>
        <time>2014-07-27T11:07:41Z</time>
      </trkpt>
      <trkpt lat="49.33778" lon="0.99588">
        <ele>136.559998</ele>
        <time>2014-07-27T11:07:44Z</time>
      </trkpt>
      <trkpt lat="49.33785" lon="0.99558">
        <ele>136.735001</ele>
        <time>2014-07-27T11:07:49Z</time>
      </trkpt>
      <trkpt lat="49.33785" lon="0.99533">
        <ele>136.744995</ele>
        <time>2014-07-27T11:07:53Z</time>
      </trkpt>
      <trkpt lat="49.33788" lon="0.9951">
        <ele>136.804993</ele>
        <time>2014-07-27T11:07:57Z</time>
      </trkpt>
      <trkpt lat="49.3379" lon="0.99488">
        <ele>136.865005</ele>
        <time>2014-07-27T11:08:00Z</time>
      </trkpt>
      <trkpt lat="49.33793" lon="0.99458">
        <ele>136.929993</ele>
        <time>2014-07-27T11:08:03Z</time>
      </trkpt>
      <trkpt lat="49.33795" lon="0.99435">
        <ele>136.990005</ele>
        <time>2014-07-27T11:08:06Z</time>
      </trkpt>
      <trkpt lat="49.3379" lon="0.99413">
        <ele>136.884995</ele>
        <time>2014-07-27T11:08:09Z</time>
      </trkpt>
      <trkpt lat="49.33793" lon="0.99388">
        <ele>136.945007</ele>
        <time>2014-07-27T11:08:13Z</time>
      </trkpt>
      <trkpt lat="49.33795" lon="0.99365">
        <ele>137.005005</ele>
        <time>2014-07-27T11:08:17Z</time>
      </trkpt>
      <trkpt lat="49.33803" lon="0.99335">
        <ele>137.179993</ele>
        <time>2014-07-27T11:08:22Z</time>
      </trkpt>
      <trkpt lat="49.338" lon="0.99313">
        <ele>137.32576</ele>
        <time>2014-07-27T11:08:25Z</time>
      </trkpt>
      <trkpt lat="49.33793" lon="0.99288">
        <ele>137.543518</ele>
        <time>2014-07-27T11:08:29Z</time>
      </trkpt>
      <trkpt lat="49.33793" lon="0.99263">
        <ele>137.906128</ele>
        <time>2014-07-27T11:08:33Z</time>
      </trkpt>
      <trkpt lat="49.33793" lon="0.9924">
        <ele>137.691742</ele>
        <time>2014-07-27T11:08:38Z</time>
      </trkpt>
      <trkpt lat="49.33793" lon="0.99218">
        <ele>137.376099</ele>
        <time>2014-07-27T11:08:43Z</time>
      </trkpt>
      <trkpt lat="49.33805" lon="0.99203">
        <ele>137.399124</ele>
        <time>2014-07-27T11:08:50Z</time>
      </trkpt>
      <trkpt lat="49.33813" lon="0.99185">
        <ele>137.397995</ele>
        <time>2014-07-27T11:08:54Z</time>
      </trkpt>
      <trkpt lat="49.33815" lon="0.99163">
        <ele>137.306381</ele>
        <time>2014-07-27T11:08:58Z</time>
      </trkpt>
      <trkpt lat="49.33818" lon="0.9914">
        <ele>137.248535</ele>
        <time>2014-07-27T11:09:03Z</time>
      </trkpt>
      <trkpt lat="49.33813" lon="0.99115">
        <ele>136.826874</ele>
        <time>2014-07-27T11:09:07Z</time>
      </trkpt>
      <trkpt lat="49.3381" lon="0.99093">
        <ele>136.398743</ele>
        <time>2014-07-27T11:09:11Z</time>
      </trkpt>
      <trkpt lat="49.33813" lon="0.9907">
        <ele>136.192505</ele>
        <time>2014-07-27T11:09:16Z</time>
      </trkpt>
      <trkpt lat="49.33805" lon="0.99053">
        <ele>135.618454</ele>
        <time>2014-07-27T11:09:21Z</time>
      </trkpt>
      <trkpt lat="49.33798" lon="0.99035">
        <ele>135.251938</ele>
        <time>2014-07-27T11:09:25Z</time>
      </trkpt>
      <trkpt lat="49.33795" lon="0.99013">
        <ele>135.133896</ele>
        <time>2014-07-27T11:09:30Z</time>
      </trkpt>
      <trkpt lat="49.33785" lon="0.98998">
        <ele>134.875</ele>
        <time>2014-07-27T11:09:34Z</time>
      </trkpt>
      <trkpt lat="49.33778" lon="0.98978">
        <ele>134.639038</ele>
        <time>2014-07-27T11:09:39Z</time>
      </trkpt>
      <trkpt lat="49.33775" lon="0.98953">
        <ele>134.351624</ele>
        <time>2014-07-27T11:16:33Z</time>
      </trkpt>
      <trkpt lat="49.33778" lon="0.98928">
        <ele>134.120529</ele>
        <time>2014-07-27T11:16:39Z</time>
      </trkpt>
      <trkpt lat="49.3377" lon="0.98908">
        <ele>134</ele>
        <time>2014-07-27T11:16:44Z</time>
      </trkpt>
      <trkpt lat="49.3376" lon="0.9889">
        <ele>134</ele>
        <time>2014-07-27T11:16:48Z</time>
      </trkpt>
      <trkpt lat="49.33748" lon="0.9888">
        <ele>134</ele>
        <time>2014-07-27T11:16:53Z</time>
      </trkpt>
      <trkpt lat="49.33743" lon="0.9886">
        <ele>133.964996</ele>
        <time>2014-07-27T11:16:56Z</time>
      </trkpt>
      <trkpt lat="49.33733" lon="0.98838">
        <ele>133.589996</ele>
        <time>2014-07-27T11:17:00Z</time>
      </trkpt>
      <trkpt lat="49.33725" lon="0.98818">
        <ele>133.131256</ele>
        <time>2014-07-27T11:17:04Z</time>
      </trkpt>
      <trkpt lat="49.33715" lon="0.98793">
        <ele>132.548752</ele>
        <time>2014-07-27T11:17:09Z</time>
      </trkpt>
      <trkpt lat="49.33713" lon="0.9877">
        <ele>132.170624</ele>
        <time>2014-07-27T11:17:13Z</time>
      </trkpt>
      <trkpt lat="49.33708" lon="0.98748">
        <ele>131.736252</ele>
        <time>2014-07-27T11:17:18Z</time>
      </trkpt>
      <trkpt lat="49.33705" lon="0.98725">
        <ele>131.358124</ele>
        <time>2014-07-27T11:17:22Z</time>
      </trkpt>
      <trkpt lat="49.33695" lon="0.98708">
        <ele>130.799515</ele>
        <time>2014-07-27T11:17:25Z</time>
      </trkpt>
      <trkpt lat="49.33685" lon="0.98688">
        <ele>129.8228</ele>
        <time>2014-07-27T11:17:28Z</time>
      </trkpt>
      <trkpt lat="49.33685" lon="0.98663">
        <ele>128.636963</ele>
        <time>2014-07-27T11:17:31Z</time>
      </trkpt>
      <trkpt lat="49.33683" lon="0.98638">
        <ele>127.249222</ele>
        <time>2014-07-27T11:17:34Z</time>
      </trkpt>
      <trkpt lat="49.33678" lon="0.98618">
        <ele>125.574623</ele>
        <time>2014-07-27T11:17:37Z</time>
      </trkpt>
      <trkpt lat="49.33673" lon="0.98595">
        <ele>123.513268</ele>
        <time>2014-07-27T11:17:41Z</time>
      </trkpt>
      <trkpt lat="49.3366" lon="0.9858">
        <ele>121.227997</ele>
        <time>2014-07-27T11:17:46Z</time>
      </trkpt>
      <trkpt lat="49.33653" lon="0.9856">
        <ele>118.810509</ele>
        <time>2014-07-27T11:17:50Z</time>
      </trkpt>
      <trkpt lat="49.33653" lon="0.98538">
        <ele>116.922447</ele>
        <time>2014-07-27T11:17:57Z</time>
      </trkpt>
      <trkpt lat="49.3364" lon="0.98525">
        <ele>115.67411</ele>
        <time>2014-07-27T11:18:02Z</time>
      </trkpt>
      <trkpt lat="49.33635" lon="0.98498">
        <ele>113.278648</ele>
        <time>2014-07-27T11:18:06Z</time>
      </trkpt>
      <trkpt lat="49.33635" lon="0.9847">
        <ele>111.295235</ele>
        <time>2014-07-27T11:18:09Z</time>
      </trkpt>
      <trkpt lat="49.33635" lon="0.98448">
        <ele>109.693497</ele>
        <time>2014-07-27T11:18:11Z</time>
      </trkpt>
      <trkpt lat="49.33633" lon="0.98423">
        <ele>109.543121</ele>
        <time>2014-07-27T11:18:14Z</time>
      </trkpt>
      <trkpt lat="49.33623" lon="0.98408">
        <ele>108.268364</ele>
        <time>2014-07-27T11:18:16Z</time>
      </trkpt>
      <trkpt lat="49.3361" lon="0.98398">
        <ele>105.72538</ele>
        <time>2014-07-27T11:18:18Z</time>
      </trkpt>
      <trkpt lat="49.3357" lon="0.98365">
        <ele>98.641251</ele>
        <time>2014-07-27T11:18:25Z</time>
      </trkpt>
      <trkpt lat="49.33555" lon="0.98358">
        <ele>96.982903</ele>
        <time>2014-07-27T11:18:30Z</time>
      </trkpt>
      <trkpt lat="49.33543" lon="0.98345">
        <ele>96.804001</ele>
        <time>2014-07-27T11:18:34Z</time>
      </trkpt>
      <trkpt lat="49.33533" lon="0.9833">
        <ele>96.427811</ele>
        <time>2014-07-27T11:18:37Z</time>
      </trkpt>
      <trkpt lat="49.33515" lon="0.98318">
        <ele>94.239578</ele>
        <time>2014-07-27T11:18:40Z</time>
      </trkpt>
      <trkpt lat="49.33483" lon="0.98295">
        <ele>90.028748</ele>
        <time>2014-07-27T11:18:45Z</time>
      </trkpt>
      <trkpt lat="49.33465" lon="0.98285">
        <ele>88.608971</ele>
        <time>2014-07-27T11:18:48Z</time>
      </trkpt>
      <trkpt lat="49.33443" lon="0.98278">
        <ele>86.700653</ele>
        <time>2014-07-27T11:18:51Z</time>
      </trkpt>
      <trkpt lat="49.33423" lon="0.9827">
        <ele>84.616051</ele>
        <time>2014-07-27T11:18:54Z</time>
      </trkpt>
      <trkpt lat="49.33403" lon="0.9826">
        <ele>82.479149</ele>
        <time>2014-07-27T11:18:57Z</time>
      </trkpt>
      <trkpt lat="49.33383" lon="0.98253">
        <ele>79.368904</ele>
        <time>2014-07-27T11:19:00Z</time>
      </trkpt>
      <trkpt lat="49.33363" lon="0.98248">
        <ele>76.922066</ele>
        <time>2014-07-27T11:19:04Z</time>
      </trkpt>
      <trkpt lat="49.33348" lon="0.98248">
        <ele>75.474747</ele>
        <time>2014-07-27T11:19:08Z</time>
      </trkpt>
      <trkpt lat="49.33363" lon="0.98245">
        <ele>76.727036</ele>
        <time>2014-07-27T11:20:30Z</time>
      </trkpt>
      <trkpt lat="49.33358" lon="0.98225">
        <ele>75.608765</ele>
        <time>2014-07-27T11:22:54Z</time>
      </trkpt>
      <trkpt lat="49.33358" lon="0.982">
        <ele>75.361572</ele>
        <time>2014-07-27T11:22:58Z</time>
      </trkpt>
      <trkpt lat="49.33353" lon="0.9818">
        <ele>74.248398</ele>
        <time>2014-07-27T11:23:02Z</time>
      </trkpt>
      <trkpt lat="49.33358" lon="0.9816">
        <ele>74.607712</ele>
        <time>2014-07-27T11:23:11Z</time>
      </trkpt>
      <trkpt lat="49.33355" lon="0.98138">
        <ele>73.00515</ele>
        <time>2014-07-27T11:23:16Z</time>
      </trkpt>
      <trkpt lat="49.33355" lon="0.98105">
        <ele>71.496399</ele>
        <time>2014-07-27T11:23:23Z</time>
      </trkpt>
      <trkpt lat="49.33355" lon="0.98083">
        <ele>70.423813</ele>
        <time>2014-07-27T11:23:28Z</time>
      </trkpt>
      <trkpt lat="49.3336" lon="0.98063">
        <ele>70.86956</ele>
        <time>2014-07-27T11:23:34Z</time>
      </trkpt>
      <trkpt lat="49.33358" lon="0.98035">
        <ele>68.876503</ele>
        <time>2014-07-27T11:23:39Z</time>
      </trkpt>
      <trkpt lat="49.33353" lon="0.98013">
        <ele>66.06147</ele>
        <time>2014-07-27T11:23:43Z</time>
      </trkpt>
      <trkpt lat="49.33345" lon="0.9799">
        <ele>62.804314</ele>
        <time>2014-07-27T11:23:47Z</time>
      </trkpt>
      <trkpt lat="49.33348" lon="0.97965">
        <ele>61.952618</ele>
        <time>2014-07-27T11:23:52Z</time>
      </trkpt>
      <trkpt lat="49.33348" lon="0.9794">
        <ele>60.111752</ele>
        <time>2014-07-27T11:23:57Z</time>
      </trkpt>
      <trkpt lat="49.33353" lon="0.97918">
        <ele>59.374023</ele>
        <time>2014-07-27T11:24:04Z</time>
      </trkpt>
      <trkpt lat="49.33363" lon="0.97903">
        <ele>59.822914</ele>
        <time>2014-07-27T11:24:08Z</time>
      </trkpt>
      <trkpt lat="49.33375" lon="0.97893">
        <ele>60.94125</ele>
        <time>2014-07-27T11:24:12Z</time>
      </trkpt>
      <trkpt lat="49.33388" lon="0.97878">
        <ele>61.938751</ele>
        <time>2014-07-27T11:24:16Z</time>
      </trkpt>
      <trkpt lat="49.33395" lon="0.9786">
        <ele>61.787498</ele>
        <time>2014-07-27T11:24:20Z</time>
      </trkpt>
      <trkpt lat="49.33405" lon="0.97838">
        <ele>61.688751</ele>
        <time>2014-07-27T11:24:26Z</time>
      </trkpt>
      <trkpt lat="49.33405" lon="0.97815">
        <ele>60.720001</ele>
        <time>2014-07-27T11:24:31Z</time>
      </trkpt>
      <trkpt lat="49.33405" lon="0.9779">
        <ele>60.759998</ele>
        <time>2014-07-27T11:24:36Z</time>
      </trkpt>
      <trkpt lat="49.334" lon="0.9775">
        <ele>60.066875</ele>
        <time>2014-07-27T11:24:45Z</time>
      </trkpt>
      <trkpt lat="49.33398" lon="0.97723">
        <ele>60.067501</ele>
        <time>2014-07-27T11:24:51Z</time>
      </trkpt>
      <trkpt lat="49.33395" lon="0.977">
        <ele>59.99625</ele>
        <time>2014-07-27T11:24:55Z</time>
      </trkpt>
      <trkpt lat="49.3339" lon="0.97675">
        <ele>59.118126</ele>
        <time>2014-07-27T11:25:01Z</time>
      </trkpt>
      <trkpt lat="49.33383" lon="0.97658">
        <ele>57.581249</ele>
        <time>2014-07-27T11:25:04Z</time>
      </trkpt>
      <trkpt lat="49.33378" lon="0.97635">
        <ele>56.371876</ele>
        <time>2014-07-27T11:25:09Z</time>
      </trkpt>
      <trkpt lat="49.33375" lon="0.97613">
        <ele>55.400208</ele>
        <time>2014-07-27T11:25:13Z</time>
      </trkpt>
      <trkpt lat="49.33378" lon="0.9759">
        <ele>54.879723</ele>
        <time>2014-07-27T11:25:17Z</time>
      </trkpt>
      <trkpt lat="49.33385" lon="0.97573">
        <ele>55.327732</ele>
        <time>2014-07-27T11:25:23Z</time>
      </trkpt>
      <trkpt lat="49.334" lon="0.97573">
        <ele>57.795731</ele>
        <time>2014-07-27T11:25:40Z</time>
      </trkpt>
      <trkpt lat="49.33415" lon="0.97568">
        <ele>59.977501</ele>
        <time>2014-07-27T11:27:23Z</time>
      </trkpt>
      <trkpt lat="49.3343" lon="0.97563">
        <ele>62.173923</ele>
        <time>2014-07-27T11:27:27Z</time>
      </trkpt>
      <trkpt lat="49.33443" lon="0.9755">
        <ele>63.305</ele>
        <time>2014-07-27T11:27:33Z</time>
      </trkpt>
      <trkpt lat="49.33458" lon="0.97535">
        <ele>64.41375</ele>
        <time>2014-07-27T11:27:40Z</time>
      </trkpt>
      <trkpt lat="49.3347" lon="0.97525">
        <ele>64.963646</ele>
        <time>2014-07-27T11:27:45Z</time>
      </trkpt>
      <trkpt lat="49.33485" lon="0.97525">
        <ele>66.547874</ele>
        <time>2014-07-27T11:27:51Z</time>
      </trkpt>
      <trkpt lat="49.335" lon="0.9753">
        <ele>68.82</ele>
        <time>2014-07-27T11:27:56Z</time>
      </trkpt>
      <trkpt lat="49.33513" lon="0.97545">
        <ele>71.909714</ele>
        <time>2014-07-27T11:28:02Z</time>
      </trkpt>
      <trkpt lat="49.33528" lon="0.97548">
        <ele>72.991936</ele>
        <time>2014-07-27T11:28:06Z</time>
      </trkpt>
      <trkpt lat="49.33545" lon="0.9755">
        <ele>74.105797</ele>
        <time>2014-07-27T11:28:11Z</time>
      </trkpt>
      <trkpt lat="49.33563" lon="0.97548">
        <ele>74.644302</ele>
        <time>2014-07-27T11:28:16Z</time>
      </trkpt>
      <trkpt lat="49.33575" lon="0.9756">
        <ele>76.474503</ele>
        <time>2014-07-27T11:28:22Z</time>
      </trkpt>
      <trkpt lat="49.33593" lon="0.9757">
        <ele>78.031189</ele>
        <time>2014-07-27T11:28:28Z</time>
      </trkpt>
      <trkpt lat="49.33608" lon="0.9757">
        <ele>79.802948</ele>
        <time>2014-07-27T11:28:40Z</time>
      </trkpt>
      <trkpt lat="49.33625" lon="0.97568">
        <ele>82.033752</ele>
        <time>2014-07-27T11:30:04Z</time>
      </trkpt>
      <trkpt lat="49.33615" lon="0.97553">
        <ele>79.977219</ele>
        <time>2014-07-27T11:30:08Z</time>
      </trkpt>
      <trkpt lat="49.33618" lon="0.97528">
        <ele>80.143341</ele>
        <time>2014-07-27T11:30:16Z</time>
      </trkpt>
      <trkpt lat="49.33613" lon="0.97505">
        <ele>78.962074</ele>
        <time>2014-07-27T11:30:22Z</time>
      </trkpt>
      <trkpt lat="49.33605" lon="0.9748">
        <ele>76.567497</ele>
        <time>2014-07-27T11:30:29Z</time>
      </trkpt>
      <trkpt lat="49.33588" lon="0.97473">
        <ele>72.835098</ele>
        <time>2014-07-27T11:30:32Z</time>
      </trkpt>
      <trkpt lat="49.3357" lon="0.9746">
        <ele>71.892815</ele>
        <time>2014-07-27T11:30:35Z</time>
      </trkpt>
      <trkpt lat="49.33553" lon="0.97448">
        <ele>70.376328</ele>
        <time>2014-07-27T11:30:38Z</time>
      </trkpt>
      <trkpt lat="49.33538" lon="0.9744">
        <ele>69.004402</ele>
        <time>2014-07-27T11:30:41Z</time>
      </trkpt>
      <trkpt lat="49.3352" lon="0.97428">
        <ele>67.600273</ele>
        <time>2014-07-27T11:30:44Z</time>
      </trkpt>
      <trkpt lat="49.33508" lon="0.97415">
        <ele>66.488991</ele>
        <time>2014-07-27T11:30:47Z</time>
      </trkpt>
      <trkpt lat="49.33495" lon="0.974">
        <ele>64.665001</ele>
        <time>2014-07-27T11:30:51Z</time>
      </trkpt>
      <trkpt lat="49.3349" lon="0.9738">
        <ele>64.682503</ele>
        <time>2014-07-27T11:30:56Z</time>
      </trkpt>
      <trkpt lat="49.33475" lon="0.97375">
        <ele>61.365002</ele>
        <time>2014-07-27T11:31:05Z</time>
      </trkpt>
      <trkpt lat="49.33463" lon="0.97365">
        <ele>58.887501</ele>
        <time>2014-07-27T11:31:36Z</time>
      </trkpt>
      <trkpt lat="49.3345" lon="0.9735">
        <ele>57.366875</ele>
        <time>2014-07-27T11:31:42Z</time>
      </trkpt>
      <trkpt lat="49.33448" lon="0.97328">
        <ele>56.158516</ele>
        <time>2014-07-27T11:31:46Z</time>
      </trkpt>
      <trkpt lat="49.33438" lon="0.97308">
        <ele>53.103401</ele>
        <time>2014-07-27T11:31:51Z</time>
      </trkpt>
      <trkpt lat="49.33433" lon="0.97288">
        <ele>51.014439</ele>
        <time>2014-07-27T11:31:59Z</time>
      </trkpt>
      <trkpt lat="49.33445" lon="0.97278">
        <ele>52.35775</ele>
        <time>2014-07-27T11:32:05Z</time>
      </trkpt>
      <trkpt lat="49.33458" lon="0.97265">
        <ele>53.217201</ele>
        <time>2014-07-27T11:32:58Z</time>
      </trkpt>
      <trkpt lat="49.33473" lon="0.9725">
        <ele>55.010201</ele>
        <time>2014-07-27T11:33:03Z</time>
      </trkpt>
      <trkpt lat="49.33488" lon="0.9724">
        <ele>57.16502</ele>
        <time>2014-07-27T11:33:09Z</time>
      </trkpt>
      <trkpt lat="49.335" lon="0.97228">
        <ele>58.416718</ele>
        <time>2014-07-27T11:33:16Z</time>
      </trkpt>
      <trkpt lat="49.3351" lon="0.9721">
        <ele>58.900002</ele>
        <time>2014-07-27T11:33:22Z</time>
      </trkpt>
      <trkpt lat="49.33518" lon="0.97193">
        <ele>58.712189</ele>
        <time>2014-07-27T11:33:28Z</time>
      </trkpt>
      <trkpt lat="49.33525" lon="0.97175">
        <ele>58.653023</ele>
        <time>2014-07-27T11:33:34Z</time>
      </trkpt>
      <trkpt lat="49.33535" lon="0.97158">
        <ele>59.505562</ele>
        <time>2014-07-27T11:33:39Z</time>
      </trkpt>
      <trkpt lat="49.33543" lon="0.97135">
        <ele>59.298332</ele>
        <time>2014-07-27T11:33:44Z</time>
      </trkpt>
      <trkpt lat="49.33555" lon="0.9712">
        <ele>61.741249</ele>
        <time>2014-07-27T11:33:49Z</time>
      </trkpt>
      <trkpt lat="49.33565" lon="0.97105">
        <ele>63.390625</ele>
        <time>2014-07-27T11:33:54Z</time>
      </trkpt>
      <trkpt lat="49.33568" lon="0.9708">
        <ele>61.693123</ele>
        <time>2014-07-27T11:34:00Z</time>
      </trkpt>
      <trkpt lat="49.3357" lon="0.97058">
        <ele>60.566425</ele>
        <time>2014-07-27T11:34:04Z</time>
      </trkpt>
      <trkpt lat="49.33573" lon="0.97035">
        <ele>59.880249</ele>
        <time>2014-07-27T11:34:10Z</time>
      </trkpt>
      <trkpt lat="49.3358" lon="0.97018">
        <ele>61.30685</ele>
        <time>2014-07-27T11:34:16Z</time>
      </trkpt>
      <trkpt lat="49.33585" lon="0.96993">
        <ele>61.608124</ele>
        <time>2014-07-27T11:34:24Z</time>
      </trkpt>
      <trkpt lat="49.33585" lon="0.96968">
        <ele>59.869373</ele>
        <time>2014-07-27T11:34:29Z</time>
      </trkpt>
      <trkpt lat="49.3359" lon="0.96945">
        <ele>59.871532</ele>
        <time>2014-07-27T11:34:34Z</time>
      </trkpt>
      <trkpt lat="49.33598" lon="0.96928">
        <ele>60.723877</ele>
        <time>2014-07-27T11:34:39Z</time>
      </trkpt>
      <trkpt lat="49.33605" lon="0.96908">
        <ele>61.548042</ele>
        <time>2014-07-27T11:34:46Z</time>
      </trkpt>
      <trkpt lat="49.33608" lon="0.96885">
        <ele>60.967655</ele>
        <time>2014-07-27T11:34:50Z</time>
      </trkpt>
      <trkpt lat="49.33613" lon="0.96863">
        <ele>61.302658</ele>
        <time>2014-07-27T11:34:54Z</time>
      </trkpt>
      <trkpt lat="49.33613" lon="0.96838">
        <ele>60.648964</ele>
        <time>2014-07-27T11:34:58Z</time>
      </trkpt>
      <trkpt lat="49.33613" lon="0.96813">
        <ele>60.140926</ele>
        <time>2014-07-27T11:35:03Z</time>
      </trkpt>
      <trkpt lat="49.3361" lon="0.9679">
        <ele>58.970348</ele>
        <time>2014-07-27T11:35:06Z</time>
      </trkpt>
      <trkpt lat="49.33618" lon="0.96768">
        <ele>61.23</ele>
        <time>2014-07-27T11:35:10Z</time>
      </trkpt>
      <trkpt lat="49.3362" lon="0.9674">
        <ele>62.009998</ele>
        <time>2014-07-27T11:35:14Z</time>
      </trkpt>
      <trkpt lat="49.3362" lon="0.96713">
        <ele>62.456226</ele>
        <time>2014-07-27T11:35:18Z</time>
      </trkpt>
      <trkpt lat="49.33618" lon="0.96683">
        <ele>62.994911</ele>
        <time>2014-07-27T11:35:22Z</time>
      </trkpt>
      <trkpt lat="49.33615" lon="0.96658">
        <ele>63.293877</ele>
        <time>2014-07-27T11:35:26Z</time>
      </trkpt>
      <trkpt lat="49.3362" lon="0.96638">
        <ele>65.905602</ele>
        <time>2014-07-27T11:35:30Z</time>
      </trkpt>
      <trkpt lat="49.3362" lon="0.96615">
        <ele>67.293785</ele>
        <time>2014-07-27T11:35:35Z</time>
      </trkpt>
      <trkpt lat="49.33615" lon="0.96595">
        <ele>66.778374</ele>
        <time>2014-07-27T11:35:40Z</time>
      </trkpt>
      <trkpt lat="49.3361" lon="0.9657">
        <ele>66.803123</ele>
        <time>2014-07-27T11:35:44Z</time>
      </trkpt>
      <trkpt lat="49.33615" lon="0.9655">
        <ele>70.046875</ele>
        <time>2014-07-27T11:35:48Z</time>
      </trkpt>
      <trkpt lat="49.3362" lon="0.96525">
        <ele>73.581253</ele>
        <time>2014-07-27T11:35:53Z</time>
      </trkpt>
      <trkpt lat="49.3362" lon="0.965">
        <ele>75.134697</ele>
        <time>2014-07-27T11:35:57Z</time>
      </trkpt>
      <trkpt lat="49.3362" lon="0.96475">
        <ele>76.486176</ele>
        <time>2014-07-27T11:36:02Z</time>
      </trkpt>
      <trkpt lat="49.33623" lon="0.96453">
        <ele>78.362</ele>
        <time>2014-07-27T11:36:06Z</time>
      </trkpt>
      <trkpt lat="49.33625" lon="0.96428">
        <ele>79.521202</ele>
        <time>2014-07-27T11:36:11Z</time>
      </trkpt>
      <trkpt lat="49.3363" lon="0.96405">
        <ele>80.626801</ele>
        <time>2014-07-27T11:36:16Z</time>
      </trkpt>
      <trkpt lat="49.33635" lon="0.9638">
        <ele>81.386696</ele>
        <time>2014-07-27T11:36:23Z</time>
      </trkpt>
      <trkpt lat="49.3364" lon="0.9636">
        <ele>80.97876</ele>
        <time>2014-07-27T11:36:29Z</time>
      </trkpt>
      <trkpt lat="49.3364" lon="0.96335">
        <ele>79.088501</ele>
        <time>2014-07-27T11:36:35Z</time>
      </trkpt>
      <trkpt lat="49.33635" lon="0.96313">
        <ele>77.003426</ele>
        <time>2014-07-27T11:36:41Z</time>
      </trkpt>
      <trkpt lat="49.3365" lon="0.96305">
        <ele>77.484032</ele>
        <time>2014-07-27T11:36:50Z</time>
      </trkpt>
      <trkpt lat="49.33663" lon="0.96293">
        <ele>77.151436</ele>
        <time>2014-07-27T11:38:54Z</time>
      </trkpt>
      <trkpt lat="49.33678" lon="0.96288">
        <ele>77.447929</ele>
        <time>2014-07-27T11:38:59Z</time>
      </trkpt>
      <trkpt lat="49.33693" lon="0.96283">
        <ele>77.610001</ele>
        <time>2014-07-27T11:39:04Z</time>
      </trkpt>
      <trkpt lat="49.33708" lon="0.96283">
        <ele>78.326767</ele>
        <time>2014-07-27T11:39:09Z</time>
      </trkpt>
      <trkpt lat="49.33723" lon="0.96283">
        <ele>79.166611</ele>
        <time>2014-07-27T11:39:14Z</time>
      </trkpt>
      <trkpt lat="49.33738" lon="0.96278">
        <ele>79.358955</ele>
        <time>2014-07-27T11:39:18Z</time>
      </trkpt>
      <trkpt lat="49.33753" lon="0.96275">
        <ele>79.899452</ele>
        <time>2014-07-27T11:39:23Z</time>
      </trkpt>
      <trkpt lat="49.33768" lon="0.96268">
        <ele>79.876877</ele>
        <time>2014-07-27T11:39:28Z</time>
      </trkpt>
      <trkpt lat="49.33785" lon="0.96258">
        <ele>79.910629</ele>
        <time>2014-07-27T11:39:33Z</time>
      </trkpt>
      <trkpt lat="49.33795" lon="0.96243">
        <ele>78.472504</ele>
        <time>2014-07-27T11:39:38Z</time>
      </trkpt>
      <trkpt lat="49.33805" lon="0.96228">
        <ele>77.045105</ele>
        <time>2014-07-27T11:39:43Z</time>
      </trkpt>
      <trkpt lat="49.33818" lon="0.96213">
        <ele>76.276001</ele>
        <time>2014-07-27T11:39:48Z</time>
      </trkpt>
      <trkpt lat="49.33833" lon="0.96203">
        <ele>76.832077</ele>
        <time>2014-07-27T11:39:54Z</time>
      </trkpt>
      <trkpt lat="49.33843" lon="0.96188">
        <ele>76.172035</ele>
        <time>2014-07-27T11:40:03Z</time>
      </trkpt>
      <trkpt lat="49.3385" lon="0.96168">
        <ele>74.704704</ele>
        <time>2014-07-27T11:41:02Z</time>
      </trkpt>
      <trkpt lat="49.33853" lon="0.96138">
        <ele>74.181</ele>
        <time>2014-07-27T11:41:07Z</time>
      </trkpt>
      <trkpt lat="49.3385" lon="0.96113">
        <ele>73.046623</ele>
        <time>2014-07-27T11:41:10Z</time>
      </trkpt>
      <trkpt lat="49.3385" lon="0.96088">
        <ele>72.891251</ele>
        <time>2014-07-27T11:41:15Z</time>
      </trkpt>
      <trkpt lat="49.33845" lon="0.96063">
        <ele>72.513191</ele>
        <time>2014-07-27T11:41:21Z</time>
      </trkpt>
      <trkpt lat="49.33843" lon="0.9604">
        <ele>72.656876</ele>
        <time>2014-07-27T11:41:26Z</time>
      </trkpt>
      <trkpt lat="49.33853" lon="0.96023">
        <ele>75.6278</ele>
        <time>2014-07-27T11:41:33Z</time>
      </trkpt>
      <trkpt lat="49.33858" lon="0.96003">
        <ele>77.374191</ele>
        <time>2014-07-27T11:41:38Z</time>
      </trkpt>
      <trkpt lat="49.3386" lon="0.95978">
        <ele>78.588181</ele>
        <time>2014-07-27T11:41:44Z</time>
      </trkpt>
      <trkpt lat="49.33858" lon="0.95953">
        <ele>78.476074</ele>
        <time>2014-07-27T11:41:50Z</time>
      </trkpt>
      <trkpt lat="49.33855" lon="0.95918">
        <ele>78.439362</ele>
        <time>2014-07-27T11:41:57Z</time>
      </trkpt>
      <trkpt lat="49.3385" lon="0.95895">
        <ele>77.37677</ele>
        <time>2014-07-27T11:42:02Z</time>
      </trkpt>
      <trkpt lat="49.33848" lon="0.9587">
        <ele>77.050003</ele>
        <time>2014-07-27T11:42:08Z</time>
      </trkpt>
      <trkpt lat="49.33843" lon="0.9585">
        <ele>76.093872</ele>
        <time>2014-07-27T11:42:12Z</time>
      </trkpt>
      <trkpt lat="49.3384" lon="0.95825">
        <ele>75.943748</ele>
        <time>2014-07-27T11:42:17Z</time>
      </trkpt>
      <trkpt lat="49.33843" lon="0.95803">
        <ele>77.116951</ele>
        <time>2014-07-27T11:42:21Z</time>
      </trkpt>
      <trkpt lat="49.3384" lon="0.95778">
        <ele>77.352859</ele>
        <time>2014-07-27T11:42:26Z</time>
      </trkpt>
      <trkpt lat="49.33838" lon="0.95755">
        <ele>77.43457</ele>
        <time>2014-07-27T11:42:30Z</time>
      </trkpt>
      <trkpt lat="49.33838" lon="0.95733">
        <ele>78.87809</ele>
        <time>2014-07-27T11:42:34Z</time>
      </trkpt>
      <trkpt lat="49.3384" lon="0.95708">
        <ele>81.325539</ele>
        <time>2014-07-27T11:42:39Z</time>
      </trkpt>
      <trkpt lat="49.3384" lon="0.95685">
        <ele>82.963867</ele>
        <time>2014-07-27T11:42:43Z</time>
      </trkpt>
      <trkpt lat="49.3384" lon="0.95658">
        <ele>85.784584</ele>
        <time>2014-07-27T11:42:49Z</time>
      </trkpt>
      <trkpt lat="49.33845" lon="0.95638">
        <ele>89.458</ele>
        <time>2014-07-27T11:42:53Z</time>
      </trkpt>
      <trkpt lat="49.33845" lon="0.95615">
        <ele>91.776299</ele>
        <time>2014-07-27T11:43:02Z</time>
      </trkpt>
      <trkpt lat="49.3384" lon="0.95595">
        <ele>92.573677</ele>
        <time>2014-07-27T11:43:08Z</time>
      </trkpt>
      <trkpt lat="49.33835" lon="0.95575">
        <ele>93.056534</ele>
        <time>2014-07-27T11:43:14Z</time>
      </trkpt>
      <trkpt lat="49.3383" lon="0.95553">
        <ele>93.763748</ele>
        <time>2014-07-27T11:43:20Z</time>
      </trkpt>
      <trkpt lat="49.33825" lon="0.95525">
        <ele>93.946442</ele>
        <time>2014-07-27T11:43:28Z</time>
      </trkpt>
      <trkpt lat="49.3382" lon="0.95503">
        <ele>93.557678</ele>
        <time>2014-07-27T11:43:35Z</time>
      </trkpt>
      <trkpt lat="49.33818" lon="0.95478">
        <ele>94.330933</ele>
        <time>2014-07-27T11:43:39Z</time>
      </trkpt>
      <trkpt lat="49.33818" lon="0.95453">
        <ele>94.95974</ele>
        <time>2014-07-27T11:43:44Z</time>
      </trkpt>
      <trkpt lat="49.33815" lon="0.95423">
        <ele>94.723709</ele>
        <time>2014-07-27T11:43:52Z</time>
      </trkpt>
      <trkpt lat="49.33813" lon="0.95398">
        <ele>94.233246</ele>
        <time>2014-07-27T11:43:58Z</time>
      </trkpt>
      <trkpt lat="49.33813" lon="0.95373">
        <ele>94.403954</ele>
        <time>2014-07-27T11:44:03Z</time>
      </trkpt>
      <trkpt lat="49.33813" lon="0.95343">
        <ele>94.602242</ele>
        <time>2014-07-27T11:44:08Z</time>
      </trkpt>
      <trkpt lat="49.3381" lon="0.95313">
        <ele>94.728882</ele>
        <time>2014-07-27T11:44:12Z</time>
      </trkpt>
      <trkpt lat="49.3381" lon="0.9529">
        <ele>95.693184</ele>
        <time>2014-07-27T11:44:16Z</time>
      </trkpt>
      <trkpt lat="49.33808" lon="0.95263">
        <ele>95.980247</ele>
        <time>2014-07-27T11:44:25Z</time>
      </trkpt>
      <trkpt lat="49.33803" lon="0.9524">
        <ele>95.571655</ele>
        <time>2014-07-27T11:44:30Z</time>
      </trkpt>
      <trkpt lat="49.33803" lon="0.95218">
        <ele>97.264877</ele>
        <time>2014-07-27T11:44:35Z</time>
      </trkpt>
      <trkpt lat="49.338" lon="0.95193">
        <ele>97.677094</ele>
        <time>2014-07-27T11:44:40Z</time>
      </trkpt>
      <trkpt lat="49.33798" lon="0.95168">
        <ele>97.327812</ele>
        <time>2014-07-27T11:44:45Z</time>
      </trkpt>
      <trkpt lat="49.33795" lon="0.95135">
        <ele>97.041908</ele>
        <time>2014-07-27T11:46:14Z</time>
      </trkpt>
      <trkpt lat="49.33803" lon="0.95113">
        <ele>98.316406</ele>
        <time>2014-07-27T11:46:31Z</time>
      </trkpt>
      <trkpt lat="49.33795" lon="0.95095">
        <ele>95.324478</ele>
        <time>2014-07-27T11:47:52Z</time>
      </trkpt>
      <trkpt lat="49.33803" lon="0.95078">
        <ele>96.463875</ele>
        <time>2014-07-27T11:47:58Z</time>
      </trkpt>
      <trkpt lat="49.33815" lon="0.95055">
        <ele>97.169998</ele>
        <time>2014-07-27T11:48:04Z</time>
      </trkpt>
      <trkpt lat="49.33828" lon="0.95045">
        <ele>98.57</ele>
        <time>2014-07-27T11:48:08Z</time>
      </trkpt>
      <trkpt lat="49.33843" lon="0.95035">
        <ele>99.875198</ele>
        <time>2014-07-27T11:48:12Z</time>
      </trkpt>
      <trkpt lat="49.3386" lon="0.95035">
        <ele>102.39653</ele>
        <time>2014-07-27T11:48:18Z</time>
      </trkpt>
      <trkpt lat="49.3387" lon="0.9502">
        <ele>101.731377</ele>
        <time>2014-07-27T11:48:27Z</time>
      </trkpt>
      <trkpt lat="49.3387" lon="0.94998">
        <ele>98.608284</ele>
        <time>2014-07-27T11:48:32Z</time>
      </trkpt>
      <trkpt lat="49.3387" lon="0.94975">
        <ele>94.290962</ele>
        <time>2014-07-27T11:48:37Z</time>
      </trkpt>
      <trkpt lat="49.33875" lon="0.94943">
        <ele>88.672203</ele>
        <time>2014-07-27T11:48:43Z</time>
      </trkpt>
      <trkpt lat="49.33875" lon="0.94918">
        <ele>85.988747</ele>
        <time>2014-07-27T11:48:47Z</time>
      </trkpt>
      <trkpt lat="49.33878" lon="0.94893">
        <ele>88.256248</ele>
        <time>2014-07-27T11:48:51Z</time>
      </trkpt>
      <trkpt lat="49.33883" lon="0.94873">
        <ele>90.316002</ele>
        <time>2014-07-27T11:48:55Z</time>
      </trkpt>
      <trkpt lat="49.33885" lon="0.94848">
        <ele>93.117966</ele>
        <time>2014-07-27T11:49:00Z</time>
      </trkpt>
      <trkpt lat="49.33883" lon="0.94825">
        <ele>96.499794</ele>
        <time>2014-07-27T11:49:06Z</time>
      </trkpt>
      <trkpt lat="49.33888" lon="0.94803">
        <ele>100.409676</ele>
        <time>2014-07-27T11:49:13Z</time>
      </trkpt>
      <trkpt lat="49.33898" lon="0.94788">
        <ele>103.374992</ele>
        <time>2014-07-27T11:49:18Z</time>
      </trkpt>
      <trkpt lat="49.339" lon="0.94765">
        <ele>105.846489</ele>
        <time>2014-07-27T11:49:27Z</time>
      </trkpt>
      <trkpt lat="49.3389" lon="0.9475">
        <ele>106.983459</ele>
        <time>2014-07-27T11:49:39Z</time>
      </trkpt>
      <trkpt lat="49.3389" lon="0.94728">
        <ele>109.415062</ele>
        <time>2014-07-27T11:49:46Z</time>
      </trkpt>
      <trkpt lat="49.3389" lon="0.94703">
        <ele>111.206505</ele>
        <time>2014-07-27T11:49:53Z</time>
      </trkpt>
      <trkpt lat="49.33895" lon="0.94675">
        <ele>112.722389</ele>
        <time>2014-07-27T11:50:04Z</time>
      </trkpt>
      <trkpt lat="49.33898" lon="0.94653">
        <ele>113.892204</ele>
        <time>2014-07-27T11:50:13Z</time>
      </trkpt>
      <trkpt lat="49.33895" lon="0.9463">
        <ele>114.722923</ele>
        <time>2014-07-27T11:50:22Z</time>
      </trkpt>
      <trkpt lat="49.33885" lon="0.94615">
        <ele>115.151802</ele>
        <time>2014-07-27T11:50:33Z</time>
      </trkpt>
      <trkpt lat="49.33873" lon="0.94605">
        <ele>115.209999</ele>
        <time>2014-07-27T11:50:55Z</time>
      </trkpt>
      <trkpt lat="49.33868" lon="0.94585">
        <ele>115.58625</ele>
        <time>2014-07-27T11:52:00Z</time>
      </trkpt>
      <trkpt lat="49.33873" lon="0.9456">
        <ele>116.240593</ele>
        <time>2014-07-27T11:52:07Z</time>
      </trkpt>
      <trkpt lat="49.33878" lon="0.94538">
        <ele>116.715004</ele>
        <time>2014-07-27T11:52:13Z</time>
      </trkpt>
      <trkpt lat="49.3388" lon="0.9451">
        <ele>117.178749</ele>
        <time>2014-07-27T11:52:20Z</time>
      </trkpt>
      <trkpt lat="49.33885" lon="0.9449">
        <ele>117.583122</ele>
        <time>2014-07-27T11:52:25Z</time>
      </trkpt>
      <trkpt lat="49.3389" lon="0.94463">
        <ele>118.100624</ele>
        <time>2014-07-27T11:52:33Z</time>
      </trkpt>
      <trkpt lat="49.33895" lon="0.94443">
        <ele>118.504997</ele>
        <time>2014-07-27T11:52:51Z</time>
      </trkpt>
      <trkpt lat="49.33898" lon="0.9442">
        <ele>118.891251</ele>
        <time>2014-07-27T11:52:57Z</time>
      </trkpt>
      <trkpt lat="49.339" lon="0.94395">
        <ele>119.318748</ele>
        <time>2014-07-27T11:53:02Z</time>
      </trkpt>
      <trkpt lat="49.33905" lon="0.9437">
        <ele>119.816803</ele>
        <time>2014-07-27T11:53:06Z</time>
      </trkpt>
      <trkpt lat="49.3391" lon="0.9435">
        <ele>120.262672</ele>
        <time>2014-07-27T11:53:09Z</time>
      </trkpt>
      <trkpt lat="49.33913" lon="0.94328">
        <ele>120.659691</ele>
        <time>2014-07-27T11:53:12Z</time>
      </trkpt>
      <trkpt lat="49.33923" lon="0.9425">
        <ele>121.839828</ele>
        <time>2014-07-27T11:53:22Z</time>
      </trkpt>
      <trkpt lat="49.33933" lon="0.9419">
        <ele>122</ele>
        <time>2014-07-27T11:53:29Z</time>
      </trkpt>
      <trkpt lat="49.33945" lon="0.9412">
        <ele>122.695625</ele>
        <time>2014-07-27T11:53:37Z</time>
      </trkpt>
      <trkpt lat="49.33948" lon="0.94093">
        <ele>123</ele>
        <time>2014-07-27T11:53:40Z</time>
      </trkpt>
      <trkpt lat="49.33953" lon="0.94068">
        <ele>123</ele>
        <time>2014-07-27T11:53:43Z</time>
      </trkpt>
      <trkpt lat="49.33958" lon="0.9404">
        <ele>123</ele>
        <time>2014-07-27T11:53:46Z</time>
      </trkpt>
      <trkpt lat="49.33963" lon="0.94008">
        <ele>123</ele>
        <time>2014-07-27T11:53:50Z</time>
      </trkpt>
      <trkpt lat="49.33968" lon="0.93978">
        <ele>123</ele>
        <time>2014-07-27T11:53:54Z</time>
      </trkpt>
      <trkpt lat="49.33973" lon="0.93945">
        <ele>122.846634</ele>
        <time>2014-07-27T11:53:58Z</time>
      </trkpt>
      <trkpt lat="49.33975" lon="0.93918">
        <ele>122.619232</ele>
        <time>2014-07-27T11:54:01Z</time>
      </trkpt>
      <trkpt lat="49.3398" lon="0.93893">
        <ele>122.519241</ele>
        <time>2014-07-27T11:54:04Z</time>
      </trkpt>
      <trkpt lat="49.33988" lon="0.93858">
        <ele>122.038277</ele>
        <time>2014-07-27T11:54:08Z</time>
      </trkpt>
      <trkpt lat="49.33993" lon="0.93823">
        <ele>121.615623</ele>
        <time>2014-07-27T11:54:12Z</time>
      </trkpt>
      <trkpt lat="49.34" lon="0.93778">
        <ele>121.324371</ele>
        <time>2014-07-27T11:54:18Z</time>
      </trkpt>
      <trkpt lat="49.34005" lon="0.93753">
        <ele>121.08934</ele>
        <time>2014-07-27T11:54:21Z</time>
      </trkpt>
      <trkpt lat="49.3401" lon="0.93728">
        <ele>120.930984</ele>
        <time>2014-07-27T11:54:24Z</time>
      </trkpt>
      <trkpt lat="49.34013" lon="0.93698">
        <ele>120.711792</ele>
        <time>2014-07-27T11:54:29Z</time>
      </trkpt>
      <trkpt lat="49.34015" lon="0.93673">
        <ele>120.638092</ele>
        <time>2014-07-27T11:54:32Z</time>
      </trkpt>
      <trkpt lat="49.34018" lon="0.9364">
        <ele>120.560768</ele>
        <time>2014-07-27T11:54:36Z</time>
      </trkpt>
      <trkpt lat="49.34025" lon="0.93615">
        <ele>120.581108</ele>
        <time>2014-07-27T11:54:39Z</time>
      </trkpt>
      <trkpt lat="49.34028" lon="0.9359">
        <ele>120.519844</ele>
        <time>2014-07-27T11:54:43Z</time>
      </trkpt>
      <trkpt lat="49.3403" lon="0.93565">
        <ele>120.496849</ele>
        <time>2014-07-27T11:54:47Z</time>
      </trkpt>
      <trkpt lat="49.34038" lon="0.93535">
        <ele>120.750664</ele>
        <time>2014-07-27T11:54:53Z</time>
      </trkpt>
      <trkpt lat="49.34043" lon="0.9351">
        <ele>121.00235</ele>
        <time>2014-07-27T11:54:57Z</time>
      </trkpt>
      <trkpt lat="49.34043" lon="0.93488">
        <ele>121.001434</ele>
        <time>2014-07-27T11:55:00Z</time>
      </trkpt>
      <trkpt lat="49.34048" lon="0.93465">
        <ele>120.840309</ele>
        <time>2014-07-27T11:55:03Z</time>
      </trkpt>
      <trkpt lat="49.34053" lon="0.9344">
        <ele>120.58947</ele>
        <time>2014-07-27T11:55:06Z</time>
      </trkpt>
      <trkpt lat="49.34058" lon="0.93418">
        <ele>120.443596</ele>
        <time>2014-07-27T11:55:09Z</time>
      </trkpt>
      <trkpt lat="49.3406" lon="0.93395">
        <ele>120.425003</ele>
        <time>2014-07-27T11:55:12Z</time>
      </trkpt>
      <trkpt lat="49.34068" lon="0.9335">
        <ele>120.599998</ele>
        <time>2014-07-27T11:55:19Z</time>
      </trkpt>
      <trkpt lat="49.3407" lon="0.93323">
        <ele>120.418747</ele>
        <time>2014-07-27T11:55:24Z</time>
      </trkpt>
      <trkpt lat="49.3407" lon="0.933">
        <ele>120.096878</ele>
        <time>2014-07-27T11:55:28Z</time>
      </trkpt>
      <trkpt lat="49.34073" lon="0.93278">
        <ele>119.830627</ele>
        <time>2014-07-27T11:55:31Z</time>
      </trkpt>
      <trkpt lat="49.34075" lon="0.93255">
        <ele>119.794998</ele>
        <time>2014-07-27T11:55:34Z</time>
      </trkpt>
      <trkpt lat="49.34078" lon="0.93233">
        <ele>119.855003</ele>
        <time>2014-07-27T11:55:37Z</time>
      </trkpt>
      <trkpt lat="49.34085" lon="0.932">
        <ele>120.008125</ele>
        <time>2014-07-27T11:55:42Z</time>
      </trkpt>
      <trkpt lat="49.3409" lon="0.93178">
        <ele>119.803123</ele>
        <time>2014-07-27T11:55:46Z</time>
      </trkpt>
      <trkpt lat="49.34093" lon="0.93153">
        <ele>119.500626</ele>
        <time>2014-07-27T11:55:50Z</time>
      </trkpt>
      <trkpt lat="49.34098" lon="0.93125">
        <ele>119.222504</ele>
        <time>2014-07-27T11:55:54Z</time>
      </trkpt>
      <trkpt lat="49.34103" lon="0.93095">
        <ele>118.908127</ele>
        <time>2014-07-27T11:55:58Z</time>
      </trkpt>
      <trkpt lat="49.34108" lon="0.93063">
        <ele>118.557938</ele>
        <time>2014-07-27T11:56:02Z</time>
      </trkpt>
      <trkpt lat="49.34105" lon="0.9304">
        <ele>118.342873</ele>
        <time>2014-07-27T11:56:20Z</time>
      </trkpt>
      <trkpt lat="49.34105" lon="0.93018">
        <ele>118.174232</ele>
        <time>2014-07-27T11:57:59Z</time>
      </trkpt>
      <trkpt lat="49.3411" lon="0.9299">
        <ele>117.933746</ele>
        <time>2014-07-27T11:58:03Z</time>
      </trkpt>
      <trkpt lat="49.34115" lon="0.9297">
        <ele>117.644997</ele>
        <time>2014-07-27T11:58:05Z</time>
      </trkpt>
      <trkpt lat="49.34118" lon="0.92948">
        <ele>117.318748</ele>
        <time>2014-07-27T11:58:08Z</time>
      </trkpt>
      <trkpt lat="49.3411" lon="0.92928">
        <ele>117.025002</ele>
        <time>2014-07-27T11:58:11Z</time>
      </trkpt>
      <trkpt lat="49.34098" lon="0.92908">
        <ele>116.728752</ele>
        <time>2014-07-27T11:58:14Z</time>
      </trkpt>
      <trkpt lat="49.3408" lon="0.92888">
        <ele>116.431252</ele>
        <time>2014-07-27T11:58:18Z</time>
      </trkpt>
      <trkpt lat="49.34068" lon="0.9287">
        <ele>116.399155</ele>
        <time>2014-07-27T11:58:22Z</time>
      </trkpt>
      <trkpt lat="49.34068" lon="0.92848">
        <ele>116.150612</ele>
        <time>2014-07-27T11:58:26Z</time>
      </trkpt>
      <trkpt lat="49.34068" lon="0.9282">
        <ele>115.848839</ele>
        <time>2014-07-27T11:58:32Z</time>
      </trkpt>
      <trkpt lat="49.34068" lon="0.92795">
        <ele>115.570068</ele>
        <time>2014-07-27T11:58:39Z</time>
      </trkpt>
      <trkpt lat="49.34058" lon="0.92775">
        <ele>115.725624</ele>
        <time>2014-07-27T11:58:44Z</time>
      </trkpt>
      <trkpt lat="49.3405" lon="0.92758">
        <ele>115.798126</ele>
        <time>2014-07-27T11:58:47Z</time>
      </trkpt>
      <trkpt lat="49.3405" lon="0.92733">
        <ele>115.414375</ele>
        <time>2014-07-27T11:58:51Z</time>
      </trkpt>
      <trkpt lat="49.3405" lon="0.92688">
        <ele>115.041351</ele>
        <time>2014-07-27T11:58:57Z</time>
      </trkpt>
      <trkpt lat="49.34048" lon="0.92665">
        <ele>115.055931</ele>
        <time>2014-07-27T11:59:00Z</time>
      </trkpt>
      <trkpt lat="49.34048" lon="0.92643">
        <ele>114.735352</ele>
        <time>2014-07-27T11:59:03Z</time>
      </trkpt>
      <trkpt lat="49.3405" lon="0.92618">
        <ele>113.865295</ele>
        <time>2014-07-27T11:59:07Z</time>
      </trkpt>
      <trkpt lat="49.3405" lon="0.92595">
        <ele>113.250298</ele>
        <time>2014-07-27T11:59:11Z</time>
      </trkpt>
      <trkpt lat="49.34045" lon="0.92573">
        <ele>112.981873</ele>
        <time>2014-07-27T11:59:14Z</time>
      </trkpt>
      <trkpt lat="49.34038" lon="0.92555">
        <ele>113.034378</ele>
        <time>2014-07-27T11:59:17Z</time>
      </trkpt>
      <trkpt lat="49.3403" lon="0.92528">
        <ele>112.581497</ele>
        <time>2014-07-27T11:59:22Z</time>
      </trkpt>
      <trkpt lat="49.34018" lon="0.92513">
        <ele>112.547081</ele>
        <time>2014-07-27T11:59:26Z</time>
      </trkpt>
      <trkpt lat="49.34003" lon="0.92493">
        <ele>111.658897</ele>
        <time>2014-07-27T11:59:31Z</time>
      </trkpt>
      <trkpt lat="49.33993" lon="0.92475">
        <ele>110.800903</ele>
        <time>2014-07-27T11:59:37Z</time>
      </trkpt>
      <trkpt lat="49.33973" lon="0.92445">
        <ele>109.073563</ele>
        <time>2014-07-27T11:59:42Z</time>
      </trkpt>
      <trkpt lat="49.3395" lon="0.92413">
        <ele>106.3424</ele>
        <time>2014-07-27T11:59:47Z</time>
      </trkpt>
      <trkpt lat="49.33938" lon="0.92395">
        <ele>105.649101</ele>
        <time>2014-07-27T11:59:50Z</time>
      </trkpt>
      <trkpt lat="49.33925" lon="0.9238">
        <ele>105.469688</ele>
        <time>2014-07-27T11:59:54Z</time>
      </trkpt>
      <trkpt lat="49.33915" lon="0.92363">
        <ele>104.688095</ele>
        <time>2014-07-27T11:59:57Z</time>
      </trkpt>
      <trkpt lat="49.33905" lon="0.92345">
        <ele>104.479645</ele>
        <time>2014-07-27T12:00:01Z</time>
      </trkpt>
      <trkpt lat="49.33898" lon="0.92325">
        <ele>104.106155</ele>
        <time>2014-07-27T12:00:05Z</time>
      </trkpt>
      <trkpt lat="49.33893" lon="0.92303">
        <ele>103.021652</ele>
        <time>2014-07-27T12:00:09Z</time>
      </trkpt>
      <trkpt lat="49.33885" lon="0.92283">
        <ele>101.833191</ele>
        <time>2014-07-27T12:00:12Z</time>
      </trkpt>
      <trkpt lat="49.33878" lon="0.92265">
        <ele>101.178406</ele>
        <time>2014-07-27T12:00:16Z</time>
      </trkpt>
      <trkpt lat="49.33873" lon="0.92245">
        <ele>100.167656</ele>
        <time>2014-07-27T12:00:21Z</time>
      </trkpt>
      <trkpt lat="49.3387" lon="0.92213">
        <ele>96.462334</ele>
        <time>2014-07-27T12:00:28Z</time>
      </trkpt>
      <trkpt lat="49.33865" lon="0.9219">
        <ele>94.518997</ele>
        <time>2014-07-27T12:00:34Z</time>
      </trkpt>
      <trkpt lat="49.33865" lon="0.92168">
        <ele>91.360687</ele>
        <time>2014-07-27T12:00:40Z</time>
      </trkpt>
      <trkpt lat="49.33853" lon="0.9215">
        <ele>90.182091</ele>
        <time>2014-07-27T12:00:44Z</time>
      </trkpt>
      <trkpt lat="49.33843" lon="0.92135">
        <ele>88.438126</ele>
        <time>2014-07-27T12:00:47Z</time>
      </trkpt>
      <trkpt lat="49.33833" lon="0.92118">
        <ele>85.942497</ele>
        <time>2014-07-27T12:00:50Z</time>
      </trkpt>
      <trkpt lat="49.33818" lon="0.9211">
        <ele>85.787498</ele>
        <time>2014-07-27T12:00:54Z</time>
      </trkpt>
      <trkpt lat="49.33795" lon="0.92103">
        <ele>86.43615</ele>
        <time>2014-07-27T12:00:59Z</time>
      </trkpt>
      <trkpt lat="49.33775" lon="0.92095">
        <ele>86.776451</ele>
        <time>2014-07-27T12:01:03Z</time>
      </trkpt>
      <trkpt lat="49.33758" lon="0.9209">
        <ele>87.125702</ele>
        <time>2014-07-27T12:01:07Z</time>
      </trkpt>
      <trkpt lat="49.33743" lon="0.9209">
        <ele>87.962357</ele>
        <time>2014-07-27T12:01:11Z</time>
      </trkpt>
      <trkpt lat="49.33728" lon="0.92085">
        <ele>87.542114</ele>
        <time>2014-07-27T12:01:14Z</time>
      </trkpt>
      <trkpt lat="49.33715" lon="0.92075">
        <ele>85.714859</ele>
        <time>2014-07-27T12:01:17Z</time>
      </trkpt>
      <trkpt lat="49.33698" lon="0.92063">
        <ele>83.24469</ele>
        <time>2014-07-27T12:01:21Z</time>
      </trkpt>
      <trkpt lat="49.3368" lon="0.92063">
        <ele>83.795441</ele>
        <time>2014-07-27T12:01:24Z</time>
      </trkpt>
      <trkpt lat="49.33663" lon="0.9206">
        <ele>83.397934</ele>
        <time>2014-07-27T12:01:28Z</time>
      </trkpt>
      <trkpt lat="49.33648" lon="0.92058">
        <ele>81.663895</ele>
        <time>2014-07-27T12:01:31Z</time>
      </trkpt>
      <trkpt lat="49.33633" lon="0.92058">
        <ele>80.501366</ele>
        <time>2014-07-27T12:01:35Z</time>
      </trkpt>
      <trkpt lat="49.33615" lon="0.92055">
        <ele>77.560616</ele>
        <time>2014-07-27T12:01:38Z</time>
      </trkpt>
      <trkpt lat="49.336" lon="0.92053">
        <ele>73.160469</ele>
        <time>2014-07-27T12:01:42Z</time>
      </trkpt>
      <trkpt lat="49.33585" lon="0.92048">
        <ele>68.389</ele>
        <time>2014-07-27T12:01:46Z</time>
      </trkpt>
      <trkpt lat="49.3357" lon="0.92055">
        <ele>66.257767</ele>
        <time>2014-07-27T12:01:50Z</time>
      </trkpt>
      <trkpt lat="49.33568" lon="0.9208">
        <ele>69.738892</ele>
        <time>2014-07-27T12:01:55Z</time>
      </trkpt>
      <trkpt lat="49.3356" lon="0.92103">
        <ele>71.210747</ele>
        <time>2014-07-27T12:01:59Z</time>
      </trkpt>
      <trkpt lat="49.33548" lon="0.92113">
        <ele>69.068748</ele>
        <time>2014-07-27T12:02:02Z</time>
      </trkpt>
      <trkpt lat="49.33538" lon="0.92128">
        <ele>68.736717</ele>
        <time>2014-07-27T12:02:05Z</time>
      </trkpt>
      <trkpt lat="49.33525" lon="0.92145">
        <ele>68.866753</ele>
        <time>2014-07-27T12:02:09Z</time>
      </trkpt>
      <trkpt lat="49.33515" lon="0.9216">
        <ele>69.206108</ele>
        <time>2014-07-27T12:02:13Z</time>
      </trkpt>
      <trkpt lat="49.335" lon="0.92168">
        <ele>66.786751</ele>
        <time>2014-07-27T12:02:17Z</time>
      </trkpt>
      <trkpt lat="49.3349" lon="0.92185">
        <ele>66.409218</ele>
        <time>2014-07-27T12:02:23Z</time>
      </trkpt>
      <trkpt lat="49.3348" lon="0.92203">
        <ele>67.988434</ele>
        <time>2014-07-27T12:03:55Z</time>
      </trkpt>
      <trkpt lat="49.3347" lon="0.92218">
        <ele>68.944374</ele>
        <time>2014-07-27T12:04:03Z</time>
      </trkpt>
      <trkpt lat="49.3346" lon="0.92233">
        <ele>69.359154</ele>
        <time>2014-07-27T12:04:08Z</time>
      </trkpt>
      <trkpt lat="49.33448" lon="0.92243">
        <ele>67.950813</ele>
        <time>2014-07-27T12:04:14Z</time>
      </trkpt>
      <trkpt lat="49.33435" lon="0.92255">
        <ele>67.041672</ele>
        <time>2014-07-27T12:04:21Z</time>
      </trkpt>
      <trkpt lat="49.3342" lon="0.92263">
        <ele>64.543785</ele>
        <time>2014-07-27T12:05:03Z</time>
      </trkpt>
      <trkpt lat="49.33398" lon="0.92273">
        <ele>60.603626</ele>
        <time>2014-07-27T12:05:11Z</time>
      </trkpt>
      <trkpt lat="49.3339" lon="0.92293">
        <ele>60.259872</ele>
        <time>2014-07-27T12:05:16Z</time>
      </trkpt>
      <trkpt lat="49.33393" lon="0.92318">
        <ele>62.085926</ele>
        <time>2014-07-27T12:05:21Z</time>
      </trkpt>
      <trkpt lat="49.33383" lon="0.92335">
        <ele>60.249313</ele>
        <time>2014-07-27T12:05:25Z</time>
      </trkpt>
      <trkpt lat="49.3337" lon="0.92345">
        <ele>57.542374</ele>
        <time>2014-07-27T12:05:29Z</time>
      </trkpt>
      <trkpt lat="49.33363" lon="0.92325">
        <ele>56.455936</ele>
        <time>2014-07-27T12:05:35Z</time>
      </trkpt>
      <trkpt lat="49.33358" lon="0.92305">
        <ele>54.614983</ele>
        <time>2014-07-27T12:05:40Z</time>
      </trkpt>
      <trkpt lat="49.33355" lon="0.92328">
        <ele>55.076832</ele>
        <time>2014-07-27T12:06:22Z</time>
      </trkpt>
      <trkpt lat="49.33348" lon="0.92345">
        <ele>53.8321</ele>
        <time>2014-07-27T12:06:26Z</time>
      </trkpt>
      <trkpt lat="49.33348" lon="0.9237">
        <ele>53.473183</ele>
        <time>2014-07-27T12:06:32Z</time>
      </trkpt>
      <trkpt lat="49.33353" lon="0.9239">
        <ele>53.764996</ele>
        <time>2014-07-27T12:06:38Z</time>
      </trkpt>
      <trkpt lat="49.33363" lon="0.92408">
        <ele>53.991562</ele>
        <time>2014-07-27T12:06:46Z</time>
      </trkpt>
      <trkpt lat="49.33378" lon="0.92435">
        <ele>52.675877</ele>
        <time>2014-07-27T12:06:53Z</time>
      </trkpt>
      <trkpt lat="49.33373" lon="0.9246">
        <ele>49.842751</ele>
        <time>2014-07-27T12:06:58Z</time>
      </trkpt>
      <trkpt lat="49.33363" lon="0.9248">
        <ele>48.888847</ele>
        <time>2014-07-27T12:07:02Z</time>
      </trkpt>
      <trkpt lat="49.33345" lon="0.9249">
        <ele>48.825745</ele>
        <time>2014-07-27T12:07:07Z</time>
      </trkpt>
      <trkpt lat="49.33328" lon="0.92495">
        <ele>49.122162</ele>
        <time>2014-07-27T12:07:13Z</time>
      </trkpt>
      <trkpt lat="49.33328" lon="0.9252">
        <ele>49.243351</ele>
        <time>2014-07-27T12:07:19Z</time>
      </trkpt>
      <trkpt lat="49.33313" lon="0.9252">
        <ele>49.755386</ele>
        <time>2014-07-27T12:09:15Z</time>
      </trkpt>
      <trkpt lat="49.33298" lon="0.92525">
        <ele>50.904427</ele>
        <time>2014-07-27T12:09:22Z</time>
      </trkpt>
      <trkpt lat="49.3328" lon="0.92533">
        <ele>52.167576</ele>
        <time>2014-07-27T12:09:29Z</time>
      </trkpt>
      <trkpt lat="49.33263" lon="0.92538">
        <ele>53.318558</ele>
        <time>2014-07-27T12:09:35Z</time>
      </trkpt>
      <trkpt lat="49.3324" lon="0.92545">
        <ele>55.051182</ele>
        <time>2014-07-27T12:09:43Z</time>
      </trkpt>
      <trkpt lat="49.33178" lon="0.92568">
        <ele>59.508358</ele>
        <time>2014-07-27T12:10:01Z</time>
      </trkpt>
      <trkpt lat="49.3316" lon="0.92575">
        <ele>61.060452</ele>
        <time>2014-07-27T12:10:06Z</time>
      </trkpt>
      <trkpt lat="49.33135" lon="0.92585">
        <ele>62.575844</ele>
        <time>2014-07-27T12:10:13Z</time>
      </trkpt>
      <trkpt lat="49.33115" lon="0.92593">
        <ele>62.340374</ele>
        <time>2014-07-27T12:10:18Z</time>
      </trkpt>
      <trkpt lat="49.33103" lon="0.92603">
        <ele>61.415401</ele>
        <time>2014-07-27T12:10:22Z</time>
      </trkpt>
      <trkpt lat="49.33085" lon="0.92613">
        <ele>60.592312</ele>
        <time>2014-07-27T12:10:27Z</time>
      </trkpt>
      <trkpt lat="49.33063" lon="0.92623">
        <ele>62.468399</ele>
        <time>2014-07-27T12:10:33Z</time>
      </trkpt>
      <trkpt lat="49.33048" lon="0.9263">
        <ele>63.416794</ele>
        <time>2014-07-27T12:10:37Z</time>
      </trkpt>
      <trkpt lat="49.32968" lon="0.92673">
        <ele>63.818203</ele>
        <time>2014-07-27T12:10:57Z</time>
      </trkpt>
      <trkpt lat="49.32955" lon="0.92683">
        <ele>63.044998</ele>
        <time>2014-07-27T12:10:59Z</time>
      </trkpt>
      <trkpt lat="49.32938" lon="0.92693">
        <ele>64.481499</ele>
        <time>2014-07-27T12:11:02Z</time>
      </trkpt>
      <trkpt lat="49.32923" lon="0.92703">
        <ele>64.944534</ele>
        <time>2014-07-27T12:11:05Z</time>
      </trkpt>
      <trkpt lat="49.329" lon="0.92718">
        <ele>64.84024</ele>
        <time>2014-07-27T12:11:11Z</time>
      </trkpt>
      <trkpt lat="49.32885" lon="0.92723">
        <ele>65.308578</ele>
        <time>2014-07-27T12:11:16Z</time>
      </trkpt>
      <trkpt lat="49.32865" lon="0.9273">
        <ele>66.019653</ele>
        <time>2014-07-27T12:11:22Z</time>
      </trkpt>
      <trkpt lat="49.32848" lon="0.92728">
        <ele>67.431786</ele>
        <time>2014-07-27T12:11:26Z</time>
      </trkpt>
      <trkpt lat="49.3283" lon="0.9272">
        <ele>68.319527</ele>
        <time>2014-07-27T12:11:30Z</time>
      </trkpt>
      <trkpt lat="49.3265" lon="0.92638">
        <ele>71.862701</ele>
        <time>2014-07-27T12:12:00Z</time>
      </trkpt>
      <trkpt lat="49.3263" lon="0.92635">
        <ele>71.699852</ele>
        <time>2014-07-27T12:12:03Z</time>
      </trkpt>
      <trkpt lat="49.32613" lon="0.92633">
        <ele>71.959503</ele>
        <time>2014-07-27T12:12:06Z</time>
      </trkpt>
      <trkpt lat="49.32595" lon="0.92638">
        <ele>72.793053</ele>
        <time>2014-07-27T12:12:09Z</time>
      </trkpt>
      <trkpt lat="49.32575" lon="0.92645">
        <ele>73.55365</ele>
        <time>2014-07-27T12:12:12Z</time>
      </trkpt>
      <trkpt lat="49.32558" lon="0.92655">
        <ele>73.960052</ele>
        <time>2014-07-27T12:12:15Z</time>
      </trkpt>
      <trkpt lat="49.3254" lon="0.92665">
        <ele>74.185074</ele>
        <time>2014-07-27T12:12:18Z</time>
      </trkpt>
      <trkpt lat="49.3252" lon="0.9267">
        <ele>74.472984</ele>
        <time>2014-07-27T12:12:21Z</time>
      </trkpt>
      <trkpt lat="49.3249" lon="0.9268">
        <ele>75.597404</ele>
        <time>2014-07-27T12:12:26Z</time>
      </trkpt>
      <trkpt lat="49.32478" lon="0.92698">
        <ele>75.832504</ele>
        <time>2014-07-27T12:12:29Z</time>
      </trkpt>
      <trkpt lat="49.32473" lon="0.92723">
        <ele>75.830627</ele>
        <time>2014-07-27T12:12:33Z</time>
      </trkpt>
      <trkpt lat="49.32465" lon="0.92745">
        <ele>76.016251</ele>
        <time>2014-07-27T12:12:36Z</time>
      </trkpt>
      <trkpt lat="49.32453" lon="0.92768">
        <ele>77.936996</ele>
        <time>2014-07-27T12:12:39Z</time>
      </trkpt>
      <trkpt lat="49.32388" lon="0.9288">
        <ele>82.319687</ele>
        <time>2014-07-27T12:12:56Z</time>
      </trkpt>
      <trkpt lat="49.32375" lon="0.929">
        <ele>80.599625</ele>
        <time>2014-07-27T12:12:59Z</time>
      </trkpt>
      <trkpt lat="49.32358" lon="0.92913">
        <ele>82.047035</ele>
        <time>2014-07-27T12:13:02Z</time>
      </trkpt>
      <trkpt lat="49.3234" lon="0.92923">
        <ele>83.41803</ele>
        <time>2014-07-27T12:13:05Z</time>
      </trkpt>
      <trkpt lat="49.32323" lon="0.9293">
        <ele>84.194054</ele>
        <time>2014-07-27T12:13:08Z</time>
      </trkpt>
      <trkpt lat="49.32303" lon="0.9294">
        <ele>85.056091</ele>
        <time>2014-07-27T12:13:11Z</time>
      </trkpt>
      <trkpt lat="49.32285" lon="0.9295">
        <ele>84.473541</ele>
        <time>2014-07-27T12:13:14Z</time>
      </trkpt>
      <trkpt lat="49.32273" lon="0.9296">
        <ele>83.6875</ele>
        <time>2014-07-27T12:13:16Z</time>
      </trkpt>
      <trkpt lat="49.32258" lon="0.92978">
        <ele>81.803825</ele>
        <time>2014-07-27T12:13:19Z</time>
      </trkpt>
      <trkpt lat="49.32235" lon="0.93">
        <ele>83.095001</ele>
        <time>2014-07-27T12:13:23Z</time>
      </trkpt>
      <trkpt lat="49.32218" lon="0.93015">
        <ele>83.489998</ele>
        <time>2014-07-27T12:13:26Z</time>
      </trkpt>
      <trkpt lat="49.322" lon="0.9302">
        <ele>83.879997</ele>
        <time>2014-07-27T12:13:29Z</time>
      </trkpt>
      <trkpt lat="49.3218" lon="0.9302">
        <ele>84.652031</ele>
        <time>2014-07-27T12:13:32Z</time>
      </trkpt>
      <trkpt lat="49.32163" lon="0.93013">
        <ele>85.018875</ele>
        <time>2014-07-27T12:13:35Z</time>
      </trkpt>
      <trkpt lat="49.32145" lon="0.93008">
        <ele>85.346497</ele>
        <time>2014-07-27T12:13:38Z</time>
      </trkpt>
      <trkpt lat="49.32128" lon="0.93">
        <ele>85.852257</ele>
        <time>2014-07-27T12:13:41Z</time>
      </trkpt>
      <trkpt lat="49.32108" lon="0.92995">
        <ele>86.494415</ele>
        <time>2014-07-27T12:13:44Z</time>
      </trkpt>
      <trkpt lat="49.3209" lon="0.9299">
        <ele>86.473602</ele>
        <time>2014-07-27T12:13:47Z</time>
      </trkpt>
      <trkpt lat="49.32073" lon="0.92988">
        <ele>86.571053</ele>
        <time>2014-07-27T12:13:50Z</time>
      </trkpt>
      <trkpt lat="49.32043" lon="0.92985">
        <ele>86.794449</ele>
        <time>2014-07-27T12:13:55Z</time>
      </trkpt>
      <trkpt lat="49.32025" lon="0.92988">
        <ele>87.549759</ele>
        <time>2014-07-27T12:13:58Z</time>
      </trkpt>
      <trkpt lat="49.32005" lon="0.9299">
        <ele>87.945427</ele>
        <time>2014-07-27T12:14:01Z</time>
      </trkpt>
      <trkpt lat="49.31988" lon="0.92995">
        <ele>88.419678</ele>
        <time>2014-07-27T12:14:04Z</time>
      </trkpt>
      <trkpt lat="49.31948" lon="0.93005">
        <ele>89.62645</ele>
        <time>2014-07-27T12:14:10Z</time>
      </trkpt>
      <trkpt lat="49.3193" lon="0.93008">
        <ele>89.869225</ele>
        <time>2014-07-27T12:14:13Z</time>
      </trkpt>
      <trkpt lat="49.31913" lon="0.9301">
        <ele>90.732048</ele>
        <time>2014-07-27T12:14:16Z</time>
      </trkpt>
      <trkpt lat="49.31895" lon="0.9301">
        <ele>91.415459</ele>
        <time>2014-07-27T12:14:19Z</time>
      </trkpt>
      <trkpt lat="49.31863" lon="0.9301">
        <ele>92.476959</ele>
        <time>2014-07-27T12:14:24Z</time>
      </trkpt>
      <trkpt lat="49.31845" lon="0.93005">
        <ele>92.218887</ele>
        <time>2014-07-27T12:14:27Z</time>
      </trkpt>
      <trkpt lat="49.31825" lon="0.93">
        <ele>92.324532</ele>
        <time>2014-07-27T12:14:30Z</time>
      </trkpt>
      <trkpt lat="49.31805" lon="0.92995">
        <ele>92.811813</ele>
        <time>2014-07-27T12:14:33Z</time>
      </trkpt>
      <trkpt lat="49.31788" lon="0.92988">
        <ele>93.299141</ele>
        <time>2014-07-27T12:14:36Z</time>
      </trkpt>
      <trkpt lat="49.31758" lon="0.92975">
        <ele>95.194374</ele>
        <time>2014-07-27T12:14:41Z</time>
      </trkpt>
      <trkpt lat="49.31738" lon="0.92965">
        <ele>96.230453</ele>
        <time>2014-07-27T12:14:44Z</time>
      </trkpt>
      <trkpt lat="49.3172" lon="0.92953">
        <ele>96.938072</ele>
        <time>2014-07-27T12:14:47Z</time>
      </trkpt>
      <trkpt lat="49.31703" lon="0.92935">
        <ele>96.085205</ele>
        <time>2014-07-27T12:14:50Z</time>
      </trkpt>
      <trkpt lat="49.31685" lon="0.9292">
        <ele>96.152702</ele>
        <time>2014-07-27T12:14:53Z</time>
      </trkpt>
      <trkpt lat="49.31668" lon="0.92908">
        <ele>97.370598</ele>
        <time>2014-07-27T12:14:56Z</time>
      </trkpt>
      <trkpt lat="49.3165" lon="0.92895">
        <ele>97.788765</ele>
        <time>2014-07-27T12:14:59Z</time>
      </trkpt>
      <trkpt lat="49.3163" lon="0.92885">
        <ele>98.222672</ele>
        <time>2014-07-27T12:15:02Z</time>
      </trkpt>
      <trkpt lat="49.31613" lon="0.92875">
        <ele>97.8078</ele>
        <time>2014-07-27T12:15:05Z</time>
      </trkpt>
      <trkpt lat="49.31593" lon="0.92865">
        <ele>97.143753</ele>
        <time>2014-07-27T12:15:08Z</time>
      </trkpt>
      <trkpt lat="49.31575" lon="0.92853">
        <ele>97.214996</ele>
        <time>2014-07-27T12:15:11Z</time>
      </trkpt>
      <trkpt lat="49.31553" lon="0.92835">
        <ele>99.101006</ele>
        <time>2014-07-27T12:15:15Z</time>
      </trkpt>
      <trkpt lat="49.315" lon="0.92795">
        <ele>100.393837</ele>
        <time>2014-07-27T12:15:24Z</time>
      </trkpt>
      <trkpt lat="49.31475" lon="0.92773">
        <ele>102.51754</ele>
        <time>2014-07-27T12:15:29Z</time>
      </trkpt>
      <trkpt lat="49.3145" lon="0.92748">
        <ele>103.675797</ele>
        <time>2014-07-27T12:15:34Z</time>
      </trkpt>
      <trkpt lat="49.31438" lon="0.9273">
        <ele>103.384377</ele>
        <time>2014-07-27T12:15:37Z</time>
      </trkpt>
      <trkpt lat="49.31423" lon="0.92705">
        <ele>103.690224</ele>
        <time>2014-07-27T12:15:41Z</time>
      </trkpt>
      <trkpt lat="49.3141" lon="0.92688">
        <ele>104.228165</ele>
        <time>2014-07-27T12:15:44Z</time>
      </trkpt>
      <trkpt lat="49.31403" lon="0.92665">
        <ele>104.412498</ele>
        <time>2014-07-27T12:15:47Z</time>
      </trkpt>
      <trkpt lat="49.31395" lon="0.92645">
        <ele>104.553123</ele>
        <time>2014-07-27T12:15:50Z</time>
      </trkpt>
      <trkpt lat="49.31383" lon="0.92633">
        <ele>104.06945</ele>
        <time>2014-07-27T12:15:53Z</time>
      </trkpt>
      <trkpt lat="49.3137" lon="0.9262">
        <ele>104.864372</ele>
        <time>2014-07-27T12:15:57Z</time>
      </trkpt>
      <trkpt lat="49.31358" lon="0.9261">
        <ele>105.736107</ele>
        <time>2014-07-27T12:16:02Z</time>
      </trkpt>
    </trkseg>
  </trk>
</gpx>